Darstellungsparameter: Aktuell verwendete Einstellungen:
Skalierung der Graphiken ... ?
xyx+y,   Skalierungsfaktor:      Skalierung: Modus: x, Faktor: 1
Darstellungszeitraum ... ?
Vom - - bis: - -   Zeitraum: 15.08.2010 - 14.09.2010
Min/Max/Avg-Anzeige ... ?
Zeige MMA aktuell
Zeige MMA Monat
Zeige MMA alles
Zeige --A aktuell
Zeige --A Monat
Zeige --A alles
Keine MMA-Anzeige
MMA:
Average (ber die Originaldaten)
MMA-Basis: 23.02.2003 - 30.09.2020
Quicknavigation für Darstellung... ?
Tage:      1T, 2T, 3T, 5T -1T -2T -3T -5T +1T +2T +3T +5T
Wochen: 1W, 2W, 3W -1W -2W -3W +1W +2W +3W
Monate: 1M, 3M, 6M -1M -3M -6M +1M +3M +6M
Jahre:    1J, 3J, 5J, 10J -1J -3J -5J -10J +1J +3J +5J +10J
Nutze für die Darstellung ... ?
Originaldaten oder Mittelwerte auf ...
Stundenbasis Tagesbasis Wochenbasis
Monatsbasis Jahresbasis      Datenbasis: Original-Daten
Darstellen als:
Statistik (Auto) Statistik J:M      Darstellung:
Zur Graphik,    zurück zur Übersicht aller Sensoren.
 
Tabellarische Datenbersicht: ?
 
Sensor: Nr:Datum:Temp:Abs-Feuchte:Windchill:Wind:
Aussen-T/F 1 15-08-2010 00:09:03 20 C 8.81 g/m*3 20 C 0 km/h
2 15-08-2010 00:21:03 19.8 C 8.88 g/m*3 19.8 C 0 km/h
3 15-08-2010 00:33:03 19.8 C 8.88 g/m*3 19.8 C 0 km/h
4 15-08-2010 00:45:03 19.6 C 8.78 g/m*3 19.6 C 0 km/h
5 15-08-2010 00:57:03 19.5 C 8.73 g/m*3 19.5 C 0 km/h
6 15-08-2010 01:09:03 19.5 C 8.89 g/m*3 19.5 C 0 km/h
7 15-08-2010 01:21:03 19.5 C 8.56 g/m*3 19.5 C 0 km/h
8 15-08-2010 01:33:03 19.4 C 8.84 g/m*3 19.4 C 0 km/h
9 15-08-2010 01:45:03 19.3 C 8.63 g/m*3 19.3 C 0 km/h
10 15-08-2010 01:57:03 19.2 C 8.74 g/m*3 19.2 C 0 km/h
11 15-08-2010 02:09:03 19.1 C 8.69 g/m*3 19.1 C 0 km/h
12 15-08-2010 02:21:03 19.1 C 9.02 g/m*3 19.1 C 0 km/h
13 15-08-2010 02:33:03 19 C 8.96 g/m*3 19 C 0 km/h
14 15-08-2010 02:45:03 18.9 C 9.07 g/m*3 18.9 C 0 km/h
15 15-08-2010 02:57:03 18.8 C 9.18 g/m*3 18.8 C 0 km/h
16 15-08-2010 03:09:03 18.8 C 9.34 g/m*3 18.8 C 0 km/h
17 15-08-2010 03:21:03 18.7 C 9.29 g/m*3 18.7 C 0 km/h
18 15-08-2010 03:33:04 18.6 C 9.23 g/m*3 18.6 C 0 km/h
19 15-08-2010 03:45:04 18.5 C 9.33 g/m*3 18.5 C 0 km/h
20 15-08-2010 03:57:04 18.4 C 9.28 g/m*3 18.4 C 0 km/h
21 15-08-2010 04:09:04 18.2 C 9.17 g/m*3 18.2 C 0 km/h
22 15-08-2010 04:21:04 18.2 C 9.33 g/m*3 18.2 C 0 km/h
23 15-08-2010 04:33:04 18.1 C 9.12 g/m*3 18.1 C 0 km/h
24 15-08-2010 04:45:04 18.1 C 9.12 g/m*3 18.1 C 0 km/h
25 15-08-2010 04:57:04 18.1 C 8.96 g/m*3 18.1 C 0 km/h
Sensor: Nr:Datum:Temp:Abs-Feuchte:Windchill:Wind:
Aussen-T/F 26 15-08-2010 05:09:04 18.1 C 8.81 g/m*3 18.1 C 0 km/h
27 15-08-2010 05:21:04 18.1 C 8.96 g/m*3 18.1 C 0 km/h
28 15-08-2010 05:33:04 18.1 C 8.81 g/m*3 18.1 C 0 km/h
29 15-08-2010 05:45:04 18 C 8.91 g/m*3 18 C 0 km/h
30 15-08-2010 05:57:04 18 C 8.91 g/m*3 18 C 0 km/h
31 15-08-2010 06:09:04 17.8 C 9.11 g/m*3 17.8 C 0 km/h
32 15-08-2010 06:21:04 17.9 C 9.01 g/m*3 17.9 C 0 km/h
33 15-08-2010 06:33:04 18 C 9.06 g/m*3 18 C 0 km/h
34 15-08-2010 06:45:04 17.9 C 9.01 g/m*3 17.9 C 0 km/h
35 15-08-2010 06:57:04 17.9 C 9.01 g/m*3 17.9 C 0 km/h
36 15-08-2010 07:09:04 18 C 8.91 g/m*3 18 C 0 km/h
37 15-08-2010 07:21:04 17.9 C 9.16 g/m*3 17.9 C 0 km/h
38 15-08-2010 07:33:04 17.2 C 9.52 g/m*3 17.2 C 0 km/h
39 15-08-2010 07:45:05 16.4 C 10.05 g/m*3 16.4 C 0 km/h
40 15-08-2010 07:57:05 16 C 10.63 g/m*3 16 C 0 km/h
41 15-08-2010 08:09:05 15.4 C 11.04 g/m*3 15.4 C 0 km/h
42 15-08-2010 08:21:05 15.1 C 11.22 g/m*3 15.1 C 0 km/h
43 15-08-2010 08:33:03 15.1 C 11.48 g/m*3 15.1 C 0 km/h
44 15-08-2010 08:45:02 15.4 C 11.82 g/m*3 15.4 C 0 km/h
45 15-08-2010 08:57:02 15.2 C 11.81 g/m*3 15.2 C 0 km/h
46 15-08-2010 09:09:03 15.1 C 11.74 g/m*3 15.1 C 0 km/h
47 15-08-2010 09:21:02 15.1 C 11.87 g/m*3 15.1 C 0 km/h
48 15-08-2010 09:33:02 15.2 C 12.07 g/m*3 15.2 C 0 km/h
49 15-08-2010 09:45:01 15.3 C 12.14 g/m*3 15.3 C 0 km/h
50 15-08-2010 09:57:01 15.3 C 12.14 g/m*3 15.3 C 0 km/h
Sensor: Nr:Datum:Temp:Abs-Feuchte:Windchill:Wind:
Aussen-T/F 51 15-08-2010 10:09:02 15.5 C 12.43 g/m*3 15.5 C 0 km/h
52 15-08-2010 10:21:01 15.4 C 12.35 g/m*3 15.4 C 0 km/h
53 15-08-2010 10:33:01 15.4 C 12.35 g/m*3 15.4 C 0 km/h
54 15-08-2010 10:45:01 15.5 C 12.43 g/m*3 15.5 C 0 km/h
55 15-08-2010 10:57:01 15.6 C 12.63 g/m*3 15.6 C 0 km/h
56 15-08-2010 11:09:01 15.7 C 12.71 g/m*3 15.7 C 0 km/h
57 15-08-2010 11:21:02 15.8 C 12.79 g/m*3 15.8 C 0 km/h
58 15-08-2010 11:33:01 15.8 C 12.79 g/m*3 15.8 C 0 km/h
59 15-08-2010 11:45:03 15.9 C 12.87 g/m*3 15.9 C 0 km/h
60 15-08-2010 11:57:03 15.9 C 12.87 g/m*3 15.9 C 0 km/h
61 15-08-2010 12:09:02 15.8 C 12.79 g/m*3 15.8 C 0 km/h
62 15-08-2010 12:21:02 16 C 12.94 g/m*3 16 C 0 km/h
63 15-08-2010 12:33:02 16.2 C 13.1 g/m*3 16.2 C 0 km/h
64 15-08-2010 12:45:02 16.1 C 13.02 g/m*3 16.1 C 0 km/h
65 15-08-2010 12:57:02 16.1 C 13.02 g/m*3 16.1 C 0 km/h
66 15-08-2010 13:09:02 16.1 C 13.02 g/m*3 16.1 C 0 km/h
67 15-08-2010 13:21:02 16.1 C 13.02 g/m*3 16.1 C 0 km/h
68 15-08-2010 13:33:02 16.2 C 13.1 g/m*3 16.2 C 0 km/h
69 15-08-2010 13:45:01 16.2 C 13.1 g/m*3 16.2 C 0 km/h
70 15-08-2010 13:57:01 16.1 C 13.02 g/m*3 16.1 C 0 km/h
71 15-08-2010 14:09:02 16.2 C 13.1 g/m*3 16.2 C 0 km/h
72 15-08-2010 14:21:02 16.3 C 13.18 g/m*3 16.3 C 0 km/h
73 15-08-2010 14:33:02 16.6 C 13.42 g/m*3 16.6 C 0 km/h
74 15-08-2010 14:45:02 16.6 C 13.42 g/m*3 16.6 C 0 km/h
75 15-08-2010 14:57:02 16.5 C 13.34 g/m*3 16.5 C 0 km/h
Sensor: Nr:Datum:Temp:Abs-Feuchte:Windchill:Wind:
Aussen-T/F 76 15-08-2010 15:09:02 16.4 C 13.26 g/m*3 16.4 C 0 km/h
77 15-08-2010 15:21:02 16.4 C 13.26 g/m*3 16.4 C 0 km/h
78 15-08-2010 15:33:01 16.4 C 13.26 g/m*3 16.4 C 0 km/h
79 15-08-2010 15:45:02 16.4 C 13.26 g/m*3 16.4 C 0 km/h
80 15-08-2010 15:57:02 16.4 C 13.26 g/m*3 16.4 C 0 km/h
81 15-08-2010 16:09:04 16.5 C 13.34 g/m*3 16.5 C 0 km/h
82 15-08-2010 16:21:02 16.5 C 13.34 g/m*3 16.5 C 0 km/h
83 15-08-2010 16:33:02 16.5 C 13.34 g/m*3 16.5 C 0 km/h
84 15-08-2010 16:45:03 16.4 C 13.26 g/m*3 16.4 C 0 km/h
85 15-08-2010 16:57:03 16.5 C 13.34 g/m*3 16.5 C 0 km/h
86 15-08-2010 17:09:03 16.6 C 13.42 g/m*3 16.6 C 0 km/h
87 15-08-2010 17:21:02 16.7 C 13.5 g/m*3 16.7 C 0 km/h
88 15-08-2010 17:33:02 16.7 C 13.5 g/m*3 16.7 C 0 km/h
89 15-08-2010 17:45:02 16.7 C 13.5 g/m*3 16.7 C 0 km/h
90 15-08-2010 17:57:02 16.7 C 13.5 g/m*3 16.7 C 0 km/h
91 15-08-2010 18:09:02 16.6 C 13.42 g/m*3 16.6 C 0 km/h
92 15-08-2010 18:21:02 16.6 C 13.42 g/m*3 16.6 C 0 km/h
93 15-08-2010 18:33:02 16.6 C 13.42 g/m*3 16.6 C 0 km/h
94 15-08-2010 18:45:02 16.6 C 13.42 g/m*3 16.6 C 0 km/h
95 15-08-2010 18:57:03 16.6 C 13.42 g/m*3 16.6 C 0 km/h
96 15-08-2010 19:09:01 16.6 C 13.42 g/m*3 16.6 C 0 km/h
97 15-08-2010 19:21:01 16.6 C 13.42 g/m*3 16.6 C 0 km/h
98 15-08-2010 19:33:02 16.6 C 13.42 g/m*3 16.6 C 0 km/h
99 15-08-2010 19:45:02 16.6 C 13.42 g/m*3 16.6 C 0 km/h
100 15-08-2010 19:57:02 16.6 C 13.42 g/m*3 16.6 C 0 km/h
Sensor: Nr:Datum:Temp:Abs-Feuchte:Windchill:Wind:
Aussen-T/F 101 15-08-2010 20:09:02 16.5 C 13.34 g/m*3 16.5 C 0 km/h
102 15-08-2010 20:21:02 16.4 C 13.26 g/m*3 16.4 C 0 km/h
103 15-08-2010 20:33:02 16.4 C 13.26 g/m*3 16.4 C 0 km/h
104 15-08-2010 20:45:02 16.3 C 13.18 g/m*3 16.3 C 0 km/h
105 15-08-2010 20:57:02 16.3 C 13.18 g/m*3 16.3 C 0 km/h
106 15-08-2010 21:09:02 16.3 C 13.18 g/m*3 16.3 C 0 km/h
107 15-08-2010 21:21:02 16.3 C 13.18 g/m*3 16.3 C 0 km/h
108 15-08-2010 21:33:02 16.2 C 13.1 g/m*3 16.2 C 0 km/h
109 15-08-2010 21:45:02 16.2 C 13.1 g/m*3 16.2 C 0 km/h
110 15-08-2010 21:57:02 16.2 C 13.1 g/m*3 16.2 C 0 km/h
111 15-08-2010 22:09:02 16.1 C 13.02 g/m*3 16.1 C 0 km/h
112 15-08-2010 22:21:02 16.1 C 13.02 g/m*3 16.1 C 0 km/h
113 15-08-2010 22:33:02 16.2 C 13.1 g/m*3 16.2 C 0 km/h
114 15-08-2010 22:45:02 16.2 C 13.1 g/m*3 16.2 C 0 km/h
115 15-08-2010 22:57:02 16.1 C 13.02 g/m*3 16.1 C 0 km/h
116 15-08-2010 23:09:02 16 C 12.94 g/m*3 16 C 0 km/h
117 15-08-2010 23:21:02 15.9 C 12.87 g/m*3 15.9 C 0 km/h
118 15-08-2010 23:33:02 15.4 C 12.48 g/m*3 15.4 C 0 km/h
119 15-08-2010 23:45:02 15.2 C 12.33 g/m*3 15.2 C 0 km/h
120 15-08-2010 23:57:02 15 C 12.18 g/m*3 15 C 0 km/h
121 16-08-2010 00:09:02 15 C 12.18 g/m*3 15 C 0 km/h
122 16-08-2010 00:21:01 15 C 12.18 g/m*3 15 C 0 km/h
123 16-08-2010 00:33:02 14.9 C 12.11 g/m*3 14.9 C 0 km/h
124 16-08-2010 00:45:02 14.8 C 12.03 g/m*3 14.8 C 0 km/h
125 16-08-2010 00:57:02 14.8 C 12.03 g/m*3 14.8 C 0 km/h
Sensor: Nr:Datum:Temp:Abs-Feuchte:Windchill:Wind:
Aussen-T/F 126 16-08-2010 01:09:02 14.8 C 12.03 g/m*3 14.8 C 0 km/h
127 16-08-2010 01:21:02 14.7 C 11.96 g/m*3 14.7 C 0 km/h
128 16-08-2010 01:33:02 14.7 C 11.83 g/m*3 14.7 C 0 km/h
129 16-08-2010 01:45:02 14.7 C 11.83 g/m*3 14.7 C 0 km/h
130 16-08-2010 01:57:02 14.7 C 11.71 g/m*3 14.7 C 0 km/h
131 16-08-2010 02:09:02 14.6 C 11.64 g/m*3 14.6 C 0 km/h
132 16-08-2010 02:21:02 14.6 C 11.64 g/m*3 14.6 C 0 km/h
133 16-08-2010 02:33:02 14.6 C 11.64 g/m*3 14.6 C 0 km/h
134 16-08-2010 02:46:03 14.6 C 11.51 g/m*3 14.6 C 0 km/h
135 16-08-2010 02:58:03 14.6 C 11.64 g/m*3 14.6 C 0 km/h
136 16-08-2010 03:10:04 14.6 C 11.64 g/m*3 14.6 C 0 km/h
137 16-08-2010 03:22:04 14.6 C 11.64 g/m*3 14.6 C 0 km/h
138 16-08-2010 03:34:02 14.6 C 11.64 g/m*3 14.6 C 0 km/h
139 16-08-2010 03:46:02 14.6 C 11.64 g/m*3 14.6 C 0 km/h
140 16-08-2010 03:58:02 14.6 C 11.64 g/m*3 14.6 C 0 km/h
141 16-08-2010 04:10:02 14.5 C 11.44 g/m*3 14.5 C 0 km/h
142 16-08-2010 04:22:02 14.5 C 11.32 g/m*3 14.5 C 0 km/h
143 16-08-2010 04:34:02 14.5 C 11.32 g/m*3 14.5 C 0 km/h
144 16-08-2010 04:46:02 14.5 C 11.32 g/m*3 14.5 C 0 km/h
145 16-08-2010 04:58:02 14.5 C 11.32 g/m*3 14.5 C 0 km/h
146 16-08-2010 05:10:02 14.5 C 11.32 g/m*3 14.5 C 0 km/h
147 16-08-2010 05:22:02 14.5 C 11.32 g/m*3 14.5 C 0 km/h
148 16-08-2010 05:34:02 14.5 C 11.44 g/m*3 14.5 C 0 km/h
149 16-08-2010 05:46:01 14.5 C 11.44 g/m*3 14.5 C 0 km/h
150 16-08-2010 05:58:01 14.5 C 11.44 g/m*3 14.5 C 0 km/h
Sensor: Nr:Datum:Temp:Abs-Feuchte:Windchill:Wind:
Aussen-T/F 151 16-08-2010 06:10:02 14.5 C 11.44 g/m*3 14.5 C 0 km/h
152 16-08-2010 06:22:02 14.5 C 11.32 g/m*3 14.5 C 0 km/h
153 16-08-2010 06:34:02 14.5 C 11.32 g/m*3 14.5 C 0 km/h
154 16-08-2010 06:46:02 14.6 C 11.39 g/m*3 14.6 C 0 km/h
155 16-08-2010 06:58:02 14.6 C 11.39 g/m*3 14.6 C 0 km/h
156 16-08-2010 07:10:02 14.6 C 11.39 g/m*3 14.6 C 0 km/h
157 16-08-2010 07:22:56 14.8 C 11.53 g/m*3 14.8 C 0 km/h
158 16-08-2010 07:34:02 14.8 C 11.53 g/m*3 14.8 C 0 km/h
159 16-08-2010 07:46:02 14.8 C 11.4 g/m*3 14.8 C 0 km/h
160 16-08-2010 07:58:02 15.2 C 11.42 g/m*3 15.2 C 0 km/h
161 16-08-2010 08:10:02 15.6 C 11.57 g/m*3 15.6 C 0 km/h
162 16-08-2010 08:22:01 15.8 C 11.58 g/m*3 15.8 C 0 km/h
163 16-08-2010 08:34:02 15.9 C 11.38 g/m*3 15.9 C 0 km/h
164 16-08-2010 08:46:01 16 C 11.31 g/m*3 16 C 0 km/h
165 16-08-2010 08:58:01 16.3 C 11.38 g/m*3 16.3 C 0 km/h
166 16-08-2010 09:10:02 17.1 C 11.5 g/m*3 17.1 C 0 km/h
167 16-08-2010 09:22:02 17.4 C 11.12 g/m*3 17.4 C 0 km/h
168 16-08-2010 09:34:01 17.4 C 10.82 g/m*3 17.4 C 0 km/h
169 16-08-2010 09:46:01 17.7 C 11.01 g/m*3 17.7 C 0 km/h
170 16-08-2010 09:58:01 17.4 C 10.97 g/m*3 17.4 C 0 km/h
171 16-08-2010 10:10:01 17.4 C 10.97 g/m*3 17.4 C 0 km/h
172 16-08-2010 10:22:02 17.3 C 10.9 g/m*3 17.3 C 0 km/h
173 16-08-2010 10:34:01 17.1 C 10.63 g/m*3 17.1 C 0 km/h
174 16-08-2010 10:46:02 17.2 C 10.84 g/m*3 17.2 C 0 km/h
175 16-08-2010 10:58:02 17 C 10.85 g/m*3 17 C 0 km/h
Sensor: Nr:Datum:Temp:Abs-Feuchte:Windchill:Wind:
Aussen-T/F 176 16-08-2010 11:10:01 17.3 C 11.05 g/m*3 17.3 C 0 km/h
177 16-08-2010 11:22:01 17.7 C 11.47 g/m*3 17.7 C 0 km/h
178 16-08-2010 11:42:02 18.1 C 10.97 g/m*3 18.1 C 0 km/h
179 16-08-2010 11:54:02 17.7 C 10.86 g/m*3 17.7 C 0 km/h
180 16-08-2010 12:06:03 17.5 C 11.33 g/m*3 17.5 C 0 km/h
181 16-08-2010 12:18:02 17.8 C 11.84 g/m*3 17.8 C 0 km/h
182 16-08-2010 12:30:02 17.6 C 11.4 g/m*3 17.6 C 0 km/h
183 16-08-2010 12:42:02 17.8 C 11.54 g/m*3 17.8 C 0 km/h
184 16-08-2010 12:54:02 18.1 C 11.12 g/m*3 18.1 C 0 km/h
185 16-08-2010 13:06:02 18.1 C 10.97 g/m*3 18.1 C 0 km/h
186 16-08-2010 13:18:02 18.2 C 10.72 g/m*3 18.2 C 0 km/h
187 16-08-2010 13:30:02 18.3 C 10.63 g/m*3 18.3 C 0 km/h
188 16-08-2010 13:42:02 18.5 C 10.28 g/m*3 18.5 C 0 km/h
189 16-08-2010 13:54:02 18.8 C 10.31 g/m*3 18.8 C 0 km/h
190 16-08-2010 14:06:01 19.5 C 10.41 g/m*3 19.5 C 0 km/h
191 16-08-2010 14:18:02 19.6 C 9.96 g/m*3 19.6 C 0 km/h
192 16-08-2010 14:30:03 20 C 9.51 g/m*3 20 C 0 km/h
193 16-08-2010 14:42:01 20.5 C 9.96 g/m*3 20.5 C 0 km/h
194 16-08-2010 14:54:02 19.8 C 9.57 g/m*3 19.8 C 0 km/h
195 16-08-2010 15:06:02 19.7 C 9.34 g/m*3 19.7 C 0 km/h
196 16-08-2010 15:18:02 19.7 C 9.51 g/m*3 19.7 C 0 km/h
197 16-08-2010 15:30:02 19.7 C 9.34 g/m*3 19.7 C 0 km/h
198 16-08-2010 15:42:03 19.8 C 9.57 g/m*3 19.8 C 0 km/h
199 16-08-2010 15:54:02 19.7 C 9.34 g/m*3 19.7 C 0 km/h
200 16-08-2010 16:06:02 20 C 9.68 g/m*3 20 C 0 km/h
Sensor: Nr:Datum:Temp:Abs-Feuchte:Windchill:Wind:
Aussen-T/F 201 16-08-2010 16:18:02 19.7 C 9.68 g/m*3 19.7 C 0 km/h
202 16-08-2010 16:30:02 19.6 C 9.79 g/m*3 19.6 C 0 km/h
203 16-08-2010 16:42:02 19.5 C 9.73 g/m*3 19.5 C 0 km/h
204 16-08-2010 16:54:02 20 C 9.85 g/m*3 20 C 0 km/h
205 16-08-2010 17:07:03 20 C 9.85 g/m*3 20 C 0 km/h
206 16-08-2010 17:19:02 19.9 C 9.79 g/m*3 19.9 C 0 km/h
207 16-08-2010 17:31:02 19.8 C 9.74 g/m*3 19.8 C 0 km/h
208 16-08-2010 17:43:02 19.8 C 9.74 g/m*3 19.8 C 0 km/h
209 16-08-2010 17:55:01 20.3 C 9.85 g/m*3 20.3 C 0 km/h
210 16-08-2010 18:07:02 20.2 C 9.44 g/m*3 20.2 C 0 km/h
211 16-08-2010 18:19:01 20 C 9.51 g/m*3 20 C 0 km/h
212 16-08-2010 18:31:01 19.8 C 9.74 g/m*3 19.8 C 0 km/h
213 16-08-2010 18:43:01 19.5 C 9.73 g/m*3 19.5 C 0 km/h
214 16-08-2010 18:55:01 19.3 C 9.79 g/m*3 19.3 C 0 km/h
215 16-08-2010 19:07:02 18.9 C 9.88 g/m*3 18.9 C 0 km/h
216 16-08-2010 19:19:02 18.8 C 9.99 g/m*3 18.8 C 0 km/h
217 16-08-2010 19:31:01 18.7 C 10.09 g/m*3 18.7 C 0 km/h
218 16-08-2010 19:43:01 18.4 C 10.07 g/m*3 18.4 C 0 km/h
219 16-08-2010 19:55:02 18.2 C 10.26 g/m*3 18.2 C 0 km/h
220 16-08-2010 20:07:01 18.1 C 10.35 g/m*3 18.1 C 0 km/h
221 16-08-2010 20:19:02 18 C 10.44 g/m*3 18 C 0 km/h
222 16-08-2010 20:31:01 17.9 C 10.69 g/m*3 17.9 C 0 km/h
223 16-08-2010 20:43:01 17.8 C 10.78 g/m*3 17.8 C 0 km/h
224 16-08-2010 20:55:02 17.7 C 10.86 g/m*3 17.7 C 0 km/h
225 16-08-2010 21:07:01 17.6 C 11.1 g/m*3 17.6 C 0 km/h
Sensor: Nr:Datum:Temp:Abs-Feuchte:Windchill:Wind:
Aussen-T/F 226 16-08-2010 21:19:01 17.4 C 11.12 g/m*3 17.4 C 0 km/h
227 16-08-2010 21:31:02 17.3 C 11.34 g/m*3 17.3 C 0 km/h
228 16-08-2010 21:43:02 17.4 C 11.41 g/m*3 17.4 C 0 km/h
229 16-08-2010 21:55:02 17.5 C 11.63 g/m*3 17.5 C 0 km/h
230 16-08-2010 22:07:35 17.4 C 11.71 g/m*3 17.4 C 0 km/h
231 16-08-2010 22:20:03 17.5 C 11.78 g/m*3 17.5 C 0 km/h
232 16-08-2010 22:32:03 17.6 C 11.85 g/m*3 17.6 C 0 km/h
233 16-08-2010 22:44:03 17.7 C 11.92 g/m*3 17.7 C 0 km/h
234 16-08-2010 22:56:03 17.7 C 11.92 g/m*3 17.7 C 0 km/h
235 16-08-2010 23:08:03 17.8 C 12.14 g/m*3 17.8 C 0 km/h
236 16-08-2010 23:20:03 17.7 C 12.07 g/m*3 17.7 C 0 km/h
237 16-08-2010 23:32:03 17.7 C 12.07 g/m*3 17.7 C 0 km/h
238 16-08-2010 23:44:03 17.8 C 11.99 g/m*3 17.8 C 0 km/h
239 16-08-2010 23:56:03 17.8 C 11.99 g/m*3 17.8 C 0 km/h
240 17-08-2010 00:08:03 17.8 C 11.99 g/m*3 17.8 C 0 km/h
241 17-08-2010 00:20:03 17.8 C 11.99 g/m*3 17.8 C 0 km/h
242 17-08-2010 00:32:03 17.7 C 11.92 g/m*3 17.7 C 0 km/h
243 17-08-2010 00:44:03 17.5 C 11.78 g/m*3 17.5 C 0 km/h
244 17-08-2010 00:56:03 17.3 C 12.08 g/m*3 17.3 C 0 km/h
245 17-08-2010 01:08:03 17.1 C 12.08 g/m*3 17.1 C 0 km/h
246 17-08-2010 01:20:03 16.8 C 12.3 g/m*3 16.8 C 0 km/h
247 17-08-2010 01:32:03 16.6 C 12.29 g/m*3 16.6 C 0 km/h
248 17-08-2010 01:44:03 16.5 C 12.36 g/m*3 16.5 C 0 km/h
249 17-08-2010 01:56:03 16.4 C 12.42 g/m*3 16.4 C 0 km/h
250 17-08-2010 02:08:03 16.3 C 12.35 g/m*3 16.3 C 0 km/h
Sensor: Nr:Datum:Temp:Abs-Feuchte:Windchill:Wind:
Aussen-T/F 251 17-08-2010 02:20:03 16.5 C 12.5 g/m*3 16.5 C 0 km/h
252 17-08-2010 02:32:04 16.5 C 12.5 g/m*3 16.5 C 0 km/h
253 17-08-2010 02:44:04 16.6 C 12.43 g/m*3 16.6 C 0 km/h
254 17-08-2010 02:56:04 16.5 C 12.08 g/m*3 16.5 C 0 km/h
255 17-08-2010 03:08:04 16.4 C 11.86 g/m*3 16.4 C 0 km/h
256 17-08-2010 03:20:04 16.4 C 11.86 g/m*3 16.4 C 0 km/h
257 17-08-2010 03:32:04 16.4 C 11.86 g/m*3 16.4 C 0 km/h
258 17-08-2010 03:44:04 16.4 C 11.72 g/m*3 16.4 C 0 km/h
259 17-08-2010 03:56:04 16.5 C 11.65 g/m*3 16.5 C 0 km/h
260 17-08-2010 04:08:04 16.5 C 11.37 g/m*3 16.5 C 0 km/h
261 17-08-2010 04:20:04 16.4 C 11.31 g/m*3 16.4 C 0 km/h
262 17-08-2010 04:32:04 16.4 C 11.17 g/m*3 16.4 C 0 km/h
263 17-08-2010 04:44:04 16.4 C 11.03 g/m*3 16.4 C 0 km/h
264 17-08-2010 04:56:04 16.4 C 11.03 g/m*3 16.4 C 0 km/h
265 17-08-2010 05:08:04 16 C 11.04 g/m*3 16 C 0 km/h
266 17-08-2010 05:20:04 15.5 C 11.24 g/m*3 15.5 C 0 km/h
267 17-08-2010 05:32:05 15.4 C 11.43 g/m*3 15.4 C 0 km/h
268 17-08-2010 05:44:05 15.6 C 11.57 g/m*3 15.6 C 0 km/h
269 17-08-2010 05:56:05 15.6 C 11.44 g/m*3 15.6 C 0 km/h
270 17-08-2010 06:08:05 15.7 C 11.37 g/m*3 15.7 C 0 km/h
271 17-08-2010 06:20:05 15.8 C 11.31 g/m*3 15.8 C 0 km/h
272 17-08-2010 06:32:05 15.8 C 11.31 g/m*3 15.8 C 0 km/h
273 17-08-2010 06:44:05 15.9 C 11.24 g/m*3 15.9 C 0 km/h
274 17-08-2010 06:56:02 16 C 10.9 g/m*3 16 C 0 km/h
275 17-08-2010 07:08:02 16.2 C 10.89 g/m*3 16.2 C 0 km/h
Sensor: Nr:Datum:Temp:Abs-Feuchte:Windchill:Wind:
Aussen-T/F 276 17-08-2010 07:20:24 16.2 C 10.76 g/m*3 16.2 C 0 km/h
277 17-08-2010 07:32:02 16.3 C 10.96 g/m*3 16.3 C 0 km/h
278 17-08-2010 07:44:02 16.4 C 10.89 g/m*3 16.4 C 0 km/h
279 17-08-2010 07:56:01 16.7 C 10.66 g/m*3 16.7 C 0 km/h
280 17-08-2010 08:08:03 16.7 C 10.66 g/m*3 16.7 C 0 km/h
281 17-08-2010 08:20:01 16.8 C 10.58 g/m*3 16.8 C 0 km/h
282 17-08-2010 08:32:02 16.7 C 10.23 g/m*3 16.7 C 0 km/h
283 17-08-2010 08:44:02 16.7 C 10.09 g/m*3 16.7 C 0 km/h
284 17-08-2010 08:56:02 16.7 C 10.09 g/m*3 16.7 C 0 km/h
285 17-08-2010 09:08:02 16.8 C 10.01 g/m*3 16.8 C 0 km/h
286 17-08-2010 09:20:02 16.9 C 9.78 g/m*3 16.9 C 0 km/h
287 17-08-2010 09:32:02 16.9 C 9.64 g/m*3 16.9 C 0 km/h
288 17-08-2010 09:44:02 17.1 C 9.46 g/m*3 17.1 C 0 km/h
289 17-08-2010 09:56:02 17.2 C 9.37 g/m*3 17.2 C 0 km/h
290 17-08-2010 10:08:02 17 C 9.26 g/m*3 17 C 0 km/h
291 17-08-2010 10:20:01 17 C 9.26 g/m*3 17 C 0 km/h
292 17-08-2010 10:32:02 17 C 9.41 g/m*3 17 C 0 km/h
293 17-08-2010 10:44:02 17 C 9.41 g/m*3 17 C 0 km/h
294 17-08-2010 10:56:02 17.3 C 9.43 g/m*3 17.3 C 0 km/h
295 17-08-2010 11:08:02 17.6 C 9.45 g/m*3 17.6 C 0 km/h
296 17-08-2010 11:20:02 17.3 C 9.58 g/m*3 17.3 C 0 km/h
297 17-08-2010 11:32:02 17.6 C 9.3 g/m*3 17.6 C 0 km/h
298 17-08-2010 11:44:02 17.7 C 8.75 g/m*3 17.7 C 0 km/h
299 17-08-2010 11:56:02 17.7 C 8.9 g/m*3 17.7 C 0 km/h
300 17-08-2010 12:08:02 17.6 C 8.85 g/m*3 17.6 C 0 km/h
Sensor: Nr:Datum:Temp:Abs-Feuchte:Windchill:Wind:
Aussen-T/F 301 17-08-2010 12:20:02 16.8 C 9.58 g/m*3 16.8 C 0 km/h
302 17-08-2010 12:32:02 16 C 10.08 g/m*3 16 C 0 km/h
303 17-08-2010 12:44:02 16.4 C 11.03 g/m*3 16.4 C 0 km/h
304 17-08-2010 12:56:02 16.3 C 10.96 g/m*3 16.3 C 0 km/h
305 17-08-2010 13:08:02 16.5 C 11.23 g/m*3 16.5 C 0 km/h
306 17-08-2010 13:20:02 16.8 C 11.58 g/m*3 16.8 C 0 km/h
307 17-08-2010 13:32:02 17.7 C 11.92 g/m*3 17.7 C 0 km/h
308 17-08-2010 13:44:02 17.9 C 11.76 g/m*3 17.9 C 0 km/h
309 17-08-2010 13:56:02 17.6 C 12.15 g/m*3 17.6 C 0 km/h
310 17-08-2010 14:08:01 17.7 C 10.41 g/m*3 17.7 C 0 km/h
311 17-08-2010 14:20:02 17.3 C 9.28 g/m*3 17.3 C 0 km/h
312 17-08-2010 14:32:02 17.4 C 9.19 g/m*3 17.4 C 0 km/h
313 17-08-2010 14:44:02 18.1 C 8.65 g/m*3 18.1 C 0 km/h
314 17-08-2010 14:56:02 18.2 C 8.24 g/m*3 18.2 C 0 km/h
315 17-08-2010 15:08:01 17.9 C 7.94 g/m*3 17.9 C 0 km/h
316 17-08-2010 15:20:01 18.3 C 7.97 g/m*3 18.3 C 0 km/h
317 17-08-2010 15:32:02 18 C 7.99 g/m*3 18 C 0 km/h
318 17-08-2010 15:44:02 16 C 9.4 g/m*3 16 C 0 km/h
319 17-08-2010 15:56:02 15.2 C 9.99 g/m*3 15.2 C 0 km/h
320 17-08-2010 16:08:02 14.9 C 10.2 g/m*3 14.9 C 0 km/h
321 17-08-2010 16:20:01 14.6 C 10.01 g/m*3 14.6 C 0 km/h
322 17-08-2010 16:32:02 14.4 C 9.64 g/m*3 14.4 C 0 km/h
323 17-08-2010 16:44:02 14.8 C 9.37 g/m*3 14.8 C 0 km/h
324 17-08-2010 16:56:02 14.8 C 9.5 g/m*3 14.8 C 0 km/h
325 17-08-2010 17:08:02 14.5 C 9.45 g/m*3 14.5 C 0 km/h
Sensor: Nr:Datum:Temp:Abs-Feuchte:Windchill:Wind:
Aussen-T/F 326 17-08-2010 17:20:01 14.4 C 9.64 g/m*3 14.4 C 0 km/h
327 17-08-2010 17:32:02 14.2 C 9.77 g/m*3 14.2 C 0 km/h
328 17-08-2010 17:44:02 14.3 C 10.32 g/m*3 14.3 C 0 km/h
329 17-08-2010 17:56:02 14.7 C 10.7 g/m*3 14.7 C 0 km/h
330 17-08-2010 18:08:02 14.3 C 10.57 g/m*3 14.3 C 0 km/h
331 17-08-2010 18:20:02 14.4 C 10.75 g/m*3 14.4 C 0 km/h
332 17-08-2010 18:32:02 14.8 C 11.15 g/m*3 14.8 C 0 km/h
333 17-08-2010 18:44:02 15.2 C 11.29 g/m*3 15.2 C 0 km/h
334 17-08-2010 18:56:02 15.3 C 11.23 g/m*3 15.3 C 0 km/h
335 17-08-2010 19:08:02 15.2 C 11.16 g/m*3 15.2 C 0 km/h
336 17-08-2010 19:20:02 15 C 11.03 g/m*3 15 C 0 km/h
337 17-08-2010 19:32:02 14.8 C 11.02 g/m*3 14.8 C 0 km/h
338 17-08-2010 19:44:02 14.7 C 11.08 g/m*3 14.7 C 0 km/h
339 17-08-2010 19:56:02 14.5 C 10.94 g/m*3 14.5 C 0 km/h
340 17-08-2010 20:08:01 14.4 C 11 g/m*3 14.4 C 0 km/h
341 17-08-2010 20:20:02 14.4 C 11 g/m*3 14.4 C 0 km/h
342 17-08-2010 20:32:02 14.2 C 10.99 g/m*3 14.2 C 0 km/h
343 17-08-2010 20:44:02 14.3 C 11.06 g/m*3 14.3 C 0 km/h
344 17-08-2010 20:56:02 14.3 C 11.06 g/m*3 14.3 C 0 km/h
345 17-08-2010 21:08:03 14.3 C 11.18 g/m*3 14.3 C 0 km/h
346 17-08-2010 21:20:02 14.3 C 11.18 g/m*3 14.3 C 0 km/h
347 17-08-2010 21:32:02 14.3 C 11.3 g/m*3 14.3 C 0 km/h
348 17-08-2010 21:44:02 14.4 C 11.37 g/m*3 14.4 C 0 km/h
349 17-08-2010 21:57:04 14.6 C 11.51 g/m*3 14.6 C 0 km/h
350 17-08-2010 22:09:05 14.6 C 11.51 g/m*3 14.6 C 0 km/h
Sensor: Nr:Datum:Temp:Abs-Feuchte:Windchill:Wind:
Aussen-T/F 351 17-08-2010 22:21:05 14.4 C 11 g/m*3 14.4 C 0 km/h
352 17-08-2010 22:33:05 14.6 C 10.64 g/m*3 14.6 C 0 km/h
353 17-08-2010 22:45:05 14.7 C 10.45 g/m*3 14.7 C 0 km/h
354 17-08-2010 22:57:05 14.8 C 10.13 g/m*3 14.8 C 0 km/h
355 17-08-2010 23:09:05 14.9 C 10.2 g/m*3 14.9 C 0 km/h
356 17-08-2010 23:21:05 14.9 C 10.2 g/m*3 14.9 C 0 km/h
357 17-08-2010 23:33:05 15 C 10 g/m*3 15 C 0 km/h
358 17-08-2010 23:45:05 15 C 9.87 g/m*3 15 C 0 km/h
359 17-08-2010 23:57:05 15.2 C 9.99 g/m*3 15.2 C 0 km/h
360 18-08-2010 00:09:05 15.3 C 9.79 g/m*3 15.3 C 0 km/h
361 18-08-2010 00:21:05 15.4 C 9.72 g/m*3 15.4 C 0 km/h
362 18-08-2010 00:33:05 15.5 C 9.65 g/m*3 15.5 C 0 km/h
363 18-08-2010 00:45:05 15.7 C 9.63 g/m*3 15.7 C 0 km/h
364 18-08-2010 00:57:05 15.7 C 9.5 g/m*3 15.7 C 0 km/h
365 18-08-2010 01:09:05 15.7 C 9.5 g/m*3 15.7 C 0 km/h
366 18-08-2010 01:21:05 15.8 C 9.42 g/m*3 15.8 C 0 km/h
367 18-08-2010 01:33:05 15.8 C 9.42 g/m*3 15.8 C 0 km/h
368 18-08-2010 01:45:05 15.8 C 9.42 g/m*3 15.8 C 0 km/h
369 18-08-2010 01:57:05 15.7 C 9.37 g/m*3 15.7 C 0 km/h
370 18-08-2010 02:09:05 15.5 C 9.39 g/m*3 15.5 C 0 km/h
371 18-08-2010 02:21:05 15.6 C 9.44 g/m*3 15.6 C 0 km/h
372 18-08-2010 02:33:05 15.5 C 9.39 g/m*3 15.5 C 0 km/h
373 18-08-2010 02:45:06 15.6 C 9.44 g/m*3 15.6 C 0 km/h
374 18-08-2010 02:57:06 15.5 C 9.52 g/m*3 15.5 C 0 km/h
375 18-08-2010 03:09:06 15.5 C 9.52 g/m*3 15.5 C 0 km/h
Sensor: Nr:Datum:Temp:Abs-Feuchte:Windchill:Wind:
Aussen-T/F 376 18-08-2010 03:21:06 15.4 C 9.46 g/m*3 15.4 C 0 km/h
377 18-08-2010 03:33:06 15.5 C 9.52 g/m*3 15.5 C 0 km/h
378 18-08-2010 03:45:06 15.4 C 9.46 g/m*3 15.4 C 0 km/h
379 18-08-2010 03:57:06 15.5 C 9.52 g/m*3 15.5 C 0 km/h
380 18-08-2010 04:09:06 15.4 C 9.33 g/m*3 15.4 C 0 km/h
381 18-08-2010 04:21:06 15.4 C 9.46 g/m*3 15.4 C 0 km/h
382 18-08-2010 04:33:06 15.2 C 9.48 g/m*3 15.2 C 0 km/h
383 18-08-2010 04:45:06 15 C 9.62 g/m*3 15 C 0 km/h
384 18-08-2010 04:57:06 15 C 9.87 g/m*3 15 C 0 km/h
385 18-08-2010 05:09:06 15 C 9.87 g/m*3 15 C 0 km/h
386 18-08-2010 05:21:06 15 C 9.75 g/m*3 15 C 0 km/h
387 18-08-2010 05:33:06 14.9 C 9.81 g/m*3 14.9 C 0 km/h
388 18-08-2010 05:45:06 14.9 C 9.81 g/m*3 14.9 C 0 km/h
389 18-08-2010 05:57:06 15 C 9.75 g/m*3 15 C 0 km/h
390 18-08-2010 06:09:06 15 C 9.62 g/m*3 15 C 0 km/h
391 18-08-2010 06:21:04 15 C 9.62 g/m*3 15 C 0 km/h
392 18-08-2010 06:33:04 15 C 9.49 g/m*3 15 C 0 km/h
393 18-08-2010 06:45:02 15.2 C 9.61 g/m*3 15.2 C 0 km/h
394 18-08-2010 06:57:02 15.2 C 9.48 g/m*3 15.2 C 0 km/h
395 18-08-2010 07:09:01 15.2 C 9.48 g/m*3 15.2 C 0 km/h
396 18-08-2010 07:21:01 15.3 C 9.66 g/m*3 15.3 C 0 km/h
397 18-08-2010 07:33:02 15.4 C 9.72 g/m*3 15.4 C 0 km/h
398 18-08-2010 07:45:02 15.5 C 9.78 g/m*3 15.5 C 0 km/h
399 18-08-2010 07:57:02 15.8 C 9.83 g/m*3 15.8 C 0 km/h
400 18-08-2010 08:09:02 15.9 C 9.89 g/m*3 15.9 C 0 km/h
Sensor: Nr:Datum:Temp:Abs-Feuchte:Windchill:Wind:
Aussen-T/F 401 18-08-2010 08:21:01 16 C 9.81 g/m*3 16 C 0 km/h
402 18-08-2010 08:33:02 16.1 C 9.87 g/m*3 16.1 C 0 km/h
403 18-08-2010 08:45:02 16.3 C 9.85 g/m*3 16.3 C 0 km/h
404 18-08-2010 08:57:02 16.5 C 9.97 g/m*3 16.5 C 0 km/h
405 18-08-2010 09:09:02 16.7 C 10.23 g/m*3 16.7 C 0 km/h
406 18-08-2010 09:21:02 17 C 10.13 g/m*3 17 C 0 km/h
407 18-08-2010 09:33:02 17 C 10.13 g/m*3 17 C 0 km/h
408 18-08-2010 09:45:02 17.5 C 10.14 g/m*3 17.5 C 0 km/h
409 18-08-2010 09:57:02 17.3 C 10.16 g/m*3 17.3 C 0 km/h
410 18-08-2010 10:09:02 17.4 C 10.08 g/m*3 17.4 C 0 km/h
411 18-08-2010 10:21:02 17.8 C 10.32 g/m*3 17.8 C 0 km/h
412 18-08-2010 10:33:01 18 C 10.14 g/m*3 18 C 0 km/h
413 18-08-2010 10:45:02 18.5 C 10.28 g/m*3 18.5 C 0 km/h
414 18-08-2010 10:57:02 19.1 C 10.16 g/m*3 19.1 C 0 km/h
415 18-08-2010 11:09:01 18.8 C 9.99 g/m*3 18.8 C 0 km/h
416 18-08-2010 11:21:02 18.9 C 10.21 g/m*3 18.9 C 0 km/h
417 18-08-2010 11:33:02 18.5 C 10.13 g/m*3 18.5 C 0 km/h
418 18-08-2010 11:45:02 18.5 C 10.28 g/m*3 18.5 C 0 km/h
419 18-08-2010 11:57:02 18.8 C 10.31 g/m*3 18.8 C 0 km/h
420 18-08-2010 12:09:02 19.1 C 10.16 g/m*3 19.1 C 0 km/h
421 18-08-2010 12:21:02 18.9 C 10.69 g/m*3 18.9 C 0 km/h
422 18-08-2010 12:33:02 18.8 C 10.63 g/m*3 18.8 C 0 km/h
423 18-08-2010 12:45:02 18.3 C 10.94 g/m*3 18.3 C 0 km/h
424 18-08-2010 12:57:02 19 C 10.92 g/m*3 19 C 0 km/h
425 18-08-2010 13:09:02 20 C 10.54 g/m*3 20 C 0 km/h
Sensor: Nr:Datum:Temp:Abs-Feuchte:Windchill:Wind:
Aussen-T/F 426 18-08-2010 13:21:02 19.8 C 10.76 g/m*3 19.8 C 0 km/h
427 18-08-2010 13:33:02 20.4 C 10.26 g/m*3 20.4 C 0 km/h
428 18-08-2010 13:45:02 21.5 C 9.99 g/m*3 21.5 C 0 km/h
429 18-08-2010 13:57:02 22.3 C 9.48 g/m*3 22.3 C 0 km/h
430 18-08-2010 14:09:02 22.2 C 9.03 g/m*3 22.2 C 0 km/h
431 18-08-2010 14:21:02 22.7 C 9.29 g/m*3 22.7 C 0 km/h
432 18-08-2010 14:33:02 22.7 C 9.29 g/m*3 22.7 C 0 km/h
433 18-08-2010 14:45:02 23.2 C 8.73 g/m*3 23.2 C 0 km/h
434 18-08-2010 14:57:02 23.4 C 8.83 g/m*3 23.4 C 0 km/h
435 18-08-2010 15:09:02 22.5 C 8.99 g/m*3 22.5 C 0 km/h
436 18-08-2010 15:21:02 21.3 C 9.51 g/m*3 21.3 C 0 km/h
437 18-08-2010 15:33:02 22 C 9.12 g/m*3 22 C 0 km/h
438 18-08-2010 15:45:02 22.4 C 8.74 g/m*3 22.4 C 0 km/h
439 18-08-2010 15:57:02 23 C 8.63 g/m*3 23 C 0 km/h
440 18-08-2010 16:09:02 22.7 C 9.09 g/m*3 22.7 C 0 km/h
441 18-08-2010 16:21:02 22.8 C 9.35 g/m*3 22.8 C 0 km/h
442 18-08-2010 16:33:02 23.6 C 9.15 g/m*3 23.6 C 0 km/h
443 18-08-2010 16:45:01 24.5 C 8.73 g/m*3 24.5 C 0 km/h
444 18-08-2010 16:57:01 24.8 C 8.65 g/m*3 24.8 C 0 km/h
445 18-08-2010 17:09:01 24 C 8.7 g/m*3 24 C 0 km/h
446 18-08-2010 17:21:01 23.2 C 8.94 g/m*3 23.2 C 0 km/h
447 18-08-2010 17:33:02 23.5 C 8.88 g/m*3 23.5 C 0 km/h
448 18-08-2010 17:45:02 24.5 C 8.95 g/m*3 24.5 C 0 km/h
449 18-08-2010 17:57:02 24.2 C 8.8 g/m*3 24.2 C 0 km/h
450 18-08-2010 18:09:02 22.8 C 9.35 g/m*3 22.8 C 0 km/h
Sensor: Nr:Datum:Temp:Abs-Feuchte:Windchill:Wind:
Aussen-T/F 451 18-08-2010 18:21:01 22.9 C 9.4 g/m*3 22.9 C 0 km/h
452 18-08-2010 18:33:02 22.2 C 9.03 g/m*3 22.2 C 0 km/h
453 18-08-2010 18:45:02 22 C 9.12 g/m*3 22 C 0 km/h
454 18-08-2010 18:57:02 21.9 C 8.88 g/m*3 21.9 C 0 km/h
455 18-08-2010 19:09:02 21.3 C 8.95 g/m*3 21.3 C 0 km/h
456 18-08-2010 19:21:01 21.1 C 9.03 g/m*3 21.1 C 0 km/h
457 18-08-2010 19:33:02 20.8 C 9.23 g/m*3 20.8 C 0 km/h
458 18-08-2010 19:45:01 20.4 C 9.38 g/m*3 20.4 C 0 km/h
459 18-08-2010 19:57:01 19.8 C 10.08 g/m*3 19.8 C 0 km/h
460 18-08-2010 20:09:02 19.2 C 10.22 g/m*3 19.2 C 0 km/h
461 18-08-2010 20:21:02 19.5 C 10.07 g/m*3 19.5 C 0 km/h
462 18-08-2010 20:33:02 19.5 C 9.9 g/m*3 19.5 C 0 km/h
463 18-08-2010 20:45:02 19.5 C 9.9 g/m*3 19.5 C 0 km/h
464 18-08-2010 20:57:02 19.5 C 9.9 g/m*3 19.5 C 0 km/h
465 18-08-2010 21:09:01 19.3 C 9.95 g/m*3 19.3 C 0 km/h
466 18-08-2010 21:21:02 19.1 C 10 g/m*3 19.1 C 0 km/h
467 18-08-2010 21:33:01 18.7 C 10.25 g/m*3 18.7 C 0 km/h
468 18-08-2010 21:45:02 18.7 C 10.41 g/m*3 18.7 C 0 km/h
469 18-08-2010 21:57:02 18.3 C 10.32 g/m*3 18.3 C 0 km/h
470 18-08-2010 22:09:01 18.1 C 10.51 g/m*3 18.1 C 0 km/h
471 18-08-2010 22:22:04 17.7 C 10.56 g/m*3 17.7 C 0 km/h
472 18-08-2010 22:34:04 17.5 C 10.59 g/m*3 17.5 C 0 km/h
473 18-08-2010 22:46:04 17.3 C 10.61 g/m*3 17.3 C 0 km/h
474 18-08-2010 22:58:04 17.4 C 10.67 g/m*3 17.4 C 0 km/h
475 18-08-2010 23:10:04 17.6 C 10.8 g/m*3 17.6 C 0 km/h
Sensor: Nr:Datum:Temp:Abs-Feuchte:Windchill:Wind:
Aussen-T/F 476 18-08-2010 23:22:04 17.7 C 10.56 g/m*3 17.7 C 0 km/h
477 18-08-2010 23:34:04 17.6 C 10.2 g/m*3 17.6 C 0 km/h
478 18-08-2010 23:46:04 17.5 C 9.69 g/m*3 17.5 C 0 km/h
479 18-08-2010 23:58:04 17.5 C 9.69 g/m*3 17.5 C 0 km/h
480 19-08-2010 00:10:04 17.4 C 9.19 g/m*3 17.4 C 0 km/h
481 19-08-2010 00:22:04 17.4 C 9.34 g/m*3 17.4 C 0 km/h
482 19-08-2010 00:34:04 17.4 C 9.04 g/m*3 17.4 C 0 km/h
483 19-08-2010 00:46:04 17.3 C 9.13 g/m*3 17.3 C 0 km/h
484 19-08-2010 00:58:04 17.3 C 8.99 g/m*3 17.3 C 0 km/h
485 19-08-2010 01:10:04 17.1 C 9.03 g/m*3 17.1 C 0 km/h
486 19-08-2010 01:22:05 17.1 C 9.17 g/m*3 17.1 C 0 km/h
487 19-08-2010 01:34:05 16.8 C 9.29 g/m*3 16.8 C 0 km/h
488 19-08-2010 01:46:05 16.7 C 9.24 g/m*3 16.7 C 0 km/h
489 19-08-2010 01:58:05 16.6 C 9.18 g/m*3 16.6 C 0 km/h
490 19-08-2010 02:10:05 16.5 C 8.85 g/m*3 16.5 C 0 km/h
491 19-08-2010 02:22:05 16.4 C 8.93 g/m*3 16.4 C 0 km/h
492 19-08-2010 02:34:05 16.3 C 8.6 g/m*3 16.3 C 0 km/h
493 19-08-2010 02:46:05 16.2 C 8.69 g/m*3 16.2 C 0 km/h
494 19-08-2010 02:58:05 16.2 C 8.96 g/m*3 16.2 C 0 km/h
495 19-08-2010 03:10:05 16.1 C 9.18 g/m*3 16.1 C 0 km/h
496 19-08-2010 03:22:05 16 C 9.26 g/m*3 16 C 0 km/h
497 19-08-2010 03:34:05 15.9 C 9.34 g/m*3 15.9 C 0 km/h
498 19-08-2010 03:46:05 15.8 C 9.15 g/m*3 15.8 C 0 km/h
499 19-08-2010 03:58:05 15.7 C 9.1 g/m*3 15.7 C 0 km/h
500 19-08-2010 04:10:05 15.7 C 9.23 g/m*3 15.7 C 0 km/h
Sensor: Nr:Datum:Temp:Abs-Feuchte:Windchill:Wind:
Aussen-T/F 501 19-08-2010 04:22:05 15.6 C 9.18 g/m*3 15.6 C 0 km/h
502 19-08-2010 04:34:05 15.5 C 9.39 g/m*3 15.5 C 0 km/h
503 19-08-2010 04:46:05 15.4 C 9.46 g/m*3 15.4 C 0 km/h
504 19-08-2010 04:58:05 15.5 C 9.65 g/m*3 15.5 C 0 km/h
505 19-08-2010 05:10:05 15.3 C 9.53 g/m*3 15.3 C 0 km/h
506 19-08-2010 05:22:05 15.2 C 9.48 g/m*3 15.2 C 0 km/h
507 19-08-2010 05:34:05 15 C 9.23 g/m*3 15 C 0 km/h
508 19-08-2010 05:46:05 15 C 9.36 g/m*3 15 C 0 km/h
509 19-08-2010 05:58:06 15 C 8.98 g/m*3 15 C 0 km/h
510 19-08-2010 06:10:06 14.8 C 8.99 g/m*3 14.8 C 0 km/h
511 19-08-2010 06:22:06 14.4 C 8.9 g/m*3 14.4 C 0 km/h
512 19-08-2010 06:34:06 14.2 C 8.91 g/m*3 14.2 C 0 km/h
513 19-08-2010 06:46:06 13.7 C 8.76 g/m*3 13.7 C 0 km/h
514 19-08-2010 06:58:06 13.8 C 8.94 g/m*3 13.8 C 0 km/h
515 19-08-2010 07:10:06 13.7 C 8.76 g/m*3 13.7 C 0 km/h
516 19-08-2010 07:22:06 13.9 C 8.15 g/m*3 13.9 C 0 km/h
517 19-08-2010 07:34:06 13.9 C 8.15 g/m*3 13.9 C 0 km/h
518 19-08-2010 07:46:01 14 C 8.08 g/m*3 14 C 0 km/h
519 19-08-2010 07:58:01 14.1 C 7.89 g/m*3 14.1 C 0 km/h
520 19-08-2010 08:10:02 14.4 C 7.91 g/m*3 14.4 C 0 km/h
521 19-08-2010 08:22:01 14.6 C 8.01 g/m*3 14.6 C 0 km/h
522 19-08-2010 08:34:01 14.8 C 8.11 g/m*3 14.8 C 0 km/h
523 19-08-2010 08:46:01 14.9 C 8.16 g/m*3 14.9 C 0 km/h
524 19-08-2010 08:58:01 15.2 C 8.05 g/m*3 15.2 C 0 km/h
525 19-08-2010 09:10:02 15.3 C 8.23 g/m*3 15.3 C 0 km/h
Sensor: Nr:Datum:Temp:Abs-Feuchte:Windchill:Wind:
Aussen-T/F 526 19-08-2010 09:22:01 15.4 C 8.15 g/m*3 15.4 C 0 km/h
527 19-08-2010 09:34:01 15.7 C 8.03 g/m*3 15.7 C 0 km/h
528 19-08-2010 09:46:01 16 C 8.04 g/m*3 16 C 0 km/h
529 19-08-2010 09:58:01 16.2 C 7.86 g/m*3 16.2 C 0 km/h
530 19-08-2010 10:10:02 16.6 C 7.91 g/m*3 16.6 C 0 km/h
531 19-08-2010 10:22:02 17.1 C 7.71 g/m*3 17.1 C 0 km/h
532 19-08-2010 10:34:02 17.7 C 7.69 g/m*3 17.7 C 0 km/h
533 19-08-2010 10:46:02 18.8 C 7.73 g/m*3 18.8 C 0 km/h
534 19-08-2010 10:58:02 19.3 C 7.3 g/m*3 19.3 C 0 km/h
535 19-08-2010 11:10:02 19.2 C 7.26 g/m*3 19.2 C 0 km/h
536 19-08-2010 11:22:02 19.5 C 7.38 g/m*3 19.5 C 0 km/h
537 19-08-2010 11:34:03 20.2 C 6.99 g/m*3 20.2 C 0 km/h
538 19-08-2010 11:46:02 20.4 C 7.43 g/m*3 20.4 C 0 km/h
539 19-08-2010 11:58:02 20.7 C 7.2 g/m*3 20.7 C 0 km/h
540 19-08-2010 12:10:01 20.3 C 7.03 g/m*3 20.3 C 0 km/h
541 19-08-2010 12:22:02 20.8 C 6.88 g/m*3 20.8 C 0 km/h
542 19-08-2010 12:34:02 22.1 C 6.64 g/m*3 22.1 C 0 km/h
543 19-08-2010 12:46:02 22 C 6.4 g/m*3 22 C 0 km/h
544 19-08-2010 12:58:02 22 C 6.21 g/m*3 22 C 0 km/h
545 19-08-2010 13:10:03 22.1 C 6.25 g/m*3 22.1 C 0 km/h
546 19-08-2010 13:22:02 22.1 C 6.05 g/m*3 22.1 C 0 km/h
547 19-08-2010 13:34:02 22.6 C 6.23 g/m*3 22.6 C 0 km/h
548 19-08-2010 13:46:01 22.7 C 6.06 g/m*3 22.7 C 0 km/h
549 19-08-2010 13:58:01 23.7 C 6.2 g/m*3 23.7 C 0 km/h
550 19-08-2010 14:10:02 23.3 C 6.27 g/m*3 23.3 C 0 km/h
Sensor: Nr:Datum:Temp:Abs-Feuchte:Windchill:Wind:
Aussen-T/F 551 19-08-2010 14:22:01 22.8 C 6.1 g/m*3 22.8 C 0 km/h
552 19-08-2010 14:34:01 23.7 C 5.78 g/m*3 23.7 C 0 km/h
553 19-08-2010 14:46:01 23 C 5.55 g/m*3 23 C 0 km/h
554 19-08-2010 14:58:01 22.4 C 6.36 g/m*3 22.4 C 0 km/h
555 19-08-2010 15:10:02 22.4 C 6.95 g/m*3 22.4 C 0 km/h
556 19-08-2010 15:22:01 23.2 C 6.44 g/m*3 23.2 C 0 km/h
557 19-08-2010 15:34:01 24.3 C 5.97 g/m*3 24.3 C 0 km/h
558 19-08-2010 15:46:01 24.6 C 5.63 g/m*3 24.6 C 0 km/h
559 19-08-2010 15:58:01 24.2 C 5.94 g/m*3 24.2 C 0 km/h
560 19-08-2010 16:10:01 23.4 C 7.36 g/m*3 23.4 C 0 km/h
561 19-08-2010 16:22:02 23.5 C 7.4 g/m*3 23.5 C 0 km/h
562 19-08-2010 16:34:01 23.5 C 7.82 g/m*3 23.5 C 0 km/h
563 19-08-2010 16:46:03 23.1 C 7.65 g/m*3 23.1 C 0 km/h
564 19-08-2010 16:58:03 22.9 C 7.97 g/m*3 22.9 C 0 km/h
565 19-08-2010 17:10:02 22.4 C 8.14 g/m*3 22.4 C 0 km/h
566 19-08-2010 17:22:02 22.9 C 8.17 g/m*3 22.9 C 0 km/h
567 19-08-2010 17:34:02 24.1 C 8.1 g/m*3 24.1 C 0 km/h
568 19-08-2010 17:46:02 24.5 C 7.39 g/m*3 24.5 C 0 km/h
569 19-08-2010 17:58:02 25.6 C 5.48 g/m*3 25.6 C 0 km/h
570 19-08-2010 18:10:01 25.1 C 5.32 g/m*3 25.1 C 0 km/h
571 19-08-2010 18:22:02 25 C 5.75 g/m*3 25 C 0 km/h
572 19-08-2010 18:34:02 25.3 C 5.85 g/m*3 25.3 C 0 km/h
573 19-08-2010 18:46:02 25.7 C 5.99 g/m*3 25.7 C 0 km/h
574 19-08-2010 18:58:02 26 C 5.84 g/m*3 26 C 0 km/h
575 19-08-2010 19:10:03 25.8 C 6.98 g/m*3 25.8 C 0 km/h
Sensor: Nr:Datum:Temp:Abs-Feuchte:Windchill:Wind:
Aussen-T/F 576 19-08-2010 19:22:02 25.8 C 6.26 g/m*3 25.8 C 0 km/h
577 19-08-2010 19:34:02 25.6 C 6.67 g/m*3 25.6 C 0 km/h
578 19-08-2010 19:46:01 24.9 C 6.87 g/m*3 24.9 C 0 km/h
579 19-08-2010 19:58:01 24.1 C 6.35 g/m*3 24.1 C 0 km/h
580 19-08-2010 20:10:02 22.8 C 6.71 g/m*3 22.8 C 0 km/h
581 19-08-2010 20:22:01 21.3 C 7.08 g/m*3 21.3 C 0 km/h
582 19-08-2010 20:34:02 20.1 C 7.13 g/m*3 20.1 C 0 km/h
583 19-08-2010 20:46:01 19.4 C 7.17 g/m*3 19.4 C 0 km/h
584 19-08-2010 20:58:01 18.9 C 7.45 g/m*3 18.9 C 0 km/h
585 19-08-2010 21:10:02 18.5 C 7.44 g/m*3 18.5 C 0 km/h
586 19-08-2010 21:22:01 18.3 C 7.82 g/m*3 18.3 C 0 km/h
587 19-08-2010 21:34:02 18.2 C 7.77 g/m*3 18.2 C 0 km/h
588 19-08-2010 21:46:01 17.9 C 8.09 g/m*3 17.9 C 0 km/h
589 19-08-2010 21:58:01 17.5 C 7.75 g/m*3 17.5 C 0 km/h
590 19-08-2010 22:10:02 17.3 C 7.96 g/m*3 17.3 C 0 km/h
591 19-08-2010 22:22:02 17.1 C 8.01 g/m*3 17.1 C 0 km/h
592 19-08-2010 22:34:02 17 C 7.96 g/m*3 17 C 0 km/h
593 19-08-2010 22:47:36 16.6 C 8.05 g/m*3 16.6 C 0 km/h
594 19-08-2010 22:59:36 16.3 C 8.05 g/m*3 16.3 C 0 km/h
595 19-08-2010 23:11:36 16 C 8.17 g/m*3 16 C 0 km/h
596 19-08-2010 23:23:36 15.8 C 8.48 g/m*3 15.8 C 0 km/h
597 19-08-2010 23:35:36 15.6 C 8.38 g/m*3 15.6 C 0 km/h
598 19-08-2010 23:47:36 15.5 C 8.46 g/m*3 15.5 C 0 km/h
599 19-08-2010 23:59:36 15.2 C 8.31 g/m*3 15.2 C 0 km/h
600 20-08-2010 00:11:36 15.1 C 8.51 g/m*3 15.1 C 0 km/h
Sensor: Nr:Datum:Temp:Abs-Feuchte:Windchill:Wind:
Aussen-T/F 601 20-08-2010 00:23:36 14.9 C 8.54 g/m*3 14.9 C 0 km/h
602 20-08-2010 00:35:36 14.7 C 8.56 g/m*3 14.7 C 0 km/h
603 20-08-2010 00:47:36 14.5 C 8.58 g/m*3 14.5 C 0 km/h
604 20-08-2010 00:59:36 14.4 C 8.53 g/m*3 14.4 C 0 km/h
605 20-08-2010 01:11:36 14.3 C 8.6 g/m*3 14.3 C 0 km/h
606 20-08-2010 01:23:36 14.2 C 8.67 g/m*3 14.2 C 0 km/h
607 20-08-2010 01:35:36 13.9 C 8.63 g/m*3 13.9 C 0 km/h
608 20-08-2010 01:47:37 14 C 8.56 g/m*3 14 C 0 km/h
609 20-08-2010 01:59:37 13.8 C 8.58 g/m*3 13.8 C 0 km/h
610 20-08-2010 02:11:37 13.6 C 8.59 g/m*3 13.6 C 0 km/h
611 20-08-2010 02:23:37 13.5 C 8.54 g/m*3 13.5 C 0 km/h
612 20-08-2010 02:35:37 13.3 C 8.66 g/m*3 13.3 C 0 km/h
613 20-08-2010 02:47:37 13.2 C 8.61 g/m*3 13.2 C 0 km/h
614 20-08-2010 02:59:37 13.1 C 8.56 g/m*3 13.1 C 0 km/h
615 20-08-2010 03:11:37 13 C 8.62 g/m*3 13 C 0 km/h
616 20-08-2010 03:23:03 12.9 C 8.68 g/m*3 12.9 C 0 km/h
617 20-08-2010 03:35:03 12.8 C 8.62 g/m*3 12.8 C 0 km/h
618 20-08-2010 03:47:03 12.7 C 8.57 g/m*3 12.7 C 0 km/h
619 20-08-2010 03:59:03 12.6 C 8.63 g/m*3 12.6 C 0 km/h
620 20-08-2010 04:11:03 12.4 C 8.63 g/m*3 12.4 C 0 km/h
621 20-08-2010 04:23:03 12.4 C 8.63 g/m*3 12.4 C 0 km/h
622 20-08-2010 04:35:03 12.3 C 8.58 g/m*3 12.3 C 0 km/h
623 20-08-2010 04:47:03 12.1 C 8.47 g/m*3 12.1 C 0 km/h
624 20-08-2010 04:59:03 12.1 C 8.58 g/m*3 12.1 C 0 km/h
625 20-08-2010 05:11:03 12 C 8.53 g/m*3 12 C 0 km/h
Sensor: Nr:Datum:Temp:Abs-Feuchte:Windchill:Wind:
Aussen-T/F 626 20-08-2010 05:23:03 12 C 8.63 g/m*3 12 C 0 km/h
627 20-08-2010 05:35:03 12 C 8.53 g/m*3 12 C 0 km/h
628 20-08-2010 05:47:03 11.8 C 8.53 g/m*3 11.8 C 0 km/h
629 20-08-2010 05:59:03 11.7 C 8.58 g/m*3 11.7 C 0 km/h
630 20-08-2010 06:11:03 11.6 C 8.52 g/m*3 11.6 C 0 km/h
631 20-08-2010 06:23:04 11.5 C 8.57 g/m*3 11.5 C 0 km/h
632 20-08-2010 06:35:04 11.4 C 8.52 g/m*3 11.4 C 0 km/h
633 20-08-2010 06:47:04 11.4 C 8.52 g/m*3 11.4 C 0 km/h
634 20-08-2010 06:59:04 11.5 C 8.57 g/m*3 11.5 C 0 km/h
635 20-08-2010 07:11:04 11.6 C 8.63 g/m*3 11.6 C 0 km/h
636 20-08-2010 07:23:04 11.6 C 8.73 g/m*3 11.6 C 0 km/h
637 20-08-2010 07:35:03 11.7 C 8.79 g/m*3 11.7 C 0 km/h
638 20-08-2010 07:47:03 11.8 C 8.84 g/m*3 11.8 C 0 km/h
639 20-08-2010 07:59:03 12.1 C 8.9 g/m*3 12.1 C 0 km/h
640 20-08-2010 08:11:02 12.1 C 9.01 g/m*3 12.1 C 0 km/h
641 20-08-2010 08:23:02 12.3 C 9.12 g/m*3 12.3 C 0 km/h
642 20-08-2010 08:35:02 12.5 C 9.24 g/m*3 12.5 C 0 km/h
643 20-08-2010 08:47:02 12.8 C 9.3 g/m*3 12.8 C 0 km/h
644 20-08-2010 08:59:02 13 C 9.3 g/m*3 13 C 0 km/h
645 20-08-2010 09:11:02 13.3 C 9.47 g/m*3 13.3 C 0 km/h
646 20-08-2010 09:23:02 13.8 C 9.77 g/m*3 13.8 C 0 km/h
647 20-08-2010 09:35:02 14.4 C 9.89 g/m*3 14.4 C 0 km/h
648 20-08-2010 09:47:02 15 C 10 g/m*3 15 C 0 km/h
649 20-08-2010 09:59:02 16 C 10.08 g/m*3 16 C 0 km/h
650 20-08-2010 10:11:01 16.8 C 10.29 g/m*3 16.8 C 0 km/h
Sensor: Nr:Datum:Temp:Abs-Feuchte:Windchill:Wind:
Aussen-T/F 651 20-08-2010 10:23:01 17.4 C 10.23 g/m*3 17.4 C 0 km/h
652 20-08-2010 10:35:02 18.1 C 10.2 g/m*3 18.1 C 0 km/h
653 20-08-2010 10:47:02 18.6 C 10.35 g/m*3 18.6 C 0 km/h
654 20-08-2010 10:59:02 19.2 C 10.39 g/m*3 19.2 C 0 km/h
655 20-08-2010 11:11:02 19.8 C 10.76 g/m*3 19.8 C 0 km/h
656 20-08-2010 11:23:02 20.5 C 10.68 g/m*3 20.5 C 0 km/h
657 20-08-2010 11:35:02 20.9 C 10.75 g/m*3 20.9 C 0 km/h
658 20-08-2010 11:47:02 21.7 C 11.06 g/m*3 21.7 C 0 km/h
659 20-08-2010 11:59:02 22 C 11.06 g/m*3 22 C 0 km/h
660 20-08-2010 12:11:02 22.8 C 10.97 g/m*3 22.8 C 0 km/h
661 20-08-2010 12:23:02 23.2 C 10.6 g/m*3 23.2 C 0 km/h
662 20-08-2010 12:35:02 23.7 C 11.12 g/m*3 23.7 C 0 km/h
663 20-08-2010 12:47:01 24.1 C 10.72 g/m*3 24.1 C 0 km/h
664 20-08-2010 12:59:01 25 C 10.82 g/m*3 25 C 0 km/h
665 20-08-2010 13:11:01 25.6 C 9.52 g/m*3 25.6 C 0 km/h
666 20-08-2010 13:23:01 26.4 C 9.71 g/m*3 26.4 C 0 km/h
667 20-08-2010 13:35:01 27 C 9.01 g/m*3 27 C 0 km/h
668 20-08-2010 13:47:02 27.5 C 9 g/m*3 27.5 C 0 km/h
669 20-08-2010 13:59:02 27.3 C 7.85 g/m*3 27.3 C 0 km/h
670 20-08-2010 14:11:02 27.8 C 8.07 g/m*3 27.8 C 0 km/h
671 20-08-2010 14:23:03 28.4 C 8.06 g/m*3 28.4 C 0 km/h
672 20-08-2010 14:35:02 28.1 C 7.11 g/m*3 28.1 C 0 km/h
673 20-08-2010 14:47:02 28.6 C 8.43 g/m*3 28.6 C 0 km/h
674 20-08-2010 14:59:02 28.9 C 7.43 g/m*3 28.9 C 0 km/h
675 20-08-2010 15:11:02 28.9 C 7.43 g/m*3 28.9 C 0 km/h
Sensor: Nr:Datum:Temp:Abs-Feuchte:Windchill:Wind:
Aussen-T/F 676 20-08-2010 15:23:02 29 C 7.18 g/m*3 29 C 0 km/h
677 20-08-2010 15:35:01 29.5 C 7.67 g/m*3 29.5 C 0 km/h
678 20-08-2010 15:47:02 30.1 C 7.32 g/m*3 30.1 C 0 km/h
679 20-08-2010 15:59:02 30.2 C 7.66 g/m*3 30.2 C 0 km/h
680 20-08-2010 16:11:01 30.4 C 7.75 g/m*3 30.4 C 0 km/h
681 20-08-2010 16:23:02 30.5 C 7.48 g/m*3 30.5 C 0 km/h
682 20-08-2010 16:35:02 30.9 C 7.96 g/m*3 30.9 C 0 km/h
683 20-08-2010 16:47:02 31 C 7.36 g/m*3 31 C 0 km/h
684 20-08-2010 16:59:02 30.8 C 7.28 g/m*3 30.8 C 0 km/h
685 20-08-2010 17:11:02 30.9 C 7.64 g/m*3 30.9 C 0 km/h
686 20-08-2010 17:23:02 31.2 C 7.12 g/m*3 31.2 C 0 km/h
687 20-08-2010 17:35:02 31.3 C 7.48 g/m*3 31.3 C 0 km/h
688 20-08-2010 17:47:02 31.4 C 7.19 g/m*3 31.4 C 0 km/h
689 20-08-2010 17:59:02 31 C 7.04 g/m*3 31 C 0 km/h
690 20-08-2010 18:11:02 31.3 C 7.48 g/m*3 31.3 C 0 km/h
691 20-08-2010 18:23:02 31.4 C 7.52 g/m*3 31.4 C 0 km/h
692 20-08-2010 18:35:02 31.5 C 7.56 g/m*3 31.5 C 0 km/h
693 20-08-2010 18:47:02 31 C 7.36 g/m*3 31 C 0 km/h
694 20-08-2010 18:59:02 30.9 C 8.28 g/m*3 30.9 C 0 km/h
695 20-08-2010 19:11:02 30.6 C 8.46 g/m*3 30.6 C 0 km/h
696 20-08-2010 19:23:03 30.3 C 8.63 g/m*3 30.3 C 0 km/h
697 20-08-2010 19:35:01 30 C 8.49 g/m*3 30 C 0 km/h
698 20-08-2010 19:47:02 29 C 8.04 g/m*3 29 C 0 km/h
699 20-08-2010 19:59:02 28 C 8.43 g/m*3 28 C 0 km/h
700 20-08-2010 20:11:02 26.6 C 8.81 g/m*3 26.6 C 0 km/h
Sensor: Nr:Datum:Temp:Abs-Feuchte:Windchill:Wind:
Aussen-T/F 701 20-08-2010 20:23:02 25.6 C 9.05 g/m*3 25.6 C 0 km/h
702 20-08-2010 20:35:01 25 C 9.21 g/m*3 25 C 0 km/h
703 20-08-2010 20:47:02 24.5 C 8.95 g/m*3 24.5 C 0 km/h
704 20-08-2010 20:59:03 23.8 C 9.25 g/m*3 23.8 C 0 km/h
705 20-08-2010 21:11:01 23.4 C 9.25 g/m*3 23.4 C 0 km/h
706 20-08-2010 21:23:01 23.3 C 9.41 g/m*3 23.3 C 0 km/h
707 20-08-2010 21:35:01 23.2 C 9.56 g/m*3 23.2 C 0 km/h
708 20-08-2010 21:47:02 22.9 C 9.81 g/m*3 22.9 C 0 km/h
709 20-08-2010 21:59:02 22.6 C 9.84 g/m*3 22.6 C 0 km/h
710 20-08-2010 22:11:02 22.5 C 9.99 g/m*3 22.5 C 0 km/h
711 20-08-2010 22:23:03 22.1 C 9.96 g/m*3 22.1 C 0 km/h
712 20-08-2010 22:35:02 21.9 C 10.42 g/m*3 21.9 C 0 km/h
713 20-08-2010 22:48:02 21.6 C 10.43 g/m*3 21.6 C 0 km/h
714 20-08-2010 23:00:02 21.4 C 10.5 g/m*3 21.4 C 0 km/h
715 20-08-2010 23:12:02 21.1 C 10.69 g/m*3 21.1 C 0 km/h
716 20-08-2010 23:24:02 20.9 C 10.75 g/m*3 20.9 C 0 km/h
717 20-08-2010 23:36:02 20.7 C 10.62 g/m*3 20.7 C 0 km/h
718 20-08-2010 23:48:02 20.4 C 10.61 g/m*3 20.4 C 0 km/h
719 21-08-2010 00:00:02 20.2 C 10.67 g/m*3 20.2 C 0 km/h
720 21-08-2010 00:12:02 20 C 10.71 g/m*3 20 C 0 km/h
721 21-08-2010 00:24:02 19.7 C 10.7 g/m*3 19.7 C 0 km/h
722 21-08-2010 00:36:02 19.6 C 10.8 g/m*3 19.6 C 0 km/h
723 21-08-2010 00:48:02 19.3 C 10.95 g/m*3 19.3 C 0 km/h
724 21-08-2010 01:00:02 19.1 C 10.98 g/m*3 19.1 C 0 km/h
725 21-08-2010 01:12:02 19 C 10.92 g/m*3 19 C 0 km/h
Sensor: Nr:Datum:Temp:Abs-Feuchte:Windchill:Wind:
Aussen-T/F 726 21-08-2010 01:24:02 18.8 C 11.11 g/m*3 18.8 C 0 km/h
727 21-08-2010 01:36:02 18.7 C 11.05 g/m*3 18.7 C 0 km/h
728 21-08-2010 01:48:02 18.6 C 10.98 g/m*3 18.6 C 0 km/h
729 21-08-2010 02:00:02 18.4 C 11.01 g/m*3 18.4 C 0 km/h
730 21-08-2010 02:12:02 18.2 C 11.04 g/m*3 18.2 C 0 km/h
731 21-08-2010 02:24:03 18.1 C 10.97 g/m*3 18.1 C 0 km/h
732 21-08-2010 02:36:03 18.1 C 11.12 g/m*3 18.1 C 0 km/h
733 21-08-2010 02:48:03 18 C 11.06 g/m*3 18 C 0 km/h
734 21-08-2010 03:00:03 17.9 C 11.15 g/m*3 17.9 C 0 km/h
735 21-08-2010 03:12:03 17.8 C 11.08 g/m*3 17.8 C 0 km/h
736 21-08-2010 03:24:03 17.7 C 11.16 g/m*3 17.7 C 0 km/h
737 21-08-2010 03:36:03 17.5 C 11.03 g/m*3 17.5 C 0 km/h
738 21-08-2010 03:48:03 17.4 C 11.12 g/m*3 17.4 C 0 km/h
739 21-08-2010 04:00:03 17.3 C 11.2 g/m*3 17.3 C 0 km/h
740 21-08-2010 04:12:03 17.2 C 11.13 g/m*3 17.2 C 0 km/h
741 21-08-2010 04:24:03 17.1 C 11.06 g/m*3 17.1 C 0 km/h
742 21-08-2010 04:36:03 16.9 C 11.08 g/m*3 16.9 C 0 km/h
743 21-08-2010 04:48:03 16.8 C 11.15 g/m*3 16.8 C 0 km/h
744 21-08-2010 05:00:03 16.7 C 11.08 g/m*3 16.7 C 0 km/h
745 21-08-2010 05:12:03 16.5 C 10.95 g/m*3 16.5 C 0 km/h
746 21-08-2010 05:24:03 16.5 C 10.95 g/m*3 16.5 C 0 km/h
747 21-08-2010 05:36:03 16.3 C 10.82 g/m*3 16.3 C 0 km/h
748 21-08-2010 05:48:03 16.3 C 10.96 g/m*3 16.3 C 0 km/h
749 21-08-2010 06:00:03 16.2 C 10.89 g/m*3 16.2 C 0 km/h
750 21-08-2010 06:12:03 16.1 C 10.83 g/m*3 16.1 C 0 km/h
Sensor: Nr:Datum:Temp:Abs-Feuchte:Windchill:Wind:
Aussen-T/F 751 21-08-2010 06:24:04 16 C 10.9 g/m*3 16 C 0 km/h
752 21-08-2010 06:36:04 16 C 10.9 g/m*3 16 C 0 km/h
753 21-08-2010 06:48:04 15.9 C 10.97 g/m*3 15.9 C 0 km/h
754 21-08-2010 07:00:04 15.8 C 10.9 g/m*3 15.8 C 0 km/h
755 21-08-2010 07:12:04 15.9 C 11.1 g/m*3 15.9 C 0 km/h
756 21-08-2010 07:24:04 16 C 11.04 g/m*3 16 C 0 km/h
757 21-08-2010 07:36:04 16.1 C 11.1 g/m*3 16.1 C 0 km/h
758 21-08-2010 07:48:04 16.2 C 11.17 g/m*3 16.2 C 0 km/h
759 21-08-2010 08:00:04 16.4 C 11.31 g/m*3 16.4 C 0 km/h
760 21-08-2010 08:12:02 16.6 C 11.58 g/m*3 16.6 C 0 km/h
761 21-08-2010 08:24:02 16.7 C 11.51 g/m*3 16.7 C 0 km/h
762 21-08-2010 08:36:02 17 C 11.58 g/m*3 17 C 0 km/h
763 21-08-2010 08:48:01 17.2 C 11.72 g/m*3 17.2 C 0 km/h
764 21-08-2010 09:00:01 17.5 C 11.78 g/m*3 17.5 C 0 km/h
765 21-08-2010 09:12:02 17.9 C 12.06 g/m*3 17.9 C 0 km/h
766 21-08-2010 09:24:02 18.4 C 12.27 g/m*3 18.4 C 0 km/h
767 21-08-2010 09:36:01 18.9 C 12.47 g/m*3 18.9 C 0 km/h
768 21-08-2010 09:48:02 19.4 C 12.51 g/m*3 19.4 C 0 km/h
769 21-08-2010 10:00:02 20.2 C 12.76 g/m*3 20.2 C 0 km/h
770 21-08-2010 10:12:02 20.8 C 12.86 g/m*3 20.8 C 0 km/h
771 21-08-2010 10:24:02 21.3 C 12.86 g/m*3 21.3 C 0 km/h
772 21-08-2010 10:36:01 22 C 12.81 g/m*3 22 C 0 km/h
773 21-08-2010 10:48:02 22.7 C 12.93 g/m*3 22.7 C 0 km/h
774 21-08-2010 11:00:02 23.3 C 12.96 g/m*3 23.3 C 0 km/h
775 21-08-2010 11:12:01 24 C 12.84 g/m*3 24 C 0 km/h
Sensor: Nr:Datum:Temp:Abs-Feuchte:Windchill:Wind:
Aussen-T/F 776 21-08-2010 11:24:02 24.7 C 12.68 g/m*3 24.7 C 0 km/h
777 21-08-2010 11:36:02 25.5 C 11.6 g/m*3 25.5 C 0 km/h
778 21-08-2010 11:48:01 26.3 C 10.4 g/m*3 26.3 C 0 km/h
779 21-08-2010 12:00:01 26.8 C 9.93 g/m*3 26.8 C 0 km/h
780 21-08-2010 12:12:01 27.2 C 9.89 g/m*3 27.2 C 0 km/h
781 21-08-2010 12:24:01 27.7 C 9.9 g/m*3 27.7 C 0 km/h
782 21-08-2010 12:36:01 27.9 C 10.01 g/m*3 27.9 C 0 km/h
783 21-08-2010 12:48:02 28.1 C 9.3 g/m*3 28.1 C 0 km/h
784 21-08-2010 13:00:02 28.4 C 9.73 g/m*3 28.4 C 0 km/h
785 21-08-2010 13:12:02 28.8 C 9.38 g/m*3 28.8 C 0 km/h
786 21-08-2010 13:24:01 29.2 C 9 g/m*3 29.2 C 0 km/h
787 21-08-2010 13:36:02 29.5 C 8.85 g/m*3 29.5 C 0 km/h
788 21-08-2010 13:48:01 29.7 C 8.95 g/m*3 29.7 C 0 km/h
789 21-08-2010 14:00:01 29.9 C 9.05 g/m*3 29.9 C 0 km/h
790 21-08-2010 14:12:02 30.3 C 8.94 g/m*3 30.3 C 0 km/h
791 21-08-2010 14:24:01 30.3 C 8.63 g/m*3 30.3 C 0 km/h
792 21-08-2010 14:36:02 30.6 C 8.46 g/m*3 30.6 C 0 km/h
793 21-08-2010 14:48:01 31 C 8.32 g/m*3 31 C 0 km/h
794 21-08-2010 15:00:01 30.8 C 8.55 g/m*3 30.8 C 0 km/h
795 21-08-2010 15:12:02 31.4 C 8.83 g/m*3 31.4 C 0 km/h
796 21-08-2010 15:24:02 31.4 C 8.17 g/m*3 31.4 C 0 km/h
797 21-08-2010 15:36:02 31.2 C 9.06 g/m*3 31.2 C 0 km/h
798 21-08-2010 15:48:02 31.6 C 7.93 g/m*3 31.6 C 0 km/h
799 21-08-2010 16:00:02 32.1 C 7.81 g/m*3 32.1 C 0 km/h
800 21-08-2010 16:12:02 32.2 C 7.51 g/m*3 32.2 C 0 km/h
Sensor: Nr:Datum:Temp:Abs-Feuchte:Windchill:Wind:
Aussen-T/F 801 21-08-2010 16:24:02 32.5 C 7.28 g/m*3 32.5 C 0 km/h
802 21-08-2010 16:36:01 32.1 C 7.81 g/m*3 32.1 C 0 km/h
803 21-08-2010 16:48:02 31.8 C 9.02 g/m*3 31.8 C 0 km/h
804 21-08-2010 17:00:02 32.1 C 8.15 g/m*3 32.1 C 0 km/h
805 21-08-2010 17:12:01 32.4 C 7.59 g/m*3 32.4 C 0 km/h
806 21-08-2010 17:24:02 32.3 C 7.55 g/m*3 32.3 C 0 km/h
807 21-08-2010 17:36:02 32.8 C 7.4 g/m*3 32.8 C 0 km/h
808 21-08-2010 17:48:02 32.3 C 7.2 g/m*3 32.3 C 0 km/h
809 21-08-2010 18:00:02 32.6 C 7.32 g/m*3 32.6 C 0 km/h
810 21-08-2010 18:12:02 32.5 C 7.63 g/m*3 32.5 C 0 km/h
811 21-08-2010 18:24:02 32.7 C 7.36 g/m*3 32.7 C 0 km/h
812 21-08-2010 18:36:02 32.3 C 7.55 g/m*3 32.3 C 0 km/h
813 21-08-2010 18:48:02 32 C 7.09 g/m*3 32 C 0 km/h
814 21-08-2010 19:00:02 31.9 C 7.05 g/m*3 31.9 C 0 km/h
815 21-08-2010 19:12:02 32 C 7.76 g/m*3 32 C 0 km/h
816 21-08-2010 19:24:01 31.7 C 7.64 g/m*3 31.7 C 0 km/h
817 21-08-2010 19:36:02 31.5 C 8.22 g/m*3 31.5 C 0 km/h
818 21-08-2010 19:48:02 31.2 C 9.06 g/m*3 31.2 C 0 km/h
819 21-08-2010 20:00:02 30.6 C 8.46 g/m*3 30.6 C 0 km/h
820 21-08-2010 20:12:02 30 C 9.4 g/m*3 30 C 0 km/h
821 21-08-2010 20:24:01 28.5 C 9.22 g/m*3 28.5 C 0 km/h
822 21-08-2010 20:36:02 28.1 C 9.57 g/m*3 28.1 C 0 km/h
823 21-08-2010 20:48:02 26.9 C 9.73 g/m*3 26.9 C 0 km/h
824 21-08-2010 21:00:02 26.5 C 10.01 g/m*3 26.5 C 0 km/h
825 21-08-2010 21:12:02 26.2 C 10.09 g/m*3 26.2 C 0 km/h
Sensor: Nr:Datum:Temp:Abs-Feuchte:Windchill:Wind:
Aussen-T/F 826 21-08-2010 21:24:02 25.8 C 10.35 g/m*3 25.8 C 0 km/h
827 21-08-2010 21:36:02 25.3 C 10.3 g/m*3 25.3 C 0 km/h
828 21-08-2010 21:48:02 24.8 C 10.47 g/m*3 24.8 C 0 km/h
829 21-08-2010 22:00:02 24.8 C 10.7 g/m*3 24.8 C 0 km/h
830 21-08-2010 22:12:02 24.5 C 10.74 g/m*3 24.5 C 0 km/h
831 21-08-2010 22:24:02 24.4 C 10.9 g/m*3 24.4 C 0 km/h
832 21-08-2010 22:36:02 24.1 C 10.94 g/m*3 24.1 C 0 km/h
833 21-08-2010 22:48:01 23.9 C 11.03 g/m*3 23.9 C 0 km/h
834 21-08-2010 23:00:01 23.6 C 10.85 g/m*3 23.6 C 0 km/h
835 21-08-2010 23:12:02 23.4 C 11.35 g/m*3 23.4 C 0 km/h
836 21-08-2010 23:24:01 23.3 C 11.08 g/m*3 23.3 C 0 km/h
837 21-08-2010 23:36:02 22.9 C 11.44 g/m*3 22.9 C 0 km/h
838 21-08-2010 23:48:01 22.6 C 11.45 g/m*3 22.6 C 0 km/h
839 22-08-2010 00:00:01 22.3 C 11.26 g/m*3 22.3 C 0 km/h
840 22-08-2010 00:13:04 22.3 C 11.45 g/m*3 22.3 C 0 km/h
841 22-08-2010 00:25:04 22 C 11.45 g/m*3 22 C 0 km/h
842 22-08-2010 00:37:04 21.8 C 11.51 g/m*3 21.8 C 0 km/h
843 22-08-2010 00:49:04 21.6 C 11.57 g/m*3 21.6 C 0 km/h
844 22-08-2010 01:01:04 21.5 C 11.69 g/m*3 21.5 C 0 km/h
845 22-08-2010 01:13:04 21.2 C 11.49 g/m*3 21.2 C 0 km/h
846 22-08-2010 01:25:04 21 C 11.54 g/m*3 21 C 0 km/h
847 22-08-2010 01:37:04 20.9 C 11.84 g/m*3 20.9 C 0 km/h
848 22-08-2010 01:49:04 20.6 C 11.81 g/m*3 20.6 C 0 km/h
849 22-08-2010 02:01:05 20.5 C 11.74 g/m*3 20.5 C 0 km/h
850 22-08-2010 02:13:05 20.4 C 11.85 g/m*3 20.4 C 0 km/h
Sensor: Nr:Datum:Temp:Abs-Feuchte:Windchill:Wind:
Aussen-T/F 851 22-08-2010 02:25:05 20.1 C 11.82 g/m*3 20.1 C 0 km/h
852 22-08-2010 02:37:05 19.9 C 12.03 g/m*3 19.9 C 0 km/h
853 22-08-2010 02:49:05 19.8 C 11.96 g/m*3 19.8 C 0 km/h
854 22-08-2010 03:01:05 19.7 C 12.06 g/m*3 19.7 C 0 km/h
855 22-08-2010 03:13:05 19.7 C 12.23 g/m*3 19.7 C 0 km/h
856 22-08-2010 03:25:05 19.5 C 12.08 g/m*3 19.5 C 0 km/h
857 22-08-2010 03:37:05 19.3 C 11.94 g/m*3 19.3 C 0 km/h
858 22-08-2010 03:49:05 19.4 C 12.18 g/m*3 19.4 C 0 km/h
859 22-08-2010 04:01:05 19.3 C 12.11 g/m*3 19.3 C 0 km/h
860 22-08-2010 04:13:05 19.3 C 12.27 g/m*3 19.3 C 0 km/h
861 22-08-2010 04:25:05 19.2 C 12.04 g/m*3 19.2 C 0 km/h
862 22-08-2010 04:37:05 19.1 C 11.97 g/m*3 19.1 C 0 km/h
863 22-08-2010 04:49:05 18.9 C 12.15 g/m*3 18.9 C 0 km/h
864 22-08-2010 05:01:05 18.8 C 12.08 g/m*3 18.8 C 0 km/h
865 22-08-2010 05:13:05 18.6 C 11.94 g/m*3 18.6 C 0 km/h
866 22-08-2010 05:25:05 18.5 C 12.18 g/m*3 18.5 C 0 km/h
867 22-08-2010 05:37:05 18.5 C 12.18 g/m*3 18.5 C 0 km/h
868 22-08-2010 05:49:05 18.3 C 12.04 g/m*3 18.3 C 0 km/h
869 22-08-2010 06:01:06 18.1 C 12.05 g/m*3 18.1 C 0 km/h
870 22-08-2010 06:13:06 18 C 11.98 g/m*3 18 C 0 km/h
871 22-08-2010 06:25:06 18 C 11.98 g/m*3 18 C 0 km/h
872 22-08-2010 06:37:06 17.9 C 12.06 g/m*3 17.9 C 0 km/h
873 22-08-2010 06:49:06 18 C 11.98 g/m*3 18 C 0 km/h
874 22-08-2010 07:01:06 18 C 11.98 g/m*3 18 C 0 km/h
875 22-08-2010 07:13:06 18.1 C 12.05 g/m*3 18.1 C 0 km/h
Sensor: Nr:Datum:Temp:Abs-Feuchte:Windchill:Wind:
Aussen-T/F 876 22-08-2010 07:25:06 18.1 C 12.05 g/m*3 18.1 C 0 km/h
877 22-08-2010 07:37:06 18.5 C 12.34 g/m*3 18.5 C 0 km/h
878 22-08-2010 07:49:06 18.8 C 12.56 g/m*3 18.8 C 0 km/h
879 22-08-2010 08:01:06 18.9 C 12.47 g/m*3 18.9 C 0 km/h
880 22-08-2010 08:13:06 18.7 C 12.49 g/m*3 18.7 C 0 km/h
881 22-08-2010 08:25:06 18.8 C 12.72 g/m*3 18.8 C 0 km/h
882 22-08-2010 08:37:06 19.1 C 12.79 g/m*3 19.1 C 0 km/h
883 22-08-2010 08:49:01 19.3 C 12.61 g/m*3 19.3 C 0 km/h
884 22-08-2010 09:01:01 19.4 C 12.51 g/m*3 19.4 C 0 km/h
885 22-08-2010 09:13:01 20 C 12.62 g/m*3 20 C 0 km/h
886 22-08-2010 09:25:02 20.3 C 12.66 g/m*3 20.3 C 0 km/h
887 22-08-2010 09:37:01 20.6 C 12.71 g/m*3 20.6 C 0 km/h
888 22-08-2010 09:49:01 21.3 C 12.68 g/m*3 21.3 C 0 km/h
889 22-08-2010 10:01:01 21.6 C 12.71 g/m*3 21.6 C 0 km/h
890 22-08-2010 10:13:01 22.2 C 12.37 g/m*3 22.2 C 0 km/h
891 22-08-2010 10:25:02 23.7 C 13.05 g/m*3 23.7 C 0 km/h
892 22-08-2010 10:37:01 24.2 C 12.32 g/m*3 24.2 C 0 km/h
893 22-08-2010 10:49:03 23.8 C 12.91 g/m*3 23.8 C 0 km/h
894 22-08-2010 11:01:02 23.8 C 12.91 g/m*3 23.8 C 0 km/h
895 22-08-2010 11:13:02 24.1 C 12.91 g/m*3 24.1 C 0 km/h
896 22-08-2010 11:25:02 25 C 12.2 g/m*3 25 C 0 km/h
897 22-08-2010 11:37:02 25.5 C 13.26 g/m*3 25.5 C 0 km/h
898 22-08-2010 11:49:02 26 C 12.17 g/m*3 26 C 0 km/h
899 22-08-2010 12:01:01 26.7 C 12.15 g/m*3 26.7 C 0 km/h
900 22-08-2010 12:13:01 27.3 C 12.04 g/m*3 27.3 C 0 km/h
Sensor: Nr:Datum:Temp:Abs-Feuchte:Windchill:Wind:
Aussen-T/F 901 22-08-2010 12:25:02 27.9 C 11.63 g/m*3 27.9 C 0 km/h
902 22-08-2010 12:37:02 27.6 C 11.17 g/m*3 27.6 C 0 km/h
903 22-08-2010 12:49:02 27.8 C 11.3 g/m*3 27.8 C 0 km/h
904 22-08-2010 13:01:03 27.7 C 11.23 g/m*3 27.7 C 0 km/h
905 22-08-2010 13:13:03 28 C 11.15 g/m*3 28 C 0 km/h
906 22-08-2010 13:25:02 28.7 C 10.17 g/m*3 28.7 C 0 km/h
907 22-08-2010 13:37:02 28.9 C 10.28 g/m*3 28.9 C 0 km/h
908 22-08-2010 13:49:02 28.9 C 9.71 g/m*3 28.9 C 0 km/h
909 22-08-2010 14:01:02 29.6 C 10.68 g/m*3 29.6 C 0 km/h
910 22-08-2010 14:13:02 29.7 C 10.14 g/m*3 29.7 C 0 km/h
911 22-08-2010 14:25:01 29.6 C 10.39 g/m*3 29.6 C 0 km/h
912 22-08-2010 14:37:02 27.7 C 10.43 g/m*3 27.7 C 0 km/h
913 22-08-2010 14:49:02 27.1 C 10.61 g/m*3 27.1 C 0 km/h
914 22-08-2010 15:01:02 26 C 11.2 g/m*3 26 C 0 km/h
915 22-08-2010 15:13:03 25.9 C 11.62 g/m*3 25.9 C 0 km/h
916 22-08-2010 15:25:01 25.4 C 12.24 g/m*3 25.4 C 0 km/h
917 22-08-2010 15:37:02 25.1 C 13.2 g/m*3 25.1 C 0 km/h
918 22-08-2010 15:49:01 26.4 C 12.7 g/m*3 26.4 C 0 km/h
919 22-08-2010 16:01:02 27.7 C 11.77 g/m*3 27.7 C 0 km/h
920 22-08-2010 16:13:02 27.9 C 11.63 g/m*3 27.9 C 0 km/h
921 22-08-2010 16:25:02 27.9 C 12.17 g/m*3 27.9 C 0 km/h
922 22-08-2010 16:37:02 28 C 11.97 g/m*3 28 C 0 km/h
923 22-08-2010 16:49:01 27.5 C 11.91 g/m*3 27.5 C 0 km/h
924 22-08-2010 17:01:02 27 C 12.1 g/m*3 27 C 0 km/h
925 22-08-2010 17:13:02 26.8 C 12.22 g/m*3 26.8 C 0 km/h
Sensor: Nr:Datum:Temp:Abs-Feuchte:Windchill:Wind:
Aussen-T/F 926 22-08-2010 17:25:02 26.7 C 12.66 g/m*3 26.7 C 0 km/h
927 22-08-2010 17:37:02 26.4 C 11.45 g/m*3 26.4 C 0 km/h
928 22-08-2010 17:49:02 26.5 C 11.01 g/m*3 26.5 C 0 km/h
929 22-08-2010 18:01:01 26.4 C 10.7 g/m*3 26.4 C 0 km/h
930 22-08-2010 18:13:01 26.6 C 11.08 g/m*3 26.6 C 0 km/h
931 22-08-2010 18:25:02 26.5 C 12.02 g/m*3 26.5 C 0 km/h
932 22-08-2010 18:37:01 26 C 12.17 g/m*3 26 C 0 km/h
933 22-08-2010 18:49:02 25.9 C 12.59 g/m*3 25.9 C 0 km/h
934 22-08-2010 19:01:01 25.9 C 12.59 g/m*3 25.9 C 0 km/h
935 22-08-2010 19:13:01 26.2 C 12.31 g/m*3 26.2 C 0 km/h
936 22-08-2010 19:25:01 25.6 C 11.67 g/m*3 25.6 C 0 km/h
937 22-08-2010 19:37:02 25.3 C 10.53 g/m*3 25.3 C 0 km/h
938 22-08-2010 19:49:02 24.6 C 10.8 g/m*3 24.6 C 0 km/h
939 22-08-2010 20:01:02 24.6 C 10.8 g/m*3 24.6 C 0 km/h
940 22-08-2010 20:13:02 24.6 C 10.58 g/m*3 24.6 C 0 km/h
941 22-08-2010 20:25:02 24.5 C 10.52 g/m*3 24.5 C 0 km/h
942 22-08-2010 20:37:02 24.3 C 10.62 g/m*3 24.3 C 0 km/h
943 22-08-2010 20:49:02 24.1 C 10.72 g/m*3 24.1 C 0 km/h
944 22-08-2010 21:01:01 23.8 C 11.19 g/m*3 23.8 C 0 km/h
945 22-08-2010 21:13:01 23.2 C 11.23 g/m*3 23.2 C 0 km/h
946 22-08-2010 21:25:01 22.9 C 11.44 g/m*3 22.9 C 0 km/h
947 22-08-2010 21:37:02 22.9 C 11.85 g/m*3 22.9 C 0 km/h
948 22-08-2010 21:49:02 23 C 11.72 g/m*3 23 C 0 km/h
949 22-08-2010 22:01:02 23.2 C 11.64 g/m*3 23.2 C 0 km/h
950 22-08-2010 22:13:02 22.9 C 11.44 g/m*3 22.9 C 0 km/h
Sensor: Nr:Datum:Temp:Abs-Feuchte:Windchill:Wind:
Aussen-T/F 951 22-08-2010 22:25:02 22.6 C 11.65 g/m*3 22.6 C 0 km/h
952 22-08-2010 22:38:03 22.5 C 11.98 g/m*3 22.5 C 0 km/h
953 22-08-2010 22:50:03 22.1 C 11.71 g/m*3 22.1 C 0 km/h
954 22-08-2010 23:02:03 21.8 C 11.9 g/m*3 21.8 C 0 km/h
955 22-08-2010 23:14:03 21.6 C 11.95 g/m*3 21.6 C 0 km/h
956 22-08-2010 23:26:03 21.6 C 11.95 g/m*3 21.6 C 0 km/h
957 22-08-2010 23:38:03 21.4 C 11.81 g/m*3 21.4 C 0 km/h
958 22-08-2010 23:50:03 21.2 C 11.86 g/m*3 21.2 C 0 km/h
959 23-08-2010 00:02:03 21.1 C 11.98 g/m*3 21.1 C 0 km/h
960 23-08-2010 00:14:03 20.9 C 12.02 g/m*3 20.9 C 0 km/h
961 23-08-2010 00:26:03 20.9 C 12.02 g/m*3 20.9 C 0 km/h
962 23-08-2010 00:38:03 20.8 C 11.95 g/m*3 20.8 C 0 km/h
963 23-08-2010 00:50:03 20.7 C 12.06 g/m*3 20.7 C 0 km/h
964 23-08-2010 01:02:03 20.4 C 12.03 g/m*3 20.4 C 0 km/h
965 23-08-2010 01:14:03 20.3 C 12.31 g/m*3 20.3 C 0 km/h
966 23-08-2010 01:26:03 20.3 C 12.14 g/m*3 20.3 C 0 km/h
967 23-08-2010 01:38:03 20.4 C 12.21 g/m*3 20.4 C 0 km/h
968 23-08-2010 01:50:03 20.5 C 12.1 g/m*3 20.5 C 0 km/h
969 23-08-2010 02:02:03 20.4 C 12.21 g/m*3 20.4 C 0 km/h
970 23-08-2010 02:14:03 20.2 C 12.24 g/m*3 20.2 C 0 km/h
971 23-08-2010 02:26:03 19.8 C 12.3 g/m*3 19.8 C 0 km/h
972 23-08-2010 02:38:03 19.8 C 12.47 g/m*3 19.8 C 0 km/h
973 23-08-2010 02:50:04 19.9 C 12.37 g/m*3 19.9 C 0 km/h
974 23-08-2010 03:02:04 19.9 C 12.2 g/m*3 19.9 C 0 km/h
975 23-08-2010 03:14:04 19.9 C 12.37 g/m*3 19.9 C 0 km/h
Sensor: Nr:Datum:Temp:Abs-Feuchte:Windchill:Wind:
Aussen-T/F 976 23-08-2010 03:26:04 19.9 C 12.37 g/m*3 19.9 C 0 km/h
977 23-08-2010 03:38:04 19.7 C 12.23 g/m*3 19.7 C 0 km/h
978 23-08-2010 03:50:04 19.7 C 12.4 g/m*3 19.7 C 0 km/h
979 23-08-2010 04:02:04 19.6 C 12.32 g/m*3 19.6 C 0 km/h
980 23-08-2010 04:14:04 19.5 C 12.25 g/m*3 19.5 C 0 km/h
981 23-08-2010 04:26:04 19.5 C 12.42 g/m*3 19.5 C 0 km/h
982 23-08-2010 04:38:04 19.5 C 12.42 g/m*3 19.5 C 0 km/h
983 23-08-2010 04:50:04 19.5 C 12.25 g/m*3 19.5 C 0 km/h
984 23-08-2010 05:02:04 19.5 C 12.25 g/m*3 19.5 C 0 km/h
985 23-08-2010 05:14:04 19.4 C 12.18 g/m*3 19.4 C 0 km/h
986 23-08-2010 05:26:04 19.5 C 12.25 g/m*3 19.5 C 0 km/h
987 23-08-2010 05:38:04 19.4 C 12.18 g/m*3 19.4 C 0 km/h
988 23-08-2010 05:50:04 19.4 C 12.18 g/m*3 19.4 C 0 km/h
989 23-08-2010 06:02:04 19.5 C 12.42 g/m*3 19.5 C 0 km/h
990 23-08-2010 06:14:04 19.5 C 12.42 g/m*3 19.5 C 0 km/h
991 23-08-2010 06:26:04 19.4 C 12.35 g/m*3 19.4 C 0 km/h
992 23-08-2010 06:38:03 19.5 C 12.25 g/m*3 19.5 C 0 km/h
993 23-08-2010 06:50:02 19.5 C 12.25 g/m*3 19.5 C 0 km/h
994 23-08-2010 07:02:02 19.3 C 12.27 g/m*3 19.3 C 0 km/h
995 23-08-2010 07:14:03 19.5 C 12.59 g/m*3 19.5 C 0 km/h
996 23-08-2010 07:26:02 19.9 C 12.71 g/m*3 19.9 C 0 km/h
997 23-08-2010 07:38:02 20.4 C 12.38 g/m*3 20.4 C 0 km/h
998 23-08-2010 07:50:02 20.5 C 12.46 g/m*3 20.5 C 0 km/h
999 23-08-2010 08:02:02 20.6 C 12.71 g/m*3 20.6 C 0 km/h
1000 23-08-2010 08:14:02 20.4 C 12.74 g/m*3 20.4 C 0 km/h
Sensor: Nr:Datum:Temp:Abs-Feuchte:Windchill:Wind:
Aussen-T/F 1001 23-08-2010 08:26:01 19.5 C 13.26 g/m*3 19.5 C 0 km/h
1002 23-08-2010 08:38:02 19.1 C 13.77 g/m*3 19.1 C 0 km/h
1003 23-08-2010 08:50:02 19.1 C 13.93 g/m*3 19.1 C 0 km/h
1004 23-08-2010 09:02:01 19.3 C 14.26 g/m*3 19.3 C 0 km/h
1005 23-08-2010 09:14:01 19.4 C 14.52 g/m*3 19.4 C 0 km/h
1006 23-08-2010 09:26:02 19.4 C 14.52 g/m*3 19.4 C 0 km/h
1007 23-08-2010 09:38:01 19.4 C 14.52 g/m*3 19.4 C 0 km/h
1008 23-08-2010 09:50:02 19.7 C 14.77 g/m*3 19.7 C 0 km/h
1009 23-08-2010 10:02:01 20 C 14.86 g/m*3 20 C 0 km/h
1010 23-08-2010 10:14:01 20.4 C 15.21 g/m*3 20.4 C 0 km/h
1011 23-08-2010 10:26:01 20.7 C 15.12 g/m*3 20.7 C 0 km/h
1012 23-08-2010 10:38:02 20.9 C 15.12 g/m*3 20.9 C 0 km/h
1013 23-08-2010 10:50:02 21.2 C 15.01 g/m*3 21.2 C 0 km/h
1014 23-08-2010 11:02:02 21.4 C 15 g/m*3 21.4 C 0 km/h
1015 23-08-2010 11:14:02 21.7 C 14.69 g/m*3 21.7 C 0 km/h
1016 23-08-2010 11:26:02 22.5 C 14.58 g/m*3 22.5 C 0 km/h
1017 23-08-2010 11:38:02 22.8 C 14.63 g/m*3 22.8 C 0 km/h
1018 23-08-2010 11:50:02 22.9 C 14.92 g/m*3 22.9 C 0 km/h
1019 23-08-2010 12:02:02 22.5 C 14.78 g/m*3 22.5 C 0 km/h
1020 23-08-2010 12:14:02 22.7 C 15.36 g/m*3 22.7 C 0 km/h
1021 23-08-2010 12:26:02 23.3 C 16.1 g/m*3 23.3 C 0 km/h
1022 23-08-2010 12:38:02 23.4 C 15.98 g/m*3 23.4 C 0 km/h
1023 23-08-2010 12:50:01 23.5 C 15.86 g/m*3 23.5 C 0 km/h
1024 23-08-2010 13:02:02 24.2 C 15.18 g/m*3 24.2 C 0 km/h
1025 23-08-2010 13:14:02 24.9 C 14.42 g/m*3 24.9 C 0 km/h
Sensor: Nr:Datum:Temp:Abs-Feuchte:Windchill:Wind:
Aussen-T/F 1026 23-08-2010 13:26:01 24 C 13.49 g/m*3 24 C 0 km/h
1027 23-08-2010 13:38:01 23.1 C 13.85 g/m*3 23.1 C 0 km/h
1028 23-08-2010 13:50:01 22.2 C 14.72 g/m*3 22.2 C 0 km/h
1029 23-08-2010 14:02:01 21.9 C 14.86 g/m*3 21.9 C 0 km/h
1030 23-08-2010 14:14:01 23.3 C 14.84 g/m*3 23.3 C 0 km/h
1031 23-08-2010 14:26:01 24.8 C 14.11 g/m*3 24.8 C 0 km/h
1032 23-08-2010 14:38:01 25.8 C 13.72 g/m*3 25.8 C 0 km/h
1033 23-08-2010 14:50:01 25.9 C 13.32 g/m*3 25.9 C 0 km/h
1034 23-08-2010 15:02:01 25.9 C 13.07 g/m*3 25.9 C 0 km/h
1035 23-08-2010 15:14:01 25.9 C 12.59 g/m*3 25.9 C 0 km/h
1036 23-08-2010 15:26:02 26.3 C 12.13 g/m*3 26.3 C 0 km/h
1037 23-08-2010 15:38:01 25.9 C 11.86 g/m*3 25.9 C 0 km/h
1038 23-08-2010 15:50:03 25.3 C 11.94 g/m*3 25.3 C 0 km/h
1039 23-08-2010 16:02:02 25.9 C 11.38 g/m*3 25.9 C 0 km/h
1040 23-08-2010 16:14:02 26.7 C 11.14 g/m*3 26.7 C 0 km/h
1041 23-08-2010 16:26:02 26.6 C 11.33 g/m*3 26.6 C 0 km/h
1042 23-08-2010 16:38:02 25.5 C 11.6 g/m*3 25.5 C 0 km/h
1043 23-08-2010 16:50:02 25 C 11.51 g/m*3 25 C 0 km/h
1044 23-08-2010 17:02:01 25.2 C 10.94 g/m*3 25.2 C 0 km/h
1045 23-08-2010 17:14:01 24.6 C 11.25 g/m*3 24.6 C 0 km/h
1046 23-08-2010 17:26:02 23.3 C 11.92 g/m*3 23.3 C 0 km/h
1047 23-08-2010 17:38:02 22.7 C 12.53 g/m*3 22.7 C 0 km/h
1048 23-08-2010 17:50:02 22.1 C 12.88 g/m*3 22.1 C 0 km/h
1049 23-08-2010 18:02:01 21.9 C 13.31 g/m*3 21.9 C 0 km/h
1050 23-08-2010 18:14:01 21.6 C 13.47 g/m*3 21.6 C 0 km/h
Sensor: Nr:Datum:Temp:Abs-Feuchte:Windchill:Wind:
Aussen-T/F 1051 23-08-2010 18:26:01 21 C 13.74 g/m*3 21 C 0 km/h
1052 23-08-2010 18:38:02 20.7 C 14.22 g/m*3 20.7 C 0 km/h
1053 23-08-2010 18:50:02 20.4 C 13.98 g/m*3 20.4 C 0 km/h
1054 23-08-2010 19:02:02 20.8 C 14.3 g/m*3 20.8 C 0 km/h
1055 23-08-2010 19:14:02 20.9 C 13.84 g/m*3 20.9 C 0 km/h
1056 23-08-2010 19:26:02 20.8 C 13.76 g/m*3 20.8 C 0 km/h
1057 23-08-2010 19:38:02 20.7 C 13.5 g/m*3 20.7 C 0 km/h
1058 23-08-2010 19:50:02 20.6 C 13.42 g/m*3 20.6 C 0 km/h
1059 23-08-2010 20:02:02 20.5 C 13.17 g/m*3 20.5 C 0 km/h
1060 23-08-2010 20:14:02 20.4 C 13.09 g/m*3 20.4 C 0 km/h
1061 23-08-2010 20:26:02 20.4 C 12.91 g/m*3 20.4 C 0 km/h
1062 23-08-2010 20:38:02 20.3 C 12.84 g/m*3 20.3 C 0 km/h
1063 23-08-2010 20:50:02 20.1 C 12.69 g/m*3 20.1 C 0 km/h
1064 23-08-2010 21:02:02 20 C 12.62 g/m*3 20 C 0 km/h
1065 23-08-2010 21:14:02 19.8 C 12.64 g/m*3 19.8 C 0 km/h
1066 23-08-2010 21:26:02 19.7 C 12.74 g/m*3 19.7 C 0 km/h
1067 23-08-2010 21:38:02 19.7 C 12.57 g/m*3 19.7 C 0 km/h
1068 23-08-2010 21:50:02 19.8 C 12.47 g/m*3 19.8 C 0 km/h
1069 23-08-2010 22:03:03 19.7 C 12.4 g/m*3 19.7 C 0 km/h
1070 23-08-2010 22:15:03 19.6 C 12.32 g/m*3 19.6 C 0 km/h
1071 23-08-2010 22:27:03 19.6 C 12.15 g/m*3 19.6 C 0 km/h
1072 23-08-2010 22:39:03 19.5 C 12.25 g/m*3 19.5 C 0 km/h
1073 23-08-2010 22:51:03 19.5 C 12.08 g/m*3 19.5 C 0 km/h
1074 23-08-2010 23:03:03 19.4 C 12.01 g/m*3 19.4 C 0 km/h
1075 23-08-2010 23:15:03 19.3 C 11.94 g/m*3 19.3 C 0 km/h
Sensor: Nr:Datum:Temp:Abs-Feuchte:Windchill:Wind:
Aussen-T/F 1076 23-08-2010 23:27:03 19.3 C 11.94 g/m*3 19.3 C 0 km/h
1077 23-08-2010 23:39:03 19.2 C 11.87 g/m*3 19.2 C 0 km/h
1078 23-08-2010 23:51:03 19.3 C 11.94 g/m*3 19.3 C 0 km/h
1079 24-08-2010 00:03:03 19.2 C 12.04 g/m*3 19.2 C 0 km/h
1080 24-08-2010 00:15:03 19.2 C 12.04 g/m*3 19.2 C 0 km/h
1081 24-08-2010 00:27:03 19.1 C 11.97 g/m*3 19.1 C 0 km/h
1082 24-08-2010 00:39:04 19.2 C 12.2 g/m*3 19.2 C 0 km/h
1083 24-08-2010 00:51:04 19.2 C 12.2 g/m*3 19.2 C 0 km/h
1084 24-08-2010 01:03:04 19.3 C 12.27 g/m*3 19.3 C 0 km/h
1085 24-08-2010 01:15:04 19.2 C 12.37 g/m*3 19.2 C 0 km/h
1086 24-08-2010 01:27:04 19.1 C 12.46 g/m*3 19.1 C 0 km/h
1087 24-08-2010 01:39:04 19.2 C 12.53 g/m*3 19.2 C 0 km/h
1088 24-08-2010 01:51:04 19.2 C 12.53 g/m*3 19.2 C 0 km/h
1089 24-08-2010 02:03:04 19.3 C 12.44 g/m*3 19.3 C 0 km/h
1090 24-08-2010 02:15:04 19.6 C 12.32 g/m*3 19.6 C 0 km/h
1091 24-08-2010 02:27:04 19.9 C 12.37 g/m*3 19.9 C 0 km/h
1092 24-08-2010 02:39:04 20 C 11.92 g/m*3 20 C 0 km/h
1093 24-08-2010 02:51:04 19.6 C 12.32 g/m*3 19.6 C 0 km/h
1094 24-08-2010 03:03:04 19 C 12.22 g/m*3 19 C 0 km/h
1095 24-08-2010 03:15:04 18.7 C 12.33 g/m*3 18.7 C 0 km/h
1096 24-08-2010 03:27:04 18.4 C 11.64 g/m*3 18.4 C 0 km/h
1097 24-08-2010 03:39:04 17.9 C 11.76 g/m*3 17.9 C 0 km/h
1098 24-08-2010 03:51:04 17.7 C 11.32 g/m*3 17.7 C 0 km/h
1099 24-08-2010 04:03:04 18.1 C 9.73 g/m*3 18.1 C 0 km/h
1100 24-08-2010 04:15:04 18.2 C 9.64 g/m*3 18.2 C 0 km/h
Sensor: Nr:Datum:Temp:Abs-Feuchte:Windchill:Wind:
Aussen-T/F 1101 24-08-2010 04:27:04 18.1 C 9.43 g/m*3 18.1 C 0 km/h
1102 24-08-2010 04:39:04 18 C 9.37 g/m*3 18 C 0 km/h
1103 24-08-2010 04:51:05 17.9 C 9.47 g/m*3 17.9 C 0 km/h
1104 24-08-2010 05:03:05 17.4 C 9.48 g/m*3 17.4 C 0 km/h
1105 24-08-2010 05:15:05 17.3 C 9.58 g/m*3 17.3 C 0 km/h
1106 24-08-2010 05:27:05 17.3 C 9.58 g/m*3 17.3 C 0 km/h
1107 24-08-2010 05:39:05 17.2 C 9.37 g/m*3 17.2 C 0 km/h
1108 24-08-2010 05:51:05 17 C 9.55 g/m*3 17 C 0 km/h
1109 24-08-2010 06:03:05 17.1 C 9.46 g/m*3 17.1 C 0 km/h
1110 24-08-2010 06:15:05 17.1 C 9.32 g/m*3 17.1 C 0 km/h
1111 24-08-2010 06:27:05 17 C 9.55 g/m*3 17 C 0 km/h
1112 24-08-2010 06:39:05 17.4 C 9.63 g/m*3 17.4 C 0 km/h
1113 24-08-2010 06:51:05 16.8 C 9.44 g/m*3 16.8 C 0 km/h
1114 24-08-2010 07:03:05 16.8 C 9.58 g/m*3 16.8 C 0 km/h
1115 24-08-2010 07:15:02 16.7 C 9.38 g/m*3 16.7 C 0 km/h
1116 24-08-2010 07:27:02 16.4 C 9.21 g/m*3 16.4 C 0 km/h
1117 24-08-2010 07:39:03 16.2 C 8.96 g/m*3 16.2 C 0 km/h
1118 24-08-2010 07:51:02 16.1 C 9.05 g/m*3 16.1 C 0 km/h
1119 24-08-2010 08:03:02 16 C 8.99 g/m*3 16 C 0 km/h
1120 24-08-2010 08:15:02 16.1 C 8.64 g/m*3 16.1 C 0 km/h
1121 24-08-2010 08:27:02 16.2 C 8.41 g/m*3 16.2 C 0 km/h
1122 24-08-2010 08:39:02 16.2 C 8.27 g/m*3 16.2 C 0 km/h
1123 24-08-2010 08:51:02 16.3 C 7.91 g/m*3 16.3 C 0 km/h
1124 24-08-2010 09:03:02 16.4 C 7.82 g/m*3 16.4 C 0 km/h
1125 24-08-2010 09:15:02 16.5 C 7.44 g/m*3 16.5 C 0 km/h
Sensor: Nr:Datum:Temp:Abs-Feuchte:Windchill:Wind:
Aussen-T/F 1126 24-08-2010 09:27:02 16.7 C 7.11 g/m*3 16.7 C 0 km/h
1127 24-08-2010 09:39:01 17 C 6.95 g/m*3 17 C 0 km/h
1128 24-08-2010 09:51:02 17.2 C 7.18 g/m*3 17.2 C 0 km/h
1129 24-08-2010 10:03:01 17.4 C 7.11 g/m*3 17.4 C 0 km/h
1130 24-08-2010 10:15:02 17.7 C 7.39 g/m*3 17.7 C 0 km/h
1131 24-08-2010 10:27:02 17.8 C 7.29 g/m*3 17.8 C 0 km/h
1132 24-08-2010 10:39:02 18 C 7.07 g/m*3 18 C 0 km/h
1133 24-08-2010 10:51:02 18.5 C 7.28 g/m*3 18.5 C 0 km/h
1134 24-08-2010 11:03:03 18.7 C 7.36 g/m*3 18.7 C 0 km/h
1135 24-08-2010 11:15:02 18.9 C 6.97 g/m*3 18.9 C 0 km/h
1136 24-08-2010 11:27:02 19.1 C 6.72 g/m*3 19.1 C 0 km/h
1137 24-08-2010 11:39:02 19.4 C 6.51 g/m*3 19.4 C 0 km/h
1138 24-08-2010 11:51:01 19.3 C 6.8 g/m*3 19.3 C 0 km/h
1139 24-08-2010 12:03:02 19.1 C 6.56 g/m*3 19.1 C 0 km/h
1140 24-08-2010 12:15:01 19.8 C 6.66 g/m*3 19.8 C 0 km/h
1141 24-08-2010 12:27:01 20.1 C 6.26 g/m*3 20.1 C 0 km/h
1142 24-08-2010 12:39:02 20 C 6.05 g/m*3 20 C 0 km/h
1143 24-08-2010 12:51:01 21.2 C 6.12 g/m*3 21.2 C 0 km/h
1144 24-08-2010 13:03:02 20.3 C 6.16 g/m*3 20.3 C 0 km/h
1145 24-08-2010 13:15:01 20.5 C 6.23 g/m*3 20.5 C 0 km/h
1146 24-08-2010 13:27:01 21.5 C 5.85 g/m*3 21.5 C 0 km/h
1147 24-08-2010 13:39:02 21.7 C 5.72 g/m*3 21.7 C 0 km/h
1148 24-08-2010 13:51:01 21 C 5.68 g/m*3 21 C 0 km/h
1149 24-08-2010 14:03:02 20.8 C 5.79 g/m*3 20.8 C 0 km/h
1150 24-08-2010 14:15:02 20.9 C 5.83 g/m*3 20.9 C 0 km/h
Sensor: Nr:Datum:Temp:Abs-Feuchte:Windchill:Wind:
Aussen-T/F 1151 24-08-2010 14:27:02 21.7 C 5.34 g/m*3 21.7 C 0 km/h
1152 24-08-2010 14:39:02 22.2 C 5.3 g/m*3 22.2 C 0 km/h
1153 24-08-2010 14:51:02 21.7 C 5.15 g/m*3 21.7 C 0 km/h
1154 24-08-2010 15:03:02 21.2 C 5.74 g/m*3 21.2 C 0 km/h
1155 24-08-2010 15:15:02 21.2 C 5.19 g/m*3 21.2 C 0 km/h
1156 24-08-2010 15:27:02 21.6 C 4.93 g/m*3 21.6 C 0 km/h
1157 24-08-2010 15:39:01 22.1 C 5.08 g/m*3 22.1 C 0 km/h
1158 24-08-2010 15:51:02 23 C 4.52 g/m*3 23 C 0 km/h
1159 24-08-2010 16:03:01 23.2 C 4.57 g/m*3 23.2 C 0 km/h
1160 24-08-2010 16:15:02 23.2 C 4.37 g/m*3 23.2 C 0 km/h
1161 24-08-2010 16:27:03 23 C 4.73 g/m*3 23 C 0 km/h
1162 24-08-2010 16:39:01 23.8 C 4.73 g/m*3 23.8 C 0 km/h
1163 24-08-2010 16:51:02 22 C 4.66 g/m*3 22 C 0 km/h
1164 24-08-2010 17:03:02 23 C 4.52 g/m*3 23 C 0 km/h
1165 24-08-2010 17:15:02 23.4 C 4.21 g/m*3 23.4 C 0 km/h
1166 24-08-2010 17:27:02 23.6 C 4.68 g/m*3 23.6 C 0 km/h
1167 24-08-2010 17:39:03 22.9 C 4.9 g/m*3 22.9 C 0 km/h
1168 24-08-2010 17:51:02 23.2 C 5.2 g/m*3 23.2 C 0 km/h
1169 24-08-2010 18:03:02 23.8 C 4.95 g/m*3 23.8 C 0 km/h
1170 24-08-2010 18:15:02 22.8 C 5.08 g/m*3 22.8 C 0 km/h
1171 24-08-2010 18:27:02 22.9 C 5.11 g/m*3 22.9 C 0 km/h
1172 24-08-2010 18:39:02 22.8 C 5.28 g/m*3 22.8 C 0 km/h
1173 24-08-2010 18:51:02 22.3 C 5.13 g/m*3 22.3 C 0 km/h
1174 24-08-2010 19:03:03 22.5 C 5.19 g/m*3 22.5 C 0 km/h
1175 24-08-2010 19:15:02 21.7 C 5.15 g/m*3 21.7 C 0 km/h
Sensor: Nr:Datum:Temp:Abs-Feuchte:Windchill:Wind:
Aussen-T/F 1176 24-08-2010 19:27:02 22.1 C 5.08 g/m*3 22.1 C 0 km/h
1177 24-08-2010 19:39:02 21.3 C 5.03 g/m*3 21.3 C 0 km/h
1178 24-08-2010 19:51:01 20.8 C 5.43 g/m*3 20.8 C 0 km/h
1179 24-08-2010 20:03:02 20.4 C 5.48 g/m*3 20.4 C 0 km/h
1180 24-08-2010 20:15:01 20.3 C 5.8 g/m*3 20.3 C 0 km/h
1181 24-08-2010 20:27:01 19.7 C 5.94 g/m*3 19.7 C 0 km/h
1182 24-08-2010 20:39:02 19.4 C 5.84 g/m*3 19.4 C 0 km/h
1183 24-08-2010 20:51:01 19 C 5.87 g/m*3 19 C 0 km/h
1184 24-08-2010 21:03:02 18.7 C 5.92 g/m*3 18.7 C 0 km/h
1185 24-08-2010 21:15:02 18.4 C 6.13 g/m*3 18.4 C 0 km/h
1186 24-08-2010 21:27:02 18.2 C 6.22 g/m*3 18.2 C 0 km/h
1187 24-08-2010 21:39:02 18.1 C 6.18 g/m*3 18.1 C 0 km/h
1188 24-08-2010 21:51:01 18 C 6.14 g/m*3 18 C 0 km/h
1189 24-08-2010 22:04:03 17.7 C 6.19 g/m*3 17.7 C 0 km/h
1190 24-08-2010 22:16:03 17.6 C 6.15 g/m*3 17.6 C 0 km/h
1191 24-08-2010 22:28:03 17.5 C 6.26 g/m*3 17.5 C 0 km/h
1192 24-08-2010 22:40:03 17.1 C 6.4 g/m*3 17.1 C 0 km/h
1193 24-08-2010 22:52:03 17.1 C 6.4 g/m*3 17.1 C 0 km/h
1194 24-08-2010 23:04:03 17 C 6.22 g/m*3 17 C 0 km/h
1195 24-08-2010 23:16:03 16.8 C 6.43 g/m*3 16.8 C 0 km/h
1196 24-08-2010 23:28:03 16.8 C 6.43 g/m*3 16.8 C 0 km/h
1197 24-08-2010 23:40:03 16.7 C 6.54 g/m*3 16.7 C 0 km/h
1198 24-08-2010 23:52:03 16.6 C 6.5 g/m*3 16.6 C 0 km/h
1199 25-08-2010 00:04:03 16.4 C 6.42 g/m*3 16.4 C 0 km/h
1200 25-08-2010 00:16:03 16.4 C 6.56 g/m*3 16.4 C 0 km/h
Sensor: Nr:Datum:Temp:Abs-Feuchte:Windchill:Wind:
Aussen-T/F 1201 25-08-2010 00:28:03 16.2 C 6.48 g/m*3 16.2 C 0 km/h
1202 25-08-2010 00:40:04 16 C 6.54 g/m*3 16 C 0 km/h
1203 25-08-2010 00:52:04 15.8 C 6.73 g/m*3 15.8 C 0 km/h
1204 25-08-2010 01:04:04 15.8 C 6.73 g/m*3 15.8 C 0 km/h
1205 25-08-2010 01:16:04 15.6 C 6.78 g/m*3 15.6 C 0 km/h
1206 25-08-2010 01:28:04 15.5 C 6.87 g/m*3 15.5 C 0 km/h
1207 25-08-2010 01:40:04 15.4 C 6.83 g/m*3 15.4 C 0 km/h
1208 25-08-2010 01:52:04 15.3 C 6.79 g/m*3 15.3 C 0 km/h
1209 25-08-2010 02:04:04 15.1 C 6.97 g/m*3 15.1 C 0 km/h
1210 25-08-2010 02:16:04 14.8 C 7.09 g/m*3 14.8 C 0 km/h
1211 25-08-2010 02:28:04 14.6 C 7.13 g/m*3 14.6 C 0 km/h
1212 25-08-2010 02:40:04 14.5 C 7.21 g/m*3 14.5 C 0 km/h
1213 25-08-2010 02:52:04 14.3 C 7.13 g/m*3 14.3 C 0 km/h
1214 25-08-2010 03:04:04 14.2 C 7.2 g/m*3 14.2 C 0 km/h
1215 25-08-2010 03:16:04 13.9 C 7.55 g/m*3 13.9 C 0 km/h
1216 25-08-2010 03:28:04 13.7 C 7.58 g/m*3 13.7 C 0 km/h
1217 25-08-2010 03:40:04 13.6 C 7.77 g/m*3 13.6 C 0 km/h
1218 25-08-2010 03:52:04 13.4 C 7.67 g/m*3 13.4 C 0 km/h
1219 25-08-2010 04:04:04 13.4 C 7.79 g/m*3 13.4 C 0 km/h
1220 25-08-2010 04:16:04 13.4 C 7.79 g/m*3 13.4 C 0 km/h
1221 25-08-2010 04:28:04 13.4 C 7.67 g/m*3 13.4 C 0 km/h
1222 25-08-2010 04:40:04 13.4 C 7.67 g/m*3 13.4 C 0 km/h
1223 25-08-2010 04:52:05 13.4 C 7.56 g/m*3 13.4 C 0 km/h
1224 25-08-2010 05:04:05 13.6 C 7.53 g/m*3 13.6 C 0 km/h
1225 25-08-2010 05:16:05 13.6 C 7.41 g/m*3 13.6 C 0 km/h
Sensor: Nr:Datum:Temp:Abs-Feuchte:Windchill:Wind:
Aussen-T/F 1226 25-08-2010 05:28:05 13.4 C 7.44 g/m*3 13.4 C 0 km/h
1227 25-08-2010 05:40:05 13.2 C 7.58 g/m*3 13.2 C 0 km/h
1228 25-08-2010 05:52:05 13.1 C 7.65 g/m*3 13.1 C 0 km/h
1229 25-08-2010 06:04:05 13 C 7.6 g/m*3 13 C 0 km/h
1230 25-08-2010 06:16:05 13.1 C 7.65 g/m*3 13.1 C 0 km/h
1231 25-08-2010 06:28:05 12.9 C 7.78 g/m*3 12.9 C 0 km/h
1232 25-08-2010 06:40:05 12.9 C 7.78 g/m*3 12.9 C 0 km/h
1233 25-08-2010 06:52:05 12.8 C 7.73 g/m*3 12.8 C 0 km/h
1234 25-08-2010 07:04:02 12.7 C 7.79 g/m*3 12.7 C 0 km/h
1235 25-08-2010 07:16:03 12.8 C 7.84 g/m*3 12.8 C 0 km/h
1236 25-08-2010 07:28:03 12.8 C 7.84 g/m*3 12.8 C 0 km/h
1237 25-08-2010 07:40:02 12.7 C 7.79 g/m*3 12.7 C 0 km/h
1238 25-08-2010 07:52:02 12.8 C 7.95 g/m*3 12.8 C 0 km/h
1239 25-08-2010 08:04:01 13.1 C 7.87 g/m*3 13.1 C 0 km/h
1240 25-08-2010 08:16:01 13.4 C 7.9 g/m*3 13.4 C 0 km/h
1241 25-08-2010 08:28:01 13.5 C 7.84 g/m*3 13.5 C 0 km/h
1242 25-08-2010 08:40:01 13.8 C 7.86 g/m*3 13.8 C 0 km/h
1243 25-08-2010 08:52:03 13.9 C 7.79 g/m*3 13.9 C 0 km/h
1244 25-08-2010 09:04:02 14.2 C 7.82 g/m*3 14.2 C 0 km/h
1245 25-08-2010 09:16:02 14.7 C 8.06 g/m*3 14.7 C 0 km/h
1246 25-08-2010 09:28:03 14.9 C 7.9 g/m*3 14.9 C 0 km/h
1247 25-08-2010 09:40:02 15.2 C 7.79 g/m*3 15.2 C 0 km/h
1248 25-08-2010 09:52:02 15.6 C 7.98 g/m*3 15.6 C 0 km/h
1249 25-08-2010 10:04:01 16.1 C 7.81 g/m*3 16.1 C 0 km/h
1250 25-08-2010 10:16:02 16.3 C 7.77 g/m*3 16.3 C 0 km/h
Sensor: Nr:Datum:Temp:Abs-Feuchte:Windchill:Wind:
Aussen-T/F 1251 25-08-2010 10:28:02 16.3 C 7.77 g/m*3 16.3 C 0 km/h
1252 25-08-2010 10:40:02 16.3 C 7.77 g/m*3 16.3 C 0 km/h
1253 25-08-2010 10:52:02 16.5 C 7.86 g/m*3 16.5 C 0 km/h
1254 25-08-2010 11:04:02 17.1 C 7.71 g/m*3 17.1 C 0 km/h
1255 25-08-2010 11:16:01 17.4 C 7.85 g/m*3 17.4 C 0 km/h
1256 25-08-2010 11:28:01 17.7 C 7.85 g/m*3 17.7 C 0 km/h
1257 25-08-2010 11:40:02 18.1 C 7.88 g/m*3 18.1 C 0 km/h
1258 25-08-2010 11:52:02 19.2 C 7.75 g/m*3 19.2 C 0 km/h
1259 25-08-2010 12:04:02 19.7 C 7.47 g/m*3 19.7 C 0 km/h
1260 25-08-2010 12:16:01 19.9 C 7.39 g/m*3 19.9 C 0 km/h
1261 25-08-2010 12:28:01 20.4 C 7.43 g/m*3 20.4 C 0 km/h
1262 25-08-2010 12:40:02 20 C 6.91 g/m*3 20 C 0 km/h
1263 25-08-2010 12:52:02 20 C 6.74 g/m*3 20 C 0 km/h
1264 25-08-2010 13:04:02 20.4 C 6.9 g/m*3 20.4 C 0 km/h
1265 25-08-2010 13:16:02 20.7 C 6.84 g/m*3 20.7 C 0 km/h
1266 25-08-2010 13:28:02 20.9 C 6.56 g/m*3 20.9 C 0 km/h
1267 25-08-2010 13:40:02 20.8 C 6.52 g/m*3 20.8 C 0 km/h
1268 25-08-2010 13:52:01 21.3 C 6.52 g/m*3 21.3 C 0 km/h
1269 25-08-2010 14:04:02 21.2 C 6.49 g/m*3 21.2 C 0 km/h
1270 25-08-2010 14:16:01 21.2 C 6.3 g/m*3 21.2 C 0 km/h
1271 25-08-2010 14:28:01 21.7 C 6.49 g/m*3 21.7 C 0 km/h
1272 25-08-2010 14:40:01 21.3 C 6.52 g/m*3 21.3 C 0 km/h
1273 25-08-2010 14:52:01 21.9 C 6.37 g/m*3 21.9 C 0 km/h
1274 25-08-2010 15:04:02 22.5 C 6.39 g/m*3 22.5 C 0 km/h
1275 25-08-2010 15:16:01 23.1 C 6.2 g/m*3 23.1 C 0 km/h
Sensor: Nr:Datum:Temp:Abs-Feuchte:Windchill:Wind:
Aussen-T/F 1276 25-08-2010 15:28:01 23.9 C 6.06 g/m*3 23.9 C 0 km/h
1277 25-08-2010 15:40:01 24.1 C 5.69 g/m*3 24.1 C 0 km/h
1278 25-08-2010 15:52:01 24.1 C 6.13 g/m*3 24.1 C 0 km/h
1279 25-08-2010 16:04:01 24.3 C 5.53 g/m*3 24.3 C 0 km/h
1280 25-08-2010 16:16:02 24.3 C 5.53 g/m*3 24.3 C 0 km/h
1281 25-08-2010 16:28:02 25.3 C 5.62 g/m*3 25.3 C 0 km/h
1282 25-08-2010 16:40:01 24.7 C 5.66 g/m*3 24.7 C 0 km/h
1283 25-08-2010 16:52:01 23.7 C 5.99 g/m*3 23.7 C 0 km/h
1284 25-08-2010 17:04:02 23.4 C 6.73 g/m*3 23.4 C 0 km/h
1285 25-08-2010 17:16:01 23.3 C 6.48 g/m*3 23.3 C 0 km/h
1286 25-08-2010 17:28:01 23.1 C 6.41 g/m*3 23.1 C 0 km/h
1287 25-08-2010 17:40:01 23.2 C 6.86 g/m*3 23.2 C 0 km/h
1288 25-08-2010 17:52:01 23 C 6.78 g/m*3 23 C 0 km/h
1289 25-08-2010 18:04:02 22.2 C 6.87 g/m*3 22.2 C 0 km/h
1290 25-08-2010 18:16:02 22 C 6.79 g/m*3 22 C 0 km/h
1291 25-08-2010 18:28:02 22 C 6.79 g/m*3 22 C 0 km/h
1292 25-08-2010 18:40:01 21.8 C 7.48 g/m*3 21.8 C 0 km/h
1293 25-08-2010 18:52:01 21.5 C 7.54 g/m*3 21.5 C 0 km/h
1294 25-08-2010 19:04:01 20.8 C 7.97 g/m*3 20.8 C 0 km/h
1295 25-08-2010 19:16:02 20.1 C 8 g/m*3 20.1 C 0 km/h
1296 25-08-2010 19:28:02 20.2 C 7.87 g/m*3 20.2 C 0 km/h
1297 25-08-2010 19:40:01 20 C 7.95 g/m*3 20 C 0 km/h
1298 25-08-2010 19:52:02 20 C 7.78 g/m*3 20 C 0 km/h
1299 25-08-2010 20:04:01 19.7 C 8.15 g/m*3 19.7 C 0 km/h
1300 25-08-2010 20:16:02 19.4 C 8.18 g/m*3 19.4 C 0 km/h
Sensor: Nr:Datum:Temp:Abs-Feuchte:Windchill:Wind:
Aussen-T/F 1301 25-08-2010 20:28:02 19 C 8.15 g/m*3 19 C 0 km/h
1302 25-08-2010 20:40:01 18.8 C 8.21 g/m*3 18.8 C 0 km/h
1303 25-08-2010 20:52:02 18.3 C 8.44 g/m*3 18.3 C 0 km/h
1304 25-08-2010 21:04:02 18.1 C 8.19 g/m*3 18.1 C 0 km/h
1305 25-08-2010 21:16:02 18.1 C 8.34 g/m*3 18.1 C 0 km/h
1306 25-08-2010 21:28:02 18.1 C 8.34 g/m*3 18.1 C 0 km/h
1307 25-08-2010 21:40:02 18.2 C 8.39 g/m*3 18.2 C 0 km/h
1308 25-08-2010 21:52:02 18.1 C 8.5 g/m*3 18.1 C 0 km/h
1309 25-08-2010 22:04:01 17.9 C 8.55 g/m*3 17.9 C 0 km/h
1310 25-08-2010 22:17:04 17.7 C 8.45 g/m*3 17.7 C 0 km/h
1311 25-08-2010 22:29:04 17.5 C 8.35 g/m*3 17.5 C 0 km/h
1312 25-08-2010 22:41:04 17.4 C 8.6 g/m*3 17.4 C 0 km/h
1313 25-08-2010 22:53:04 17.3 C 8.54 g/m*3 17.3 C 0 km/h
1314 25-08-2010 23:05:04 17.2 C 8.64 g/m*3 17.2 C 0 km/h
1315 25-08-2010 23:17:04 17.4 C 8.74 g/m*3 17.4 C 0 km/h
1316 25-08-2010 23:29:04 17.4 C 8.74 g/m*3 17.4 C 0 km/h
1317 25-08-2010 23:41:04 17.3 C 8.99 g/m*3 17.3 C 0 km/h
1318 25-08-2010 23:53:04 17.2 C 8.93 g/m*3 17.2 C 0 km/h
1319 26-08-2010 00:05:04 17.1 C 9.03 g/m*3 17.1 C 0 km/h
1320 26-08-2010 00:17:04 17.2 C 9.08 g/m*3 17.2 C 0 km/h
1321 26-08-2010 00:29:04 17.3 C 9.13 g/m*3 17.3 C 0 km/h
1322 26-08-2010 00:41:04 17.4 C 9.04 g/m*3 17.4 C 0 km/h
1323 26-08-2010 00:53:04 17.4 C 9.04 g/m*3 17.4 C 0 km/h
1324 26-08-2010 01:05:05 17.5 C 9.24 g/m*3 17.5 C 0 km/h
1325 26-08-2010 01:17:05 17.5 C 9.09 g/m*3 17.5 C 0 km/h
Sensor: Nr:Datum:Temp:Abs-Feuchte:Windchill:Wind:
Aussen-T/F 1326 26-08-2010 01:29:05 17.5 C 9.09 g/m*3 17.5 C 0 km/h
1327 26-08-2010 01:41:05 17.5 C 9.09 g/m*3 17.5 C 0 km/h
1328 26-08-2010 01:53:05 17.4 C 9.04 g/m*3 17.4 C 0 km/h
1329 26-08-2010 02:05:05 16.9 C 9.78 g/m*3 16.9 C 0 km/h
1330 26-08-2010 02:17:05 17.1 C 10.19 g/m*3 17.1 C 0 km/h
1331 26-08-2010 02:29:05 16.7 C 10.09 g/m*3 16.7 C 0 km/h
1332 26-08-2010 02:41:05 17 C 9.84 g/m*3 17 C 0 km/h
1333 26-08-2010 02:53:05 16.7 C 9.95 g/m*3 16.7 C 0 km/h
1334 26-08-2010 03:05:05 16.8 C 10.29 g/m*3 16.8 C 0 km/h
1335 26-08-2010 03:17:05 16.8 C 10.29 g/m*3 16.8 C 0 km/h
1336 26-08-2010 03:29:05 16.9 C 9.92 g/m*3 16.9 C 0 km/h
1337 26-08-2010 03:41:05 16.9 C 9.92 g/m*3 16.9 C 0 km/h
1338 26-08-2010 03:53:05 16.9 C 9.78 g/m*3 16.9 C 0 km/h
1339 26-08-2010 04:05:06 16.9 C 9.78 g/m*3 16.9 C 0 km/h
1340 26-08-2010 04:17:06 17 C 9.69 g/m*3 17 C 0 km/h
1341 26-08-2010 04:29:06 17 C 9.84 g/m*3 17 C 0 km/h
1342 26-08-2010 04:41:06 16.9 C 9.92 g/m*3 16.9 C 0 km/h
1343 26-08-2010 04:53:06 16.9 C 10.07 g/m*3 16.9 C 0 km/h
1344 26-08-2010 05:05:06 17.3 C 10.31 g/m*3 17.3 C 0 km/h
1345 26-08-2010 05:17:06 18.1 C 10.35 g/m*3 18.1 C 0 km/h
1346 26-08-2010 05:29:06 18.5 C 10.28 g/m*3 18.5 C 0 km/h
1347 26-08-2010 05:41:06 18.8 C 10.31 g/m*3 18.8 C 0 km/h
1348 26-08-2010 05:53:06 18.7 C 10.25 g/m*3 18.7 C 0 km/h
1349 26-08-2010 06:05:03 18.2 C 10.1 g/m*3 18.2 C 0 km/h
1350 26-08-2010 06:17:03 18.1 C 10.35 g/m*3 18.1 C 0 km/h
Sensor: Nr:Datum:Temp:Abs-Feuchte:Windchill:Wind:
Aussen-T/F 1351 26-08-2010 06:29:03 17.9 C 10.54 g/m*3 17.9 C 0 km/h
1352 26-08-2010 06:41:03 18.1 C 10.82 g/m*3 18.1 C 0 km/h
1353 26-08-2010 06:53:02 18.6 C 10.82 g/m*3 18.6 C 0 km/h
1354 26-08-2010 07:05:02 18.9 C 10.69 g/m*3 18.9 C 0 km/h
1355 26-08-2010 07:17:02 19 C 10.59 g/m*3 19 C 0 km/h
1356 26-08-2010 07:29:02 19.2 C 10.55 g/m*3 19.2 C 0 km/h
1357 26-08-2010 07:41:02 19.4 C 10.68 g/m*3 19.4 C 0 km/h
1358 26-08-2010 07:53:02 19.8 C 10.93 g/m*3 19.8 C 0 km/h
1359 26-08-2010 08:05:01 20 C 10.71 g/m*3 20 C 0 km/h
1360 26-08-2010 08:17:02 20.1 C 10.95 g/m*3 20.1 C 0 km/h
1361 26-08-2010 08:29:02 20.2 C 11.02 g/m*3 20.2 C 0 km/h
1362 26-08-2010 08:41:01 20.1 C 11.3 g/m*3 20.1 C 0 km/h
1363 26-08-2010 08:53:01 20.6 C 11.63 g/m*3 20.6 C 0 km/h
1364 26-08-2010 09:05:02 20.8 C 11.41 g/m*3 20.8 C 0 km/h
1365 26-08-2010 09:17:02 21.1 C 11.42 g/m*3 21.1 C 0 km/h
1366 26-08-2010 09:29:02 21.5 C 11.31 g/m*3 21.5 C 0 km/h
1367 26-08-2010 09:41:02 22 C 11.26 g/m*3 22 C 0 km/h
1368 26-08-2010 09:53:01 22.2 C 11.19 g/m*3 22.2 C 0 km/h
1369 26-08-2010 10:05:02 22.6 C 11.25 g/m*3 22.6 C 0 km/h
1370 26-08-2010 10:17:02 22.6 C 11.25 g/m*3 22.6 C 0 km/h
1371 26-08-2010 10:29:02 22.9 C 11.24 g/m*3 22.9 C 0 km/h
1372 26-08-2010 10:41:01 22.7 C 11.11 g/m*3 22.7 C 0 km/h
1373 26-08-2010 10:53:02 23 C 11.1 g/m*3 23 C 0 km/h
1374 26-08-2010 11:05:01 23.2 C 11.23 g/m*3 23.2 C 0 km/h
1375 26-08-2010 11:17:02 23.9 C 11.25 g/m*3 23.9 C 0 km/h
Sensor: Nr:Datum:Temp:Abs-Feuchte:Windchill:Wind:
Aussen-T/F 1376 26-08-2010 11:29:03 23.5 C 11.21 g/m*3 23.5 C 0 km/h
1377 26-08-2010 11:41:01 24.1 C 11.16 g/m*3 24.1 C 0 km/h
1378 26-08-2010 11:53:02 24.1 C 10.94 g/m*3 24.1 C 0 km/h
1379 26-08-2010 12:05:02 24.4 C 11.13 g/m*3 24.4 C 0 km/h
1380 26-08-2010 12:17:02 23.8 C 10.97 g/m*3 23.8 C 0 km/h
1381 26-08-2010 12:29:02 23.4 C 11.14 g/m*3 23.4 C 0 km/h
1382 26-08-2010 12:41:03 23.2 C 11.23 g/m*3 23.2 C 0 km/h
1383 26-08-2010 12:53:02 22.9 C 11.24 g/m*3 22.9 C 0 km/h
1384 26-08-2010 13:05:02 22.7 C 11.31 g/m*3 22.7 C 0 km/h
1385 26-08-2010 13:17:01 22.7 C 11.31 g/m*3 22.7 C 0 km/h
1386 26-08-2010 13:29:01 22.9 C 11.24 g/m*3 22.9 C 0 km/h
1387 26-08-2010 13:41:02 23.3 C 11.08 g/m*3 23.3 C 0 km/h
1388 26-08-2010 13:53:02 23.2 C 11.02 g/m*3 23.2 C 0 km/h
1389 26-08-2010 14:05:02 23.5 C 11.21 g/m*3 23.5 C 0 km/h
1390 26-08-2010 14:17:02 23.9 C 11.25 g/m*3 23.9 C 0 km/h
1391 26-08-2010 14:29:02 23.9 C 11.03 g/m*3 23.9 C 0 km/h
1392 26-08-2010 14:41:02 23.8 C 11.19 g/m*3 23.8 C 0 km/h
1393 26-08-2010 14:53:02 23.9 C 11.25 g/m*3 23.9 C 0 km/h
1394 26-08-2010 15:05:02 23.9 C 11.47 g/m*3 23.9 C 0 km/h
1395 26-08-2010 15:17:02 23.8 C 11.19 g/m*3 23.8 C 0 km/h
1396 26-08-2010 15:29:02 23.7 C 11.34 g/m*3 23.7 C 0 km/h
1397 26-08-2010 15:41:02 23.5 C 11.42 g/m*3 23.5 C 0 km/h
1398 26-08-2010 15:53:02 23.5 C 11.21 g/m*3 23.5 C 0 km/h
1399 26-08-2010 16:05:02 23.9 C 11.47 g/m*3 23.9 C 0 km/h
1400 26-08-2010 16:17:02 23.8 C 11.4 g/m*3 23.8 C 0 km/h
Sensor: Nr:Datum:Temp:Abs-Feuchte:Windchill:Wind:
Aussen-T/F 1401 26-08-2010 16:29:02 23.7 C 11.34 g/m*3 23.7 C 0 km/h
1402 26-08-2010 16:41:02 24.2 C 11.22 g/m*3 24.2 C 0 km/h
1403 26-08-2010 16:53:02 24.1 C 10.94 g/m*3 24.1 C 0 km/h
1404 26-08-2010 17:05:02 23.9 C 11.25 g/m*3 23.9 C 0 km/h
1405 26-08-2010 17:17:02 23.7 C 11.34 g/m*3 23.7 C 0 km/h
1406 26-08-2010 17:29:02 23.6 C 11.27 g/m*3 23.6 C 0 km/h
1407 26-08-2010 17:41:02 23.5 C 11.21 g/m*3 23.5 C 0 km/h
1408 26-08-2010 17:53:02 23.4 C 11.35 g/m*3 23.4 C 0 km/h
1409 26-08-2010 18:05:02 23.4 C 11.35 g/m*3 23.4 C 0 km/h
1410 26-08-2010 18:17:02 23.3 C 11.5 g/m*3 23.3 C 0 km/h
1411 26-08-2010 18:29:03 23.2 C 11.85 g/m*3 23.2 C 0 km/h
1412 26-08-2010 18:41:01 23 C 11.72 g/m*3 23 C 0 km/h
1413 26-08-2010 18:53:02 23 C 11.92 g/m*3 23 C 0 km/h
1414 26-08-2010 19:05:01 22.6 C 12.25 g/m*3 22.6 C 0 km/h
1415 26-08-2010 19:17:02 22.6 C 12.25 g/m*3 22.6 C 0 km/h
1416 26-08-2010 19:29:02 21.6 C 13.28 g/m*3 21.6 C 0 km/h
1417 26-08-2010 19:41:02 20.7 C 14.04 g/m*3 20.7 C 0 km/h
1418 26-08-2010 19:53:02 20.8 C 14.67 g/m*3 20.8 C 0 km/h
1419 26-08-2010 20:05:02 21 C 14.65 g/m*3 21 C 0 km/h
1420 26-08-2010 20:17:02 20.9 C 14.57 g/m*3 20.9 C 0 km/h
1421 26-08-2010 20:29:02 21 C 14.47 g/m*3 21 C 0 km/h
1422 26-08-2010 20:41:02 20.9 C 14.39 g/m*3 20.9 C 0 km/h
1423 26-08-2010 20:53:01 20.9 C 14.39 g/m*3 20.9 C 0 km/h
1424 26-08-2010 21:05:02 20.7 C 14.04 g/m*3 20.7 C 0 km/h
1425 26-08-2010 21:17:01 20.7 C 14.04 g/m*3 20.7 C 0 km/h
Sensor: Nr:Datum:Temp:Abs-Feuchte:Windchill:Wind:
Aussen-T/F 1426 26-08-2010 21:29:01 20.4 C 13.98 g/m*3 20.4 C 0 km/h
1427 26-08-2010 21:41:02 20.2 C 13.99 g/m*3 20.2 C 0 km/h
1428 26-08-2010 21:53:02 20.1 C 14.08 g/m*3 20.1 C 0 km/h
1429 26-08-2010 22:06:04 20 C 14.34 g/m*3 20 C 0 km/h
1430 26-08-2010 22:18:04 19.8 C 14.52 g/m*3 19.8 C 0 km/h
1431 26-08-2010 22:30:04 19.7 C 14.6 g/m*3 19.7 C 0 km/h
1432 26-08-2010 22:42:04 19.7 C 14.77 g/m*3 19.7 C 0 km/h
1433 26-08-2010 22:54:04 19.6 C 14.86 g/m*3 19.6 C 0 km/h
1434 26-08-2010 23:06:04 19.5 C 14.77 g/m*3 19.5 C 0 km/h
1435 26-08-2010 23:18:04 19.5 C 14.94 g/m*3 19.5 C 0 km/h
1436 26-08-2010 23:30:04 19.5 C 14.94 g/m*3 19.5 C 0 km/h
1437 26-08-2010 23:42:05 19.4 C 15.02 g/m*3 19.4 C 0 km/h
1438 26-08-2010 23:54:05 19.3 C 15.09 g/m*3 19.3 C 0 km/h
1439 27-08-2010 00:06:05 19.2 C 15.01 g/m*3 19.2 C 0 km/h
1440 27-08-2010 00:18:05 19 C 14.83 g/m*3 19 C 0 km/h
1441 27-08-2010 00:30:05 19 C 14.83 g/m*3 19 C 0 km/h
1442 27-08-2010 00:42:05 18.9 C 14.9 g/m*3 18.9 C 0 km/h
1443 27-08-2010 00:54:05 18.8 C 14.98 g/m*3 18.8 C 0 km/h
1444 27-08-2010 01:06:05 18.7 C 14.89 g/m*3 18.7 C 0 km/h
1445 27-08-2010 01:18:05 18.7 C 14.89 g/m*3 18.7 C 0 km/h
1446 27-08-2010 01:30:05 18.8 C 14.98 g/m*3 18.8 C 0 km/h
1447 27-08-2010 01:42:05 18.8 C 14.98 g/m*3 18.8 C 0 km/h
1448 27-08-2010 01:54:05 18.8 C 15.14 g/m*3 18.8 C 0 km/h
1449 27-08-2010 02:06:05 18.8 C 15.14 g/m*3 18.8 C 0 km/h
1450 27-08-2010 02:18:05 18.7 C 15.05 g/m*3 18.7 C 0 km/h
Sensor: Nr:Datum:Temp:Abs-Feuchte:Windchill:Wind:
Aussen-T/F 1451 27-08-2010 02:30:05 18.5 C 14.87 g/m*3 18.5 C 0 km/h
1452 27-08-2010 02:42:05 18.6 C 14.96 g/m*3 18.6 C 0 km/h
1453 27-08-2010 02:54:05 18.5 C 14.87 g/m*3 18.5 C 0 km/h
1454 27-08-2010 03:06:05 18.4 C 14.78 g/m*3 18.4 C 0 km/h
1455 27-08-2010 03:18:05 18.4 C 14.78 g/m*3 18.4 C 0 km/h
1456 27-08-2010 03:30:05 18.4 C 14.78 g/m*3 18.4 C 0 km/h
1457 27-08-2010 03:42:05 18.4 C 14.78 g/m*3 18.4 C 0 km/h
1458 27-08-2010 03:54:05 18.3 C 14.7 g/m*3 18.3 C 0 km/h
1459 27-08-2010 04:06:05 18.3 C 14.7 g/m*3 18.3 C 0 km/h
1460 27-08-2010 04:18:06 18.3 C 14.7 g/m*3 18.3 C 0 km/h
1461 27-08-2010 04:30:06 18.4 C 14.78 g/m*3 18.4 C 0 km/h
1462 27-08-2010 04:42:06 18.4 C 14.78 g/m*3 18.4 C 0 km/h
1463 27-08-2010 04:54:06 18.3 C 14.7 g/m*3 18.3 C 0 km/h
1464 27-08-2010 05:06:06 18.3 C 14.85 g/m*3 18.3 C 0 km/h
1465 27-08-2010 05:18:06 18.3 C 14.7 g/m*3 18.3 C 0 km/h
1466 27-08-2010 05:30:06 18.4 C 14.78 g/m*3 18.4 C 0 km/h
1467 27-08-2010 05:42:06 18.4 C 14.94 g/m*3 18.4 C 0 km/h
1468 27-08-2010 05:54:06 18.6 C 15.12 g/m*3 18.6 C 0 km/h
1469 27-08-2010 06:06:06 18.7 C 15.21 g/m*3 18.7 C 0 km/h
1470 27-08-2010 06:18:06 18.8 C 15.3 g/m*3 18.8 C 0 km/h
1471 27-08-2010 06:30:06 18.9 C 15.39 g/m*3 18.9 C 0 km/h
1472 27-08-2010 06:42:06 18.9 C 15.39 g/m*3 18.9 C 0 km/h
1473 27-08-2010 06:54:06 18.8 C 15.3 g/m*3 18.8 C 0 km/h
1474 27-08-2010 07:06:06 18.8 C 15.14 g/m*3 18.8 C 0 km/h
1475 27-08-2010 07:18:07 18.7 C 15.05 g/m*3 18.7 C 0 km/h
Sensor: Nr:Datum:Temp:Abs-Feuchte:Windchill:Wind:
Aussen-T/F 1476 27-08-2010 07:30:07 18.7 C 15.05 g/m*3 18.7 C 0 km/h
1477 27-08-2010 07:42:07 18.6 C 14.96 g/m*3 18.6 C 0 km/h
1478 27-08-2010 07:54:01 18.6 C 14.96 g/m*3 18.6 C 0 km/h
1479 27-08-2010 08:06:02 18.6 C 14.96 g/m*3 18.6 C 0 km/h
1480 27-08-2010 08:18:01 18.6 C 14.96 g/m*3 18.6 C 0 km/h
1481 27-08-2010 08:30:01 18.6 C 14.96 g/m*3 18.6 C 0 km/h
1482 27-08-2010 08:42:01 18.5 C 14.87 g/m*3 18.5 C 0 km/h
1483 27-08-2010 08:54:02 18.6 C 14.96 g/m*3 18.6 C 0 km/h
1484 27-08-2010 09:06:01 18.6 C 14.96 g/m*3 18.6 C 0 km/h
1485 27-08-2010 09:18:02 18.8 C 15.14 g/m*3 18.8 C 0 km/h
1486 27-08-2010 09:30:02 19.5 C 15.27 g/m*3 19.5 C 0 km/h
1487 27-08-2010 09:42:01 19.7 C 15.11 g/m*3 19.7 C 0 km/h
1488 27-08-2010 09:54:02 19.7 C 14.77 g/m*3 19.7 C 0 km/h
1489 27-08-2010 10:06:02 19.7 C 14.6 g/m*3 19.7 C 0 km/h
1490 27-08-2010 10:18:02 19.8 C 14.52 g/m*3 19.8 C 0 km/h
1491 27-08-2010 10:30:02 19.4 C 14.18 g/m*3 19.4 C 0 km/h
1492 27-08-2010 10:42:03 19 C 14.18 g/m*3 19 C 0 km/h
1493 27-08-2010 10:54:02 18.7 C 14.25 g/m*3 18.7 C 0 km/h
1494 27-08-2010 11:06:02 18.5 C 14.4 g/m*3 18.5 C 0 km/h
1495 27-08-2010 11:18:01 18.3 C 13.92 g/m*3 18.3 C 0 km/h
1496 27-08-2010 11:30:01 18.1 C 13.44 g/m*3 18.1 C 0 km/h
1497 27-08-2010 11:42:02 17.9 C 13.13 g/m*3 17.9 C 0 km/h
1498 27-08-2010 11:54:02 18 C 13.06 g/m*3 18 C 0 km/h
1499 27-08-2010 12:06:02 18.7 C 13.77 g/m*3 18.7 C 0 km/h
1500 27-08-2010 12:18:02 19.5 C 13.93 g/m*3 19.5 C 0 km/h
Sensor: Nr:Datum:Temp:Abs-Feuchte:Windchill:Wind:
Aussen-T/F 1501 27-08-2010 12:30:02 20.4 C 13.62 g/m*3 20.4 C 0 km/h
1502 27-08-2010 12:42:02 20.5 C 12.99 g/m*3 20.5 C 0 km/h
1503 27-08-2010 12:54:02 21.4 C 13.12 g/m*3 21.4 C 0 km/h
1504 27-08-2010 13:06:02 21.9 C 12.93 g/m*3 21.9 C 0 km/h
1505 27-08-2010 13:18:02 22.4 C 13.11 g/m*3 22.4 C 0 km/h
1506 27-08-2010 13:30:02 22.8 C 12.6 g/m*3 22.8 C 0 km/h
1507 27-08-2010 13:42:02 23.4 C 12.41 g/m*3 23.4 C 0 km/h
1508 27-08-2010 13:54:02 24.1 C 11.82 g/m*3 24.1 C 0 km/h
1509 27-08-2010 14:06:02 24.2 C 11.88 g/m*3 24.2 C 0 km/h
1510 27-08-2010 14:18:03 23.6 C 11.7 g/m*3 23.6 C 0 km/h
1511 27-08-2010 14:30:03 22.5 C 12.78 g/m*3 22.5 C 0 km/h
1512 27-08-2010 14:42:02 17 C 11 g/m*3 17 C 0 km/h
1513 27-08-2010 14:54:03 16.5 C 11.94 g/m*3 16.5 C 0 km/h
1514 27-08-2010 15:06:02 16.7 C 12.65 g/m*3 16.7 C 0 km/h
1515 27-08-2010 15:18:02 18.3 C 13.76 g/m*3 18.3 C 0 km/h
1516 27-08-2010 15:30:02 19 C 13.85 g/m*3 19 C 0 km/h
1517 27-08-2010 15:42:02 19.8 C 13.66 g/m*3 19.8 C 0 km/h
1518 27-08-2010 15:54:02 20.8 C 13.4 g/m*3 20.8 C 0 km/h
1519 27-08-2010 16:06:01 21.8 C 12.47 g/m*3 21.8 C 0 km/h
1520 27-08-2010 16:18:02 21.7 C 12.59 g/m*3 21.7 C 0 km/h
1521 27-08-2010 16:30:02 21.3 C 12.68 g/m*3 21.3 C 0 km/h
1522 27-08-2010 16:42:02 21.7 C 13.35 g/m*3 21.7 C 0 km/h
1523 27-08-2010 16:54:02 23 C 13.36 g/m*3 23 C 0 km/h
1524 27-08-2010 17:06:01 22.8 C 11.99 g/m*3 22.8 C 0 km/h
1525 27-08-2010 17:18:01 22.9 C 12.47 g/m*3 22.9 C 0 km/h
Sensor: Nr:Datum:Temp:Abs-Feuchte:Windchill:Wind:
Aussen-T/F 1526 27-08-2010 17:30:01 21.5 C 11.5 g/m*3 21.5 C 0 km/h
1527 27-08-2010 17:42:02 20.2 C 11.37 g/m*3 20.2 C 0 km/h
1528 27-08-2010 17:54:02 19.1 C 11.15 g/m*3 19.1 C 0 km/h
1529 27-08-2010 18:06:02 17.3 C 12.08 g/m*3 17.3 C 0 km/h
1530 27-08-2010 18:18:02 16.6 C 12.15 g/m*3 16.6 C 0 km/h
1531 27-08-2010 18:30:02 16.4 C 12.14 g/m*3 16.4 C 0 km/h
1532 27-08-2010 18:42:02 17 C 12.3 g/m*3 17 C 0 km/h
1533 27-08-2010 18:54:02 16.7 C 11.37 g/m*3 16.7 C 0 km/h
1534 27-08-2010 19:06:02 16.3 C 11.38 g/m*3 16.3 C 0 km/h
1535 27-08-2010 19:18:02 16 C 11.31 g/m*3 16 C 0 km/h
1536 27-08-2010 19:30:02 15.5 C 10.84 g/m*3 15.5 C 0 km/h
1537 27-08-2010 19:42:02 15.3 C 10.71 g/m*3 15.3 C 0 km/h
1538 27-08-2010 19:54:02 15.1 C 10.45 g/m*3 15.1 C 0 km/h
1539 27-08-2010 20:06:02 15.1 C 10.58 g/m*3 15.1 C 0 km/h
1540 27-08-2010 20:18:02 15.3 C 10.71 g/m*3 15.3 C 0 km/h
1541 27-08-2010 20:30:02 15.3 C 10.45 g/m*3 15.3 C 0 km/h
1542 27-08-2010 20:42:02 15.2 C 10.25 g/m*3 15.2 C 0 km/h
1543 27-08-2010 20:54:02 14.7 C 10.2 g/m*3 14.7 C 0 km/h
1544 27-08-2010 21:06:02 14.5 C 10.32 g/m*3 14.5 C 0 km/h
1545 27-08-2010 21:18:03 14.5 C 10.2 g/m*3 14.5 C 0 km/h
1546 27-08-2010 21:30:03 14.6 C 10.14 g/m*3 14.6 C 0 km/h
1547 27-08-2010 21:42:02 14.6 C 10.14 g/m*3 14.6 C 0 km/h
1548 27-08-2010 21:54:03 14.7 C 10.07 g/m*3 14.7 C 0 km/h
1549 27-08-2010 22:06:02 14.8 C 10.01 g/m*3 14.8 C 0 km/h
1550 27-08-2010 22:18:02 14.8 C 10.01 g/m*3 14.8 C 0 km/h
Sensor: Nr:Datum:Temp:Abs-Feuchte:Windchill:Wind:
Aussen-T/F 1551 27-08-2010 22:30:02 14.8 C 10.01 g/m*3 14.8 C 0 km/h
1552 27-08-2010 22:43:28 14.8 C 10.01 g/m*3 14.8 C 0 km/h
1553 27-08-2010 22:55:28 14.5 C 10.07 g/m*3 14.5 C 0 km/h
1554 27-08-2010 23:07:28 13.8 C 9.65 g/m*3 13.8 C 0 km/h
1555 27-08-2010 23:19:28 13.9 C 9.59 g/m*3 13.9 C 0 km/h
1556 27-08-2010 23:31:28 13.8 C 9.29 g/m*3 13.8 C 0 km/h
1557 27-08-2010 23:43:28 14.1 C 9.1 g/m*3 14.1 C 0 km/h
1558 27-08-2010 23:55:28 14.2 C 9.04 g/m*3 14.2 C 0 km/h
1559 28-08-2010 00:07:28 14.1 C 9.1 g/m*3 14.1 C 0 km/h
1560 28-08-2010 00:19:28 13.9 C 9.11 g/m*3 13.9 C 0 km/h
1561 28-08-2010 00:31:28 14 C 9.05 g/m*3 14 C 0 km/h
1562 28-08-2010 00:43:28 13.7 C 9.35 g/m*3 13.7 C 0 km/h
1563 28-08-2010 00:55:29 13.2 C 9.42 g/m*3 13.2 C 0 km/h
1564 28-08-2010 01:07:29 13.2 C 9.64 g/m*3 13.2 C 0 km/h
1565 28-08-2010 01:19:29 13.1 C 9.81 g/m*3 13.1 C 0 km/h
1566 28-08-2010 01:31:29 13 C 9.87 g/m*3 13 C 0 km/h
1567 28-08-2010 01:43:29 13.1 C 10.04 g/m*3 13.1 C 0 km/h
1568 28-08-2010 01:55:29 13.1 C 10.04 g/m*3 13.1 C 0 km/h
1569 28-08-2010 02:07:29 13.2 C 9.99 g/m*3 13.2 C 0 km/h
1570 28-08-2010 02:19:29 13.2 C 9.99 g/m*3 13.2 C 0 km/h
1571 28-08-2010 02:31:29 13.1 C 9.81 g/m*3 13.1 C 0 km/h
1572 28-08-2010 02:43:29 13.1 C 9.7 g/m*3 13.1 C 0 km/h
1573 28-08-2010 02:55:29 13.1 C 9.59 g/m*3 13.1 C 0 km/h
1574 28-08-2010 03:07:29 13.1 C 9.59 g/m*3 13.1 C 0 km/h
1575 28-08-2010 03:19:29 13.1 C 9.59 g/m*3 13.1 C 0 km/h
Sensor: Nr:Datum:Temp:Abs-Feuchte:Windchill:Wind:
Aussen-T/F 1576 28-08-2010 03:31:29 13.1 C 9.47 g/m*3 13.1 C 0 km/h
1577 28-08-2010 03:43:29 13.1 C 9.59 g/m*3 13.1 C 0 km/h
1578 28-08-2010 03:55:29 13.1 C 9.59 g/m*3 13.1 C 0 km/h
1579 28-08-2010 04:07:29 12.9 C 9.47 g/m*3 12.9 C 0 km/h
1580 28-08-2010 04:19:30 12.9 C 9.47 g/m*3 12.9 C 0 km/h
1581 28-08-2010 04:31:30 12.5 C 9.24 g/m*3 12.5 C 0 km/h
1582 28-08-2010 04:43:30 12.3 C 9.23 g/m*3 12.3 C 0 km/h
1583 28-08-2010 04:55:30 12.1 C 9.12 g/m*3 12.1 C 0 km/h
1584 28-08-2010 05:07:30 12.2 C 9.28 g/m*3 12.2 C 0 km/h
1585 28-08-2010 05:19:30 12.3 C 9.34 g/m*3 12.3 C 0 km/h
1586 28-08-2010 05:31:30 12.1 C 9.01 g/m*3 12.1 C 0 km/h
1587 28-08-2010 05:43:30 11.9 C 9 g/m*3 11.9 C 0 km/h
1588 28-08-2010 05:55:30 12.1 C 9.12 g/m*3 12.1 C 0 km/h
1589 28-08-2010 06:07:30 11.7 C 8.89 g/m*3 11.7 C 0 km/h
1590 28-08-2010 06:19:30 11.6 C 8.83 g/m*3 11.6 C 0 km/h
1591 28-08-2010 06:31:30 11.7 C 8.79 g/m*3 11.7 C 0 km/h
1592 28-08-2010 06:43:30 11.5 C 8.68 g/m*3 11.5 C 0 km/h
1593 28-08-2010 06:55:02 11.4 C 8.62 g/m*3 11.4 C 0 km/h
1594 28-08-2010 07:07:02 11.3 C 8.67 g/m*3 11.3 C 0 km/h
1595 28-08-2010 07:19:02 11.3 C 8.77 g/m*3 11.3 C 0 km/h
1596 28-08-2010 07:31:01 11.6 C 8.94 g/m*3 11.6 C 0 km/h
1597 28-08-2010 07:43:01 12 C 8.95 g/m*3 12 C 0 km/h
1598 28-08-2010 07:55:02 12.4 C 9.07 g/m*3 12.4 C 0 km/h
1599 28-08-2010 08:07:01 12.6 C 9.07 g/m*3 12.6 C 0 km/h
1600 28-08-2010 08:19:02 12.8 C 8.96 g/m*3 12.8 C 0 km/h
Sensor: Nr:Datum:Temp:Abs-Feuchte:Windchill:Wind:
Aussen-T/F 1601 28-08-2010 08:31:01 13 C 8.85 g/m*3 13 C 0 km/h
1602 28-08-2010 08:43:01 13.4 C 8.95 g/m*3 13.4 C 0 km/h
1603 28-08-2010 08:55:02 13.6 C 8.83 g/m*3 13.6 C 0 km/h
1604 28-08-2010 09:07:02 14.3 C 8.97 g/m*3 14.3 C 0 km/h
1605 28-08-2010 09:19:01 14.2 C 8.55 g/m*3 14.2 C 0 km/h
1606 28-08-2010 09:31:02 14.1 C 8.62 g/m*3 14.1 C 0 km/h
1607 28-08-2010 09:43:02 14.1 C 8.37 g/m*3 14.1 C 0 km/h
1608 28-08-2010 09:55:02 14.4 C 8.41 g/m*3 14.4 C 0 km/h
1609 28-08-2010 10:07:02 14.6 C 8.38 g/m*3 14.6 C 0 km/h
1610 28-08-2010 10:19:02 14.6 C 8.38 g/m*3 14.6 C 0 km/h
1611 28-08-2010 10:31:02 15.1 C 8.39 g/m*3 15.1 C 0 km/h
1612 28-08-2010 10:43:02 15.6 C 8.51 g/m*3 15.6 C 0 km/h
1613 28-08-2010 10:55:02 15.8 C 8.08 g/m*3 15.8 C 0 km/h
1614 28-08-2010 11:07:03 15.8 C 8.21 g/m*3 15.8 C 0 km/h
1615 28-08-2010 11:19:02 16.4 C 7.96 g/m*3 16.4 C 0 km/h
1616 28-08-2010 11:31:03 16.9 C 7.77 g/m*3 16.9 C 0 km/h
1617 28-08-2010 11:43:03 16.7 C 7.25 g/m*3 16.7 C 0 km/h
1618 28-08-2010 11:55:02 16.4 C 7.82 g/m*3 16.4 C 0 km/h
1619 28-08-2010 12:07:02 17 C 7.67 g/m*3 17 C 0 km/h
1620 28-08-2010 12:19:02 18 C 7.22 g/m*3 18 C 0 km/h
1621 28-08-2010 12:31:02 13.7 C 8.05 g/m*3 13.7 C 0 km/h
1622 28-08-2010 12:43:02 13.7 C 9.35 g/m*3 13.7 C 0 km/h
1623 28-08-2010 12:55:02 14.7 C 10.58 g/m*3 14.7 C 0 km/h
1624 28-08-2010 13:07:02 15.7 C 10.84 g/m*3 15.7 C 0 km/h
1625 28-08-2010 13:19:03 15.8 C 10.23 g/m*3 15.8 C 0 km/h
Sensor: Nr:Datum:Temp:Abs-Feuchte:Windchill:Wind:
Aussen-T/F 1626 28-08-2010 13:31:02 15.5 C 10.31 g/m*3 15.5 C 0 km/h
1627 28-08-2010 13:43:02 17.2 C 11.57 g/m*3 17.2 C 0 km/h
1628 28-08-2010 13:55:03 17 C 10.13 g/m*3 17 C 0 km/h
1629 28-08-2010 14:07:02 15.8 C 8.88 g/m*3 15.8 C 0 km/h
1630 28-08-2010 14:19:03 16.8 C 8.01 g/m*3 16.8 C 0 km/h
1631 28-08-2010 14:31:02 15.9 C 6.91 g/m*3 15.9 C 0 km/h
1632 28-08-2010 14:43:02 14.9 C 7.01 g/m*3 14.9 C 0 km/h
1633 28-08-2010 14:55:02 14.6 C 7.63 g/m*3 14.6 C 0 km/h
1634 28-08-2010 15:07:02 14.7 C 7.68 g/m*3 14.7 C 0 km/h
1635 28-08-2010 15:19:02 15.8 C 7.94 g/m*3 15.8 C 0 km/h
1636 28-08-2010 15:31:03 17.6 C 7.65 g/m*3 17.6 C 0 km/h
1637 28-08-2010 15:43:03 17.9 C 6.72 g/m*3 17.9 C 0 km/h
1638 28-08-2010 15:55:02 17.6 C 7.05 g/m*3 17.6 C 0 km/h
1639 28-08-2010 16:07:01 17 C 6.8 g/m*3 17 C 0 km/h
1640 28-08-2010 16:19:02 14.9 C 7.65 g/m*3 14.9 C 0 km/h
1641 28-08-2010 16:31:02 13.9 C 8.27 g/m*3 13.9 C 0 km/h
1642 28-08-2010 16:43:02 14.5 C 8.95 g/m*3 14.5 C 0 km/h
1643 28-08-2010 16:55:01 15.2 C 8.44 g/m*3 15.2 C 0 km/h
1644 28-08-2010 17:07:02 15.9 C 9.21 g/m*3 15.9 C 0 km/h
1645 28-08-2010 17:19:01 16 C 8.72 g/m*3 16 C 0 km/h
1646 28-08-2010 17:31:02 15.7 C 8.3 g/m*3 15.7 C 0 km/h
1647 28-08-2010 17:43:02 15.2 C 8.05 g/m*3 15.2 C 0 km/h
1648 28-08-2010 17:55:01 15.2 C 9.09 g/m*3 15.2 C 0 km/h
1649 28-08-2010 18:07:02 16.2 C 8.27 g/m*3 16.2 C 0 km/h
1650 28-08-2010 18:19:01 17 C 6.95 g/m*3 17 C 0 km/h
Sensor: Nr:Datum:Temp:Abs-Feuchte:Windchill:Wind:
Aussen-T/F 1651 28-08-2010 18:31:02 18.1 C 7.26 g/m*3 18.1 C 0 km/h
1652 28-08-2010 18:43:02 18.3 C 7.04 g/m*3 18.3 C 0 km/h
1653 28-08-2010 18:55:01 18.2 C 7.46 g/m*3 18.2 C 0 km/h
1654 28-08-2010 19:07:02 16.8 C 7.86 g/m*3 16.8 C 0 km/h
1655 28-08-2010 19:19:02 16.1 C 7.95 g/m*3 16.1 C 0 km/h
1656 28-08-2010 19:31:02 15 C 8.59 g/m*3 15 C 0 km/h
1657 28-08-2010 19:43:02 14.2 C 8.79 g/m*3 14.2 C 0 km/h
1658 28-08-2010 19:55:01 14.2 C 8.3 g/m*3 14.2 C 0 km/h
1659 28-08-2010 20:07:02 13.4 C 8.6 g/m*3 13.4 C 0 km/h
1660 28-08-2010 20:19:02 13 C 8.85 g/m*3 13 C 0 km/h
1661 28-08-2010 20:31:01 13.1 C 9.13 g/m*3 13.1 C 0 km/h
1662 28-08-2010 20:43:01 13.1 C 9.24 g/m*3 13.1 C 0 km/h
1663 28-08-2010 20:55:02 12.9 C 9.35 g/m*3 12.9 C 0 km/h
1664 28-08-2010 21:07:01 12.8 C 9.3 g/m*3 12.8 C 0 km/h
1665 28-08-2010 21:19:02 12.7 C 9.24 g/m*3 12.7 C 0 km/h
1666 28-08-2010 21:31:01 12.4 C 9.07 g/m*3 12.4 C 0 km/h
1667 28-08-2010 21:43:01 12.2 C 8.96 g/m*3 12.2 C 0 km/h
1668 28-08-2010 21:55:02 12.2 C 9.06 g/m*3 12.2 C 0 km/h
1669 28-08-2010 22:08:02 12.3 C 9.12 g/m*3 12.3 C 0 km/h
1670 28-08-2010 22:20:02 12.3 C 9.01 g/m*3 12.3 C 0 km/h
1671 28-08-2010 22:32:03 12.2 C 8.85 g/m*3 12.2 C 0 km/h
1672 28-08-2010 22:44:03 12.1 C 8.79 g/m*3 12.1 C 0 km/h
1673 28-08-2010 22:56:03 12.3 C 9.01 g/m*3 12.3 C 0 km/h
1674 28-08-2010 23:08:03 12.6 C 8.96 g/m*3 12.6 C 0 km/h
1675 28-08-2010 23:20:03 12.7 C 8.79 g/m*3 12.7 C 0 km/h
Sensor: Nr:Datum:Temp:Abs-Feuchte:Windchill:Wind:
Aussen-T/F 1676 28-08-2010 23:32:03 12.4 C 8.74 g/m*3 12.4 C 0 km/h
1677 28-08-2010 23:44:03 12.1 C 8.58 g/m*3 12.1 C 0 km/h
1678 28-08-2010 23:56:03 12 C 8.53 g/m*3 12 C 0 km/h
1679 29-08-2010 00:08:03 11.8 C 8.42 g/m*3 11.8 C 0 km/h
1680 29-08-2010 00:20:03 11.8 C 8.42 g/m*3 11.8 C 0 km/h
1681 29-08-2010 00:32:03 11.9 C 8.58 g/m*3 11.9 C 0 km/h
1682 29-08-2010 00:44:03 12 C 8.53 g/m*3 12 C 0 km/h
1683 29-08-2010 00:56:03 12 C 8.42 g/m*3 12 C 0 km/h
1684 29-08-2010 01:08:03 11.7 C 8.47 g/m*3 11.7 C 0 km/h
1685 29-08-2010 01:20:03 11.5 C 8.37 g/m*3 11.5 C 0 km/h
1686 29-08-2010 01:32:03 11.5 C 8.47 g/m*3 11.5 C 0 km/h
1687 29-08-2010 01:44:03 11.4 C 8.42 g/m*3 11.4 C 0 km/h
1688 29-08-2010 01:56:03 11.4 C 8.52 g/m*3 11.4 C 0 km/h
1689 29-08-2010 02:08:03 11.7 C 8.58 g/m*3 11.7 C 0 km/h
1690 29-08-2010 02:20:03 11.7 C 8.47 g/m*3 11.7 C 0 km/h
1691 29-08-2010 02:32:03 11.7 C 8.58 g/m*3 11.7 C 0 km/h
1692 29-08-2010 02:44:04 11.8 C 8.53 g/m*3 11.8 C 0 km/h
1693 29-08-2010 02:56:04 11.8 C 8.53 g/m*3 11.8 C 0 km/h
1694 29-08-2010 03:08:04 11.8 C 8.42 g/m*3 11.8 C 0 km/h
1695 29-08-2010 03:20:04 11.8 C 8.53 g/m*3 11.8 C 0 km/h
1696 29-08-2010 03:32:04 11.8 C 8.53 g/m*3 11.8 C 0 km/h
1697 29-08-2010 03:44:04 11.7 C 8.47 g/m*3 11.7 C 0 km/h
1698 29-08-2010 03:56:04 11.7 C 8.47 g/m*3 11.7 C 0 km/h
1699 29-08-2010 04:08:04 11.6 C 8.42 g/m*3 11.6 C 0 km/h
1700 29-08-2010 04:20:04 11.4 C 8.31 g/m*3 11.4 C 0 km/h
Sensor: Nr:Datum:Temp:Abs-Feuchte:Windchill:Wind:
Aussen-T/F 1701 29-08-2010 04:32:04 11.4 C 8.42 g/m*3 11.4 C 0 km/h
1702 29-08-2010 04:44:04 11.4 C 8.42 g/m*3 11.4 C 0 km/h
1703 29-08-2010 04:56:04 11.7 C 8.37 g/m*3 11.7 C 0 km/h
1704 29-08-2010 05:08:04 11.8 C 8.31 g/m*3 11.8 C 0 km/h
1705 29-08-2010 05:20:04 11.7 C 8.26 g/m*3 11.7 C 0 km/h
1706 29-08-2010 05:32:04 11.7 C 8.26 g/m*3 11.7 C 0 km/h
1707 29-08-2010 05:44:04 11.7 C 8.37 g/m*3 11.7 C 0 km/h
1708 29-08-2010 05:56:04 11.8 C 8.42 g/m*3 11.8 C 0 km/h
1709 29-08-2010 06:08:04 12.2 C 8.31 g/m*3 12.2 C 0 km/h
1710 29-08-2010 06:20:04 12.1 C 8.26 g/m*3 12.1 C 0 km/h
1711 29-08-2010 06:32:04 12.2 C 8.2 g/m*3 12.2 C 0 km/h
1712 29-08-2010 06:44:04 12 C 8.31 g/m*3 12 C 0 km/h
1713 29-08-2010 06:56:04 12 C 8.42 g/m*3 12 C 0 km/h
1714 29-08-2010 07:08:02 12.1 C 8.36 g/m*3 12.1 C 0 km/h
1715 29-08-2010 07:20:02 12.2 C 8.31 g/m*3 12.2 C 0 km/h
1716 29-08-2010 07:32:02 12.2 C 8.31 g/m*3 12.2 C 0 km/h
1717 29-08-2010 07:44:02 12.2 C 8.31 g/m*3 12.2 C 0 km/h
1718 29-08-2010 07:56:02 12.3 C 8.36 g/m*3 12.3 C 0 km/h
1719 29-08-2010 08:08:02 12.1 C 8.36 g/m*3 12.1 C 0 km/h
1720 29-08-2010 08:20:01 12.2 C 8.42 g/m*3 12.2 C 0 km/h
1721 29-08-2010 08:32:02 12.5 C 8.36 g/m*3 12.5 C 0 km/h
1722 29-08-2010 08:44:02 12.6 C 8.3 g/m*3 12.6 C 0 km/h
1723 29-08-2010 08:56:01 12.8 C 8.29 g/m*3 12.8 C 0 km/h
1724 29-08-2010 09:08:02 13.5 C 8.3 g/m*3 13.5 C 0 km/h
1725 29-08-2010 09:20:02 13.8 C 8.1 g/m*3 13.8 C 0 km/h
Sensor: Nr:Datum:Temp:Abs-Feuchte:Windchill:Wind:
Aussen-T/F 1726 29-08-2010 09:32:01 14 C 8.08 g/m*3 14 C 0 km/h
1727 29-08-2010 09:44:01 14.3 C 8.23 g/m*3 14.3 C 0 km/h
1728 29-08-2010 09:56:03 14.4 C 8.16 g/m*3 14.4 C 0 km/h
1729 29-08-2010 10:08:03 14.9 C 8.28 g/m*3 14.9 C 0 km/h
1730 29-08-2010 10:20:03 15.3 C 7.97 g/m*3 15.3 C 0 km/h
1731 29-08-2010 10:32:02 15.3 C 7.97 g/m*3 15.3 C 0 km/h
1732 29-08-2010 10:44:02 15.7 C 8.03 g/m*3 15.7 C 0 km/h
1733 29-08-2010 10:56:01 15.8 C 7.94 g/m*3 15.8 C 0 km/h
1734 29-08-2010 11:08:02 16.3 C 8.05 g/m*3 16.3 C 0 km/h
1735 29-08-2010 11:20:01 16.4 C 7.96 g/m*3 16.4 C 0 km/h
1736 29-08-2010 11:32:01 16.6 C 7.91 g/m*3 16.6 C 0 km/h
1737 29-08-2010 11:44:01 16 C 7.77 g/m*3 16 C 0 km/h
1738 29-08-2010 11:56:01 16 C 7.9 g/m*3 16 C 0 km/h
1739 29-08-2010 12:08:01 15.9 C 7.85 g/m*3 15.9 C 0 km/h
1740 29-08-2010 12:20:02 14 C 9.17 g/m*3 14 C 0 km/h
1741 29-08-2010 12:32:01 14.6 C 9.76 g/m*3 14.6 C 0 km/h
1742 29-08-2010 12:44:01 15.1 C 9.16 g/m*3 15.1 C 0 km/h
1743 29-08-2010 12:56:03 16 C 9.13 g/m*3 16 C 0 km/h
1744 29-08-2010 13:08:02 16.9 C 8.92 g/m*3 16.9 C 0 km/h
1745 29-08-2010 13:20:02 16.9 C 8.63 g/m*3 16.9 C 0 km/h
1746 29-08-2010 13:32:02 16.4 C 8.37 g/m*3 16.4 C 0 km/h
1747 29-08-2010 13:44:02 15.3 C 8.62 g/m*3 15.3 C 0 km/h
1748 29-08-2010 13:56:02 14.7 C 8.94 g/m*3 14.7 C 0 km/h
1749 29-08-2010 14:08:01 15.2 C 8.83 g/m*3 15.2 C 0 km/h
1750 29-08-2010 14:20:02 16.4 C 8.51 g/m*3 16.4 C 0 km/h
Sensor: Nr:Datum:Temp:Abs-Feuchte:Windchill:Wind:
Aussen-T/F 1751 29-08-2010 14:32:02 17 C 7.96 g/m*3 17 C 0 km/h
1752 29-08-2010 14:44:02 17.1 C 8.3 g/m*3 17.1 C 0 km/h
1753 29-08-2010 14:56:01 16.6 C 8.33 g/m*3 16.6 C 0 km/h
1754 29-08-2010 15:08:01 15.7 C 8.3 g/m*3 15.7 C 0 km/h
1755 29-08-2010 15:20:01 15.5 C 8.2 g/m*3 15.5 C 0 km/h
1756 29-08-2010 15:32:02 14.2 C 8.91 g/m*3 14.2 C 0 km/h
1757 29-08-2010 15:44:02 14.7 C 9.69 g/m*3 14.7 C 0 km/h
1758 29-08-2010 15:56:02 15.3 C 9.4 g/m*3 15.3 C 0 km/h
1759 29-08-2010 16:08:02 15.1 C 9.03 g/m*3 15.1 C 0 km/h
1760 29-08-2010 16:20:02 15.5 C 8.99 g/m*3 15.5 C 0 km/h
1761 29-08-2010 16:32:02 15.9 C 8.53 g/m*3 15.9 C 0 km/h
1762 29-08-2010 16:44:03 16.2 C 8.14 g/m*3 16.2 C 0 km/h
1763 29-08-2010 16:56:02 16.1 C 7.81 g/m*3 16.1 C 0 km/h
1764 29-08-2010 17:08:02 15.9 C 7.85 g/m*3 15.9 C 0 km/h
1765 29-08-2010 17:20:02 15.6 C 7.98 g/m*3 15.6 C 0 km/h
1766 29-08-2010 17:32:02 15.2 C 8.18 g/m*3 15.2 C 0 km/h
1767 29-08-2010 17:44:02 14.1 C 8.74 g/m*3 14.1 C 0 km/h
1768 29-08-2010 17:56:02 14 C 8.68 g/m*3 14 C 0 km/h
1769 29-08-2010 18:08:02 13.8 C 8.94 g/m*3 13.8 C 0 km/h
1770 29-08-2010 18:20:01 13.4 C 9.3 g/m*3 13.4 C 0 km/h
1771 29-08-2010 18:32:01 13.1 C 9.59 g/m*3 13.1 C 0 km/h
1772 29-08-2010 18:44:01 12.7 C 9.46 g/m*3 12.7 C 0 km/h
1773 29-08-2010 18:56:02 12.3 C 9.23 g/m*3 12.3 C 0 km/h
1774 29-08-2010 19:08:02 12.2 C 9.28 g/m*3 12.2 C 0 km/h
1775 29-08-2010 19:20:01 12.2 C 9.39 g/m*3 12.2 C 0 km/h
Sensor: Nr:Datum:Temp:Abs-Feuchte:Windchill:Wind:
Aussen-T/F 1776 29-08-2010 19:32:02 12 C 9.38 g/m*3 12 C 0 km/h
1777 29-08-2010 19:44:02 11.8 C 9.26 g/m*3 11.8 C 0 km/h
1778 29-08-2010 19:56:02 11.8 C 9.16 g/m*3 11.8 C 0 km/h
1779 29-08-2010 20:08:02 11.8 C 8.95 g/m*3 11.8 C 0 km/h
1780 29-08-2010 20:20:03 11.8 C 8.95 g/m*3 11.8 C 0 km/h
1781 29-08-2010 20:32:02 11.7 C 8.89 g/m*3 11.7 C 0 km/h
1782 29-08-2010 20:44:02 11.7 C 8.99 g/m*3 11.7 C 0 km/h
1783 29-08-2010 20:56:01 11.9 C 9 g/m*3 11.9 C 0 km/h
1784 29-08-2010 21:08:01 12 C 8.95 g/m*3 12 C 0 km/h
1785 29-08-2010 21:20:02 12.2 C 8.96 g/m*3 12.2 C 0 km/h
1786 29-08-2010 21:32:01 12.3 C 9.01 g/m*3 12.3 C 0 km/h
1787 29-08-2010 21:44:01 12 C 8.95 g/m*3 12 C 0 km/h
1788 29-08-2010 21:56:02 9.7 C 7.74 g/m*3 9.7 C 0 km/h
1789 29-08-2010 22:09:03 9.3 C 7.82 g/m*3 9.3 C 0 km/h
1790 29-08-2010 22:21:03 9.2 C 7.95 g/m*3 9.2 C 0 km/h
1791 29-08-2010 22:33:03 9.2 C 8.04 g/m*3 9.2 C 0 km/h
1792 29-08-2010 22:45:03 9.2 C 8.13 g/m*3 9.2 C 0 km/h
1793 29-08-2010 22:57:03 9.1 C 8.16 g/m*3 9.1 C 0 km/h
1794 29-08-2010 23:09:03 9 C 8.11 g/m*3 9 C 0 km/h
1795 29-08-2010 23:21:03 9 C 8.11 g/m*3 9 C 0 km/h
1796 29-08-2010 23:33:03 9 C 8.11 g/m*3 9 C 0 km/h
1797 29-08-2010 23:45:03 9.3 C 8.27 g/m*3 9.3 C 0 km/h
1798 29-08-2010 23:57:03 9.3 C 8.18 g/m*3 9.3 C 0 km/h
1799 30-08-2010 00:09:03 9.1 C 7.99 g/m*3 9.1 C 0 km/h
1800 30-08-2010 00:21:03 9.1 C 7.99 g/m*3 9.1 C 0 km/h
Sensor: Nr:Datum:Temp:Abs-Feuchte:Windchill:Wind:
Aussen-T/F 1801 30-08-2010 00:33:03 9.1 C 7.99 g/m*3 9.1 C 0 km/h
1802 30-08-2010 00:45:03 9.2 C 7.95 g/m*3 9.2 C 0 km/h
1803 30-08-2010 00:57:03 9.5 C 8.01 g/m*3 9.5 C 0 km/h
1804 30-08-2010 01:09:03 9.7 C 7.93 g/m*3 9.7 C 0 km/h
1805 30-08-2010 01:21:03 9.8 C 7.89 g/m*3 9.8 C 0 km/h
1806 30-08-2010 01:33:03 10 C 7.8 g/m*3 10 C 0 km/h
1807 30-08-2010 01:45:04 10 C 7.8 g/m*3 10 C 0 km/h
1808 30-08-2010 01:57:04 10.2 C 7.8 g/m*3 10.2 C 0 km/h
1809 30-08-2010 02:09:04 10.1 C 7.75 g/m*3 10.1 C 0 km/h
1810 30-08-2010 02:21:04 10.2 C 7.8 g/m*3 10.2 C 0 km/h
1811 30-08-2010 02:33:04 10.5 C 7.86 g/m*3 10.5 C 0 km/h
1812 30-08-2010 02:45:04 10.8 C 7.81 g/m*3 10.8 C 0 km/h
1813 30-08-2010 02:57:04 11 C 7.61 g/m*3 11 C 0 km/h
1814 30-08-2010 03:09:04 11.1 C 7.45 g/m*3 11.1 C 0 km/h
1815 30-08-2010 03:21:04 11.2 C 7.5 g/m*3 11.2 C 0 km/h
1816 30-08-2010 03:33:04 11 C 7.61 g/m*3 11 C 0 km/h
1817 30-08-2010 03:45:04 10.5 C 7.76 g/m*3 10.5 C 0 km/h
1818 30-08-2010 03:57:04 10.3 C 7.95 g/m*3 10.3 C 0 km/h
1819 30-08-2010 04:09:04 10.3 C 8.04 g/m*3 10.3 C 0 km/h
1820 30-08-2010 04:21:04 10.3 C 8.04 g/m*3 10.3 C 0 km/h
1821 30-08-2010 04:33:04 10.3 C 8.04 g/m*3 10.3 C 0 km/h
1822 30-08-2010 04:45:04 10.2 C 7.99 g/m*3 10.2 C 0 km/h
1823 30-08-2010 04:57:04 10.2 C 7.8 g/m*3 10.2 C 0 km/h
1824 30-08-2010 05:09:04 9.8 C 7.7 g/m*3 9.8 C 0 km/h
1825 30-08-2010 05:21:04 9.6 C 7.79 g/m*3 9.6 C 0 km/h
Sensor: Nr:Datum:Temp:Abs-Feuchte:Windchill:Wind:
Aussen-T/F 1826 30-08-2010 05:33:04 9.3 C 7.91 g/m*3 9.3 C 0 km/h
1827 30-08-2010 05:45:05 9.6 C 8.24 g/m*3 9.6 C 0 km/h
1828 30-08-2010 05:57:05 9.8 C 8.44 g/m*3 9.8 C 0 km/h
1829 30-08-2010 06:09:05 9.9 C 8.5 g/m*3 9.9 C 0 km/h
1830 30-08-2010 06:21:05 10 C 8.46 g/m*3 10 C 0 km/h
1831 30-08-2010 06:33:05 10.1 C 8.51 g/m*3 10.1 C 0 km/h
1832 30-08-2010 06:45:05 10.1 C 8.42 g/m*3 10.1 C 0 km/h
1833 30-08-2010 06:57:05 10.2 C 8.47 g/m*3 10.2 C 0 km/h
1834 30-08-2010 07:09:05 10.1 C 8.42 g/m*3 10.1 C 0 km/h
1835 30-08-2010 07:21:05 9.9 C 8.4 g/m*3 9.9 C 0 km/h
1836 30-08-2010 07:33:05 9.8 C 8.35 g/m*3 9.8 C 0 km/h
1837 30-08-2010 07:45:05 9.9 C 8.4 g/m*3 9.9 C 0 km/h
1838 30-08-2010 07:57:05 10.1 C 8.42 g/m*3 10.1 C 0 km/h
1839 30-08-2010 08:09:05 10.1 C 8.42 g/m*3 10.1 C 0 km/h
1840 30-08-2010 08:21:02 10.7 C 8.74 g/m*3 10.7 C 0 km/h
1841 30-08-2010 08:33:02 11 C 8.71 g/m*3 11 C 0 km/h
1842 30-08-2010 08:45:01 11.2 C 8.72 g/m*3 11.2 C 0 km/h
1843 30-08-2010 08:57:01 11.1 C 8.56 g/m*3 11.1 C 0 km/h
1844 30-08-2010 09:09:01 11.2 C 8.62 g/m*3 11.2 C 0 km/h
1845 30-08-2010 09:21:01 10.8 C 8.4 g/m*3 10.8 C 0 km/h
1846 30-08-2010 09:33:01 10.8 C 8.6 g/m*3 10.8 C 0 km/h
1847 30-08-2010 09:45:01 11 C 8.71 g/m*3 11 C 0 km/h
1848 30-08-2010 09:57:01 11.1 C 8.86 g/m*3 11.1 C 0 km/h
1849 30-08-2010 10:09:01 11 C 8.61 g/m*3 11 C 0 km/h
1850 30-08-2010 10:21:02 11.5 C 8.88 g/m*3 11.5 C 0 km/h
Sensor: Nr:Datum:Temp:Abs-Feuchte:Windchill:Wind:
Aussen-T/F 1851 30-08-2010 10:33:01 11.9 C 8.9 g/m*3 11.9 C 0 km/h
1852 30-08-2010 10:45:02 12.4 C 8.96 g/m*3 12.4 C 0 km/h
1853 30-08-2010 10:57:02 12.5 C 8.8 g/m*3 12.5 C 0 km/h
1854 30-08-2010 11:09:03 12.6 C 8.96 g/m*3 12.6 C 0 km/h
1855 30-08-2010 11:21:02 12.7 C 8.13 g/m*3 12.7 C 0 km/h
1856 30-08-2010 11:33:02 13.1 C 8.1 g/m*3 13.1 C 0 km/h
1857 30-08-2010 11:45:02 13.1 C 8.1 g/m*3 13.1 C 0 km/h
1858 30-08-2010 11:57:02 13.5 C 8.3 g/m*3 13.5 C 0 km/h
1859 30-08-2010 12:09:01 13.8 C 8.22 g/m*3 13.8 C 0 km/h
1860 30-08-2010 12:21:02 13.4 C 7.9 g/m*3 13.4 C 0 km/h
1861 30-08-2010 12:33:01 13.8 C 8.22 g/m*3 13.8 C 0 km/h
1862 30-08-2010 12:45:02 14.5 C 6.96 g/m*3 14.5 C 0 km/h
1863 30-08-2010 12:57:02 14.6 C 6.76 g/m*3 14.6 C 0 km/h
1864 30-08-2010 13:09:01 15.5 C 6.74 g/m*3 15.5 C 0 km/h
1865 30-08-2010 13:21:01 16 C 6.81 g/m*3 16 C 0 km/h
1866 30-08-2010 13:33:01 16.3 C 6.52 g/m*3 16.3 C 0 km/h
1867 30-08-2010 13:45:02 16.2 C 6.76 g/m*3 16.2 C 0 km/h
1868 30-08-2010 13:57:02 16.2 C 7.03 g/m*3 16.2 C 0 km/h
1869 30-08-2010 14:09:01 15.7 C 7.36 g/m*3 15.7 C 0 km/h
1870 30-08-2010 14:21:02 15.6 C 7.85 g/m*3 15.6 C 0 km/h
1871 30-08-2010 14:33:02 16.6 C 7.91 g/m*3 16.6 C 0 km/h
1872 30-08-2010 14:45:02 16.7 C 7.67 g/m*3 16.7 C 0 km/h
1873 30-08-2010 14:57:02 16.8 C 7.86 g/m*3 16.8 C 0 km/h
1874 30-08-2010 15:09:03 17.3 C 8.25 g/m*3 17.3 C 0 km/h
1875 30-08-2010 15:21:02 17.7 C 7.85 g/m*3 17.7 C 0 km/h
Sensor: Nr:Datum:Temp:Abs-Feuchte:Windchill:Wind:
Aussen-T/F 1876 30-08-2010 15:33:02 17.3 C 7.66 g/m*3 17.3 C 0 km/h
1877 30-08-2010 15:45:01 17.7 C 7.54 g/m*3 17.7 C 0 km/h
1878 30-08-2010 15:57:01 17.4 C 7.71 g/m*3 17.4 C 0 km/h
1879 30-08-2010 16:09:02 16.9 C 7.77 g/m*3 16.9 C 0 km/h
1880 30-08-2010 16:21:01 15.8 C 8.88 g/m*3 15.8 C 0 km/h
1881 30-08-2010 16:33:02 14.8 C 9.37 g/m*3 14.8 C 0 km/h
1882 30-08-2010 16:45:02 15.5 C 9.78 g/m*3 15.5 C 0 km/h
1883 30-08-2010 16:57:02 16.3 C 9.85 g/m*3 16.3 C 0 km/h
1884 30-08-2010 17:09:02 15.8 C 9.42 g/m*3 15.8 C 0 km/h
1885 30-08-2010 17:21:01 15 C 9.49 g/m*3 15 C 0 km/h
1886 30-08-2010 17:33:02 14.8 C 9.5 g/m*3 14.8 C 0 km/h
1887 30-08-2010 17:45:01 14.7 C 8.81 g/m*3 14.7 C 0 km/h
1888 30-08-2010 17:57:01 14.9 C 8.92 g/m*3 14.9 C 0 km/h
1889 30-08-2010 18:09:02 14.7 C 8.69 g/m*3 14.7 C 0 km/h
1890 30-08-2010 18:21:01 14.6 C 8.76 g/m*3 14.6 C 0 km/h
1891 30-08-2010 18:33:02 14.3 C 8.6 g/m*3 14.3 C 0 km/h
1892 30-08-2010 18:45:01 14.1 C 8.74 g/m*3 14.1 C 0 km/h
1893 30-08-2010 18:57:01 13.9 C 8.99 g/m*3 13.9 C 0 km/h
1894 30-08-2010 19:09:02 13.9 C 8.99 g/m*3 13.9 C 0 km/h
1895 30-08-2010 19:21:02 13.9 C 9.23 g/m*3 13.9 C 0 km/h
1896 30-08-2010 19:33:01 14.1 C 9.22 g/m*3 14.1 C 0 km/h
1897 30-08-2010 19:45:02 14.2 C 8.91 g/m*3 14.2 C 0 km/h
1898 30-08-2010 19:57:02 14.1 C 8.5 g/m*3 14.1 C 0 km/h
1899 30-08-2010 20:09:01 13.9 C 8.51 g/m*3 13.9 C 0 km/h
1900 30-08-2010 20:21:02 13.9 C 8.51 g/m*3 13.9 C 0 km/h
Sensor: Nr:Datum:Temp:Abs-Feuchte:Windchill:Wind:
Aussen-T/F 1901 30-08-2010 20:33:01 14 C 8.56 g/m*3 14 C 0 km/h
1902 30-08-2010 20:45:02 13.8 C 8.94 g/m*3 13.8 C 0 km/h
1903 30-08-2010 20:57:02 13.2 C 9.07 g/m*3 13.2 C 0 km/h
1904 30-08-2010 21:09:02 13.1 C 9.36 g/m*3 13.1 C 0 km/h
1905 30-08-2010 21:21:01 12.9 C 9.58 g/m*3 12.9 C 0 km/h
1906 30-08-2010 21:33:01 12.7 C 9.68 g/m*3 12.7 C 0 km/h
1907 30-08-2010 21:45:02 12.4 C 9.51 g/m*3 12.4 C 0 km/h
1908 30-08-2010 21:57:02 12.5 C 9.68 g/m*3 12.5 C 0 km/h
1909 30-08-2010 22:09:02 12.8 C 9.97 g/m*3 12.8 C 0 km/h
1910 30-08-2010 22:21:02 12.8 C 9.97 g/m*3 12.8 C 0 km/h
1911 30-08-2010 22:33:02 12.7 C 9.91 g/m*3 12.7 C 0 km/h
1912 30-08-2010 22:45:02 12.7 C 9.91 g/m*3 12.7 C 0 km/h
1913 30-08-2010 22:57:02 12.6 C 9.85 g/m*3 12.6 C 0 km/h
1914 30-08-2010 23:10:03 12.4 C 9.72 g/m*3 12.4 C 0 km/h
1915 30-08-2010 23:22:03 12.4 C 9.72 g/m*3 12.4 C 0 km/h
1916 30-08-2010 23:34:03 12.4 C 9.83 g/m*3 12.4 C 0 km/h
1917 30-08-2010 23:46:03 12.2 C 9.6 g/m*3 12.2 C 0 km/h
1918 30-08-2010 23:58:03 12.1 C 9.54 g/m*3 12.1 C 0 km/h
1919 31-08-2010 00:10:03 12 C 9.48 g/m*3 12 C 0 km/h
1920 31-08-2010 00:22:03 12.1 C 9.54 g/m*3 12.1 C 0 km/h
1921 31-08-2010 00:34:03 12.2 C 9.6 g/m*3 12.2 C 0 km/h
1922 31-08-2010 00:46:03 12.4 C 9.72 g/m*3 12.4 C 0 km/h
1923 31-08-2010 00:58:03 12.4 C 9.72 g/m*3 12.4 C 0 km/h
1924 31-08-2010 01:10:03 12.5 C 9.68 g/m*3 12.5 C 0 km/h
1925 31-08-2010 01:22:03 12.6 C 9.62 g/m*3 12.6 C 0 km/h
Sensor: Nr:Datum:Temp:Abs-Feuchte:Windchill:Wind:
Aussen-T/F 1926 31-08-2010 01:34:03 12.5 C 9.46 g/m*3 12.5 C 0 km/h
1927 31-08-2010 01:46:03 12.4 C 9.4 g/m*3 12.4 C 0 km/h
1928 31-08-2010 01:58:03 12.1 C 9.12 g/m*3 12.1 C 0 km/h
1929 31-08-2010 02:10:03 12.2 C 9.28 g/m*3 12.2 C 0 km/h
1930 31-08-2010 02:22:03 12.4 C 9.4 g/m*3 12.4 C 0 km/h
1931 31-08-2010 02:34:03 12.4 C 9.29 g/m*3 12.4 C 0 km/h
1932 31-08-2010 02:46:03 12.4 C 9.29 g/m*3 12.4 C 0 km/h
1933 31-08-2010 02:58:04 12.4 C 9.29 g/m*3 12.4 C 0 km/h
1934 31-08-2010 03:10:04 12.3 C 9.12 g/m*3 12.3 C 0 km/h
1935 31-08-2010 03:22:04 12.3 C 9.12 g/m*3 12.3 C 0 km/h
1936 31-08-2010 03:34:04 12 C 8.95 g/m*3 12 C 0 km/h
1937 31-08-2010 03:46:04 11.9 C 9.11 g/m*3 11.9 C 0 km/h
1938 31-08-2010 03:58:04 12 C 9.06 g/m*3 12 C 0 km/h
1939 31-08-2010 04:10:04 11.5 C 8.88 g/m*3 11.5 C 0 km/h
1940 31-08-2010 04:22:04 11.3 C 8.87 g/m*3 11.3 C 0 km/h
1941 31-08-2010 04:34:04 11.4 C 9.03 g/m*3 11.4 C 0 km/h
1942 31-08-2010 04:46:04 11.6 C 9.15 g/m*3 11.6 C 0 km/h
1943 31-08-2010 04:58:04 11.8 C 9.37 g/m*3 11.8 C 0 km/h
1944 31-08-2010 05:10:04 11.8 C 9.26 g/m*3 11.8 C 0 km/h
1945 31-08-2010 05:22:04 11.5 C 9.09 g/m*3 11.5 C 0 km/h
1946 31-08-2010 05:34:04 11.2 C 8.92 g/m*3 11.2 C 0 km/h
1947 31-08-2010 05:46:04 11.1 C 8.86 g/m*3 11.1 C 0 km/h
1948 31-08-2010 05:58:04 11.3 C 9.08 g/m*3 11.3 C 0 km/h
1949 31-08-2010 06:10:04 11.4 C 9.14 g/m*3 11.4 C 0 km/h
1950 31-08-2010 06:22:04 11.5 C 9.19 g/m*3 11.5 C 0 km/h
Sensor: Nr:Datum:Temp:Abs-Feuchte:Windchill:Wind:
Aussen-T/F 1951 31-08-2010 06:34:04 11.7 C 9.31 g/m*3 11.7 C 0 km/h
1952 31-08-2010 06:46:02 11.9 C 9.32 g/m*3 11.9 C 0 km/h
1953 31-08-2010 06:58:02 12 C 9.17 g/m*3 12 C 0 km/h
1954 31-08-2010 07:10:02 12.1 C 9.12 g/m*3 12.1 C 0 km/h
1955 31-08-2010 07:22:03 12.1 C 9.12 g/m*3 12.1 C 0 km/h
1956 31-08-2010 07:34:02 12.2 C 9.06 g/m*3 12.2 C 0 km/h
1957 31-08-2010 07:46:02 12.2 C 9.06 g/m*3 12.2 C 0 km/h
1958 31-08-2010 07:58:02 12.4 C 9.07 g/m*3 12.4 C 0 km/h
1959 31-08-2010 08:10:02 12.5 C 9.02 g/m*3 12.5 C 0 km/h
1960 31-08-2010 08:22:02 12.5 C 9.02 g/m*3 12.5 C 0 km/h
1961 31-08-2010 08:34:02 12.6 C 9.07 g/m*3 12.6 C 0 km/h
1962 31-08-2010 08:46:02 12.7 C 9.13 g/m*3 12.7 C 0 km/h
1963 31-08-2010 08:58:02 12.9 C 9.13 g/m*3 12.9 C 0 km/h
1964 31-08-2010 09:10:02 13.2 C 9.07 g/m*3 13.2 C 0 km/h
1965 31-08-2010 09:22:02 13.4 C 8.95 g/m*3 13.4 C 0 km/h
1966 31-08-2010 09:34:02 13.6 C 8.94 g/m*3 13.6 C 0 km/h
1967 31-08-2010 09:46:02 13.7 C 8.76 g/m*3 13.7 C 0 km/h
1968 31-08-2010 09:58:02 14 C 8.56 g/m*3 14 C 0 km/h
1969 31-08-2010 10:10:02 14.1 C 8.5 g/m*3 14.1 C 0 km/h
1970 31-08-2010 10:22:03 14 C 8.2 g/m*3 14 C 0 km/h
1971 31-08-2010 10:34:02 14 C 8.32 g/m*3 14 C 0 km/h
1972 31-08-2010 10:46:03 14.2 C 8.3 g/m*3 14.2 C 0 km/h
1973 31-08-2010 10:58:03 14.4 C 8.41 g/m*3 14.4 C 0 km/h
1974 31-08-2010 11:10:02 14.8 C 8.23 g/m*3 14.8 C 0 km/h
1975 31-08-2010 11:22:02 15.1 C 8.13 g/m*3 15.1 C 0 km/h
Sensor: Nr:Datum:Temp:Abs-Feuchte:Windchill:Wind:
Aussen-T/F 1976 31-08-2010 11:34:02 15.6 C 8.11 g/m*3 15.6 C 0 km/h
1977 31-08-2010 11:46:02 16.1 C 8.09 g/m*3 16.1 C 0 km/h
1978 31-08-2010 11:58:02 16.4 C 7.82 g/m*3 16.4 C 0 km/h
1979 31-08-2010 12:10:02 16.8 C 7.86 g/m*3 16.8 C 0 km/h
1980 31-08-2010 12:22:02 16.3 C 7.91 g/m*3 16.3 C 0 km/h
1981 31-08-2010 12:34:01 16.9 C 8.2 g/m*3 16.9 C 0 km/h
1982 31-08-2010 12:46:02 16.7 C 7.82 g/m*3 16.7 C 0 km/h
1983 31-08-2010 12:58:03 17.7 C 7.85 g/m*3 17.7 C 0 km/h
1984 31-08-2010 13:10:01 17.3 C 7.37 g/m*3 17.3 C 0 km/h
1985 31-08-2010 13:22:01 17.5 C 6.86 g/m*3 17.5 C 0 km/h
1986 31-08-2010 13:34:02 18.2 C 6.84 g/m*3 18.2 C 0 km/h
1987 31-08-2010 13:46:02 18.3 C 7.04 g/m*3 18.3 C 0 km/h
1988 31-08-2010 13:58:02 18.5 C 6.8 g/m*3 18.5 C 0 km/h
1989 31-08-2010 14:10:02 19.2 C 6.76 g/m*3 19.2 C 0 km/h
1990 31-08-2010 14:22:02 19.9 C 6.7 g/m*3 19.9 C 0 km/h
1991 31-08-2010 14:34:02 20.3 C 6.51 g/m*3 20.3 C 0 km/h
1992 31-08-2010 14:46:02 20.8 C 6.34 g/m*3 20.8 C 0 km/h
1993 31-08-2010 14:58:02 20.6 C 5.91 g/m*3 20.6 C 0 km/h
1994 31-08-2010 15:10:02 20.4 C 6.19 g/m*3 20.4 C 0 km/h
1995 31-08-2010 15:22:02 20.1 C 6.26 g/m*3 20.1 C 0 km/h
1996 31-08-2010 15:34:02 21.4 C 5.62 g/m*3 21.4 C 0 km/h
1997 31-08-2010 15:46:02 22 C 5.43 g/m*3 22 C 0 km/h
1998 31-08-2010 15:58:02 22.1 C 5.66 g/m*3 22.1 C 0 km/h
1999 31-08-2010 16:10:02 21.4 C 5.81 g/m*3 21.4 C 0 km/h
2000 31-08-2010 16:22:02 21.1 C 5.9 g/m*3 21.1 C 0 km/h
Sensor: Nr:Datum:Temp:Abs-Feuchte:Windchill:Wind:
Aussen-T/F 2001 31-08-2010 16:34:02 22.6 C 5.42 g/m*3 22.6 C 0 km/h
2002 31-08-2010 16:46:02 21.3 C 5.59 g/m*3 21.3 C 0 km/h
2003 31-08-2010 16:58:02 20.9 C 5.46 g/m*3 20.9 C 0 km/h
2004 31-08-2010 17:10:02 22.8 C 5.08 g/m*3 22.8 C 0 km/h
2005 31-08-2010 17:22:03 20.9 C 5.83 g/m*3 20.9 C 0 km/h
2006 31-08-2010 17:34:02 21.8 C 5.56 g/m*3 21.8 C 0 km/h
2007 31-08-2010 17:46:02 21.6 C 5.69 g/m*3 21.6 C 0 km/h
2008 31-08-2010 17:58:02 22 C 5.63 g/m*3 22 C 0 km/h
2009 31-08-2010 18:10:02 22.7 C 5.66 g/m*3 22.7 C 0 km/h
2010 31-08-2010 18:22:02 22.3 C 5.33 g/m*3 22.3 C 0 km/h
2011 31-08-2010 18:34:02 22.1 C 5.47 g/m*3 22.1 C 0 km/h
2012 31-08-2010 18:46:02 22.1 C 5.86 g/m*3 22.1 C 0 km/h
2013 31-08-2010 18:58:02 22.1 C 6.05 g/m*3 22.1 C 0 km/h
2014 31-08-2010 19:10:01 21.7 C 6.1 g/m*3 21.7 C 0 km/h
2015 31-08-2010 19:22:02 20.5 C 5.69 g/m*3 20.5 C 0 km/h
2016 31-08-2010 19:34:02 20.4 C 6.55 g/m*3 20.4 C 0 km/h
2017 31-08-2010 19:46:02 20 C 6.91 g/m*3 20 C 0 km/h
2018 31-08-2010 19:58:03 19 C 7.33 g/m*3 19 C 0 km/h
2019 31-08-2010 20:10:01 17.9 C 7.18 g/m*3 17.9 C 0 km/h
2020 31-08-2010 20:22:01 16.9 C 7.19 g/m*3 16.9 C 0 km/h
2021 31-08-2010 20:34:02 16.2 C 7.17 g/m*3 16.2 C 0 km/h
2022 31-08-2010 20:46:02 15.7 C 7.09 g/m*3 15.7 C 0 km/h
2023 31-08-2010 20:58:02 15.2 C 7.14 g/m*3 15.2 C 0 km/h
2024 31-08-2010 21:10:02 14.9 C 7.39 g/m*3 14.9 C 0 km/h
2025 31-08-2010 21:22:02 14.7 C 7.43 g/m*3 14.7 C 0 km/h
Sensor: Nr:Datum:Temp:Abs-Feuchte:Windchill:Wind:
Aussen-T/F 2026 31-08-2010 21:34:02 14.5 C 7.59 g/m*3 14.5 C 0 km/h
2027 31-08-2010 21:47:09 14.2 C 7.69 g/m*3 14.2 C 0 km/h
2028 31-08-2010 21:59:09 13.9 C 7.91 g/m*3 13.9 C 0 km/h
2029 31-08-2010 22:11:09 13.8 C 8.22 g/m*3 13.8 C 0 km/h
2030 31-08-2010 22:23:09 13.5 C 8.07 g/m*3 13.5 C 0 km/h
2031 31-08-2010 22:35:09 13.2 C 8.04 g/m*3 13.2 C 0 km/h
2032 31-08-2010 22:47:09 13 C 8.05 g/m*3 13 C 0 km/h
2033 31-08-2010 22:59:09 12.7 C 8.13 g/m*3 12.7 C 0 km/h
2034 31-08-2010 23:11:09 12.5 C 8.14 g/m*3 12.5 C 0 km/h
2035 31-08-2010 23:23:09 12.4 C 8.19 g/m*3 12.4 C 0 km/h
2036 31-08-2010 23:35:09 12.4 C 8.09 g/m*3 12.4 C 0 km/h
2037 31-08-2010 23:47:09 12.2 C 7.99 g/m*3 12.2 C 0 km/h
2038 31-08-2010 23:59:09 12.1 C 8.04 g/m*3 12.1 C 0 km/h
2039 01-09-2010 00:11:09 12 C 8.1 g/m*3 12 C 0 km/h
2040 01-09-2010 00:23:09 11.8 C 8.1 g/m*3 11.8 C 0 km/h
2041 01-09-2010 00:35:09 11.6 C 8.11 g/m*3 11.6 C 0 km/h
2042 01-09-2010 00:47:10 11.3 C 8.06 g/m*3 11.3 C 0 km/h
2043 01-09-2010 00:59:10 11.2 C 8.01 g/m*3 11.2 C 0 km/h
2044 01-09-2010 01:11:10 11.2 C 8.11 g/m*3 11.2 C 0 km/h
2045 01-09-2010 01:23:10 11.1 C 8.06 g/m*3 11.1 C 0 km/h
2046 01-09-2010 01:35:10 11 C 8.11 g/m*3 11 C 0 km/h
2047 01-09-2010 01:47:10 10.9 C 8.16 g/m*3 10.9 C 0 km/h
2048 01-09-2010 01:59:10 10.7 C 8.05 g/m*3 10.7 C 0 km/h
2049 01-09-2010 02:11:10 10.6 C 8 g/m*3 10.6 C 0 km/h
2050 01-09-2010 02:23:10 10.5 C 7.95 g/m*3 10.5 C 0 km/h
Sensor: Nr:Datum:Temp:Abs-Feuchte:Windchill:Wind:
Aussen-T/F 2051 01-09-2010 02:35:10 10.4 C 8 g/m*3 10.4 C 0 km/h
2052 01-09-2010 02:47:10 10.2 C 7.9 g/m*3 10.2 C 0 km/h
2053 01-09-2010 02:59:10 10.1 C 7.94 g/m*3 10.1 C 0 km/h
2054 01-09-2010 03:11:10 10 C 7.89 g/m*3 10 C 0 km/h
2055 01-09-2010 03:23:10 9.9 C 8.03 g/m*3 9.9 C 0 km/h
2056 01-09-2010 03:35:10 9.8 C 8.07 g/m*3 9.8 C 0 km/h
2057 01-09-2010 03:47:10 9.6 C 7.97 g/m*3 9.6 C 0 km/h
2058 01-09-2010 03:59:10 9.4 C 7.87 g/m*3 9.4 C 0 km/h
2059 01-09-2010 04:11:10 9.3 C 7.91 g/m*3 9.3 C 0 km/h
2060 01-09-2010 04:23:10 9.2 C 7.86 g/m*3 9.2 C 0 km/h
2061 01-09-2010 04:35:10 9.1 C 7.81 g/m*3 9.1 C 0 km/h
2062 01-09-2010 04:47:10 9.1 C 7.9 g/m*3 9.1 C 0 km/h
2063 01-09-2010 04:59:11 9 C 7.85 g/m*3 9 C 0 km/h
2064 01-09-2010 05:11:11 8.9 C 7.88 g/m*3 8.9 C 0 km/h
2065 01-09-2010 05:23:11 8.9 C 7.97 g/m*3 8.9 C 0 km/h
2066 01-09-2010 05:35:11 8.9 C 7.97 g/m*3 8.9 C 0 km/h
2067 01-09-2010 05:47:11 8.9 C 7.97 g/m*3 8.9 C 0 km/h
2068 01-09-2010 05:59:11 9 C 7.93 g/m*3 9 C 0 km/h
2069 01-09-2010 06:11:11 9 C 8.02 g/m*3 9 C 0 km/h
2070 01-09-2010 06:23:11 8.9 C 8.06 g/m*3 8.9 C 0 km/h
2071 01-09-2010 06:35:11 8.9 C 8.06 g/m*3 8.9 C 0 km/h
2072 01-09-2010 06:47:11 9 C 8.02 g/m*3 9 C 0 km/h
2073 01-09-2010 06:59:11 8.9 C 8.06 g/m*3 8.9 C 0 km/h
2074 01-09-2010 07:11:03 9.1 C 8.07 g/m*3 9.1 C 0 km/h
2075 01-09-2010 07:23:03 9.1 C 7.99 g/m*3 9.1 C 0 km/h
Sensor: Nr:Datum:Temp:Abs-Feuchte:Windchill:Wind:
Aussen-T/F 2076 01-09-2010 07:35:02 9 C 7.93 g/m*3 9 C 0 km/h
2077 01-09-2010 07:47:01 8.9 C 7.97 g/m*3 8.9 C 0 km/h
2078 01-09-2010 07:59:01 9 C 7.93 g/m*3 9 C 0 km/h
2079 01-09-2010 08:11:02 9 C 7.93 g/m*3 9 C 0 km/h
2080 01-09-2010 08:23:02 9.1 C 7.99 g/m*3 9.1 C 0 km/h
2081 01-09-2010 08:35:01 9.2 C 8.04 g/m*3 9.2 C 0 km/h
2082 01-09-2010 08:47:02 9.3 C 8.09 g/m*3 9.3 C 0 km/h
2083 01-09-2010 08:59:02 9.7 C 8.2 g/m*3 9.7 C 0 km/h
2084 01-09-2010 09:11:02 9.8 C 8.16 g/m*3 9.8 C 0 km/h
2085 01-09-2010 09:23:02 10 C 8.08 g/m*3 10 C 0 km/h
2086 01-09-2010 09:35:02 10.2 C 8.09 g/m*3 10.2 C 0 km/h
2087 01-09-2010 09:47:02 10.5 C 8.15 g/m*3 10.5 C 0 km/h
2088 01-09-2010 09:59:02 10.6 C 8.2 g/m*3 10.6 C 0 km/h
2089 01-09-2010 10:11:02 11.2 C 8.41 g/m*3 11.2 C 0 km/h
2090 01-09-2010 10:23:01 11.7 C 8.58 g/m*3 11.7 C 0 km/h
2091 01-09-2010 10:35:02 12.2 C 8.52 g/m*3 12.2 C 0 km/h
2092 01-09-2010 10:47:01 12.4 C 8.52 g/m*3 12.4 C 0 km/h
2093 01-09-2010 10:59:01 13 C 8.73 g/m*3 13 C 0 km/h
2094 01-09-2010 11:11:02 13.4 C 8.72 g/m*3 13.4 C 0 km/h
2095 01-09-2010 11:23:02 13.7 C 8.64 g/m*3 13.7 C 0 km/h
2096 01-09-2010 11:35:02 14.1 C 8.74 g/m*3 14.1 C 0 km/h
2097 01-09-2010 11:47:02 14.7 C 8.94 g/m*3 14.7 C 0 km/h
2098 01-09-2010 11:59:02 15.4 C 8.8 g/m*3 15.4 C 0 km/h
2099 01-09-2010 12:11:02 16 C 8.72 g/m*3 16 C 0 km/h
2100 01-09-2010 12:23:02 16.9 C 8.63 g/m*3 16.9 C 0 km/h
Sensor: Nr:Datum:Temp:Abs-Feuchte:Windchill:Wind:
Aussen-T/F 2101 01-09-2010 12:35:01 17.2 C 8.2 g/m*3 17.2 C 0 km/h
2102 01-09-2010 12:47:02 17.8 C 8.5 g/m*3 17.8 C 0 km/h
2103 01-09-2010 12:59:02 18.3 C 8.6 g/m*3 18.3 C 0 km/h
2104 01-09-2010 13:11:01 18.7 C 8.33 g/m*3 18.7 C 0 km/h
2105 01-09-2010 13:23:01 19.2 C 8.08 g/m*3 19.2 C 0 km/h
2106 01-09-2010 13:35:02 19.7 C 7.81 g/m*3 19.7 C 0 km/h
2107 01-09-2010 13:47:02 19.9 C 7.9 g/m*3 19.9 C 0 km/h
2108 01-09-2010 13:59:02 20.1 C 7.65 g/m*3 20.1 C 0 km/h
2109 01-09-2010 14:11:02 20.9 C 7.47 g/m*3 20.9 C 0 km/h
2110 01-09-2010 14:23:02 20.1 C 6.95 g/m*3 20.1 C 0 km/h
2111 01-09-2010 14:35:02 21 C 7.33 g/m*3 21 C 0 km/h
2112 01-09-2010 14:47:02 21.7 C 6.87 g/m*3 21.7 C 0 km/h
2113 01-09-2010 14:59:02 22.2 C 6.48 g/m*3 22.2 C 0 km/h
2114 01-09-2010 15:11:03 22.6 C 6.43 g/m*3 22.6 C 0 km/h
2115 01-09-2010 15:23:02 23.2 C 6.03 g/m*3 23.2 C 0 km/h
2116 01-09-2010 15:35:02 23.5 C 5.71 g/m*3 23.5 C 0 km/h
2117 01-09-2010 15:47:01 24.1 C 5.91 g/m*3 24.1 C 0 km/h
2118 01-09-2010 15:59:01 24.6 C 5.85 g/m*3 24.6 C 0 km/h
2119 01-09-2010 16:11:02 23.5 C 5.5 g/m*3 23.5 C 0 km/h
2120 01-09-2010 16:23:01 24 C 5.87 g/m*3 24 C 0 km/h
2121 01-09-2010 16:35:01 23.8 C 6.02 g/m*3 23.8 C 0 km/h
2122 01-09-2010 16:47:01 23.8 C 6.45 g/m*3 23.8 C 0 km/h
2123 01-09-2010 16:59:01 23.9 C 6.27 g/m*3 23.9 C 0 km/h
2124 01-09-2010 17:11:02 23.1 C 6.2 g/m*3 23.1 C 0 km/h
2125 01-09-2010 17:23:01 22.7 C 6.47 g/m*3 22.7 C 0 km/h
Sensor: Nr:Datum:Temp:Abs-Feuchte:Windchill:Wind:
Aussen-T/F 2126 01-09-2010 17:35:01 22.1 C 6.05 g/m*3 22.1 C 0 km/h
2127 01-09-2010 17:47:01 21.3 C 6.52 g/m*3 21.3 C 0 km/h
2128 01-09-2010 17:59:01 21 C 6.59 g/m*3 21 C 0 km/h
2129 01-09-2010 18:11:01 20.7 C 7.02 g/m*3 20.7 C 0 km/h
2130 01-09-2010 18:23:02 20.3 C 6.86 g/m*3 20.3 C 0 km/h
2131 01-09-2010 18:35:01 21.6 C 7.02 g/m*3 21.6 C 0 km/h
2132 01-09-2010 18:47:02 22.1 C 6.83 g/m*3 22.1 C 0 km/h
2133 01-09-2010 18:59:02 20.8 C 7.06 g/m*3 20.8 C 0 km/h
2134 01-09-2010 19:11:01 20.7 C 7.38 g/m*3 20.7 C 0 km/h
2135 01-09-2010 19:23:02 20.3 C 7.56 g/m*3 20.3 C 0 km/h
2136 01-09-2010 19:35:01 19.6 C 7.77 g/m*3 19.6 C 0 km/h
2137 01-09-2010 19:47:02 19.1 C 8.03 g/m*3 19.1 C 0 km/h
2138 01-09-2010 19:59:02 18.4 C 8.49 g/m*3 18.4 C 0 km/h
2139 01-09-2010 20:11:02 18 C 8.45 g/m*3 18 C 0 km/h
2140 01-09-2010 20:23:02 17.6 C 8.7 g/m*3 17.6 C 0 km/h
2141 01-09-2010 20:35:03 17.3 C 8.84 g/m*3 17.3 C 0 km/h
2142 01-09-2010 20:47:02 17.1 C 8.73 g/m*3 17.1 C 0 km/h
2143 01-09-2010 20:59:02 16.8 C 8.86 g/m*3 16.8 C 0 km/h
2144 01-09-2010 21:11:01 16.6 C 8.9 g/m*3 16.6 C 0 km/h
2145 01-09-2010 21:23:02 16.5 C 8.85 g/m*3 16.5 C 0 km/h
2146 01-09-2010 21:35:02 16.3 C 8.88 g/m*3 16.3 C 0 km/h
2147 01-09-2010 21:47:02 16 C 8.72 g/m*3 16 C 0 km/h
2148 01-09-2010 21:59:02 15.8 C 8.88 g/m*3 15.8 C 0 km/h
2149 01-09-2010 22:12:03 15.8 C 8.88 g/m*3 15.8 C 0 km/h
2150 01-09-2010 22:24:03 15.6 C 8.78 g/m*3 15.6 C 0 km/h
Sensor: Nr:Datum:Temp:Abs-Feuchte:Windchill:Wind:
Aussen-T/F 2151 01-09-2010 22:36:03 15.5 C 8.86 g/m*3 15.5 C 0 km/h
2152 01-09-2010 22:48:03 15.3 C 8.75 g/m*3 15.3 C 0 km/h
2153 01-09-2010 23:00:03 15 C 8.59 g/m*3 15 C 0 km/h
2154 01-09-2010 23:12:03 14.6 C 8.38 g/m*3 14.6 C 0 km/h
2155 01-09-2010 23:24:03 14.1 C 8.13 g/m*3 14.1 C 0 km/h
2156 01-09-2010 23:36:03 13.6 C 8.12 g/m*3 13.6 C 0 km/h
2157 01-09-2010 23:48:03 13.5 C 8.19 g/m*3 13.5 C 0 km/h
2158 02-09-2010 00:00:04 13.3 C 8.2 g/m*3 13.3 C 0 km/h
2159 02-09-2010 00:12:04 13.1 C 8.1 g/m*3 13.1 C 0 km/h
2160 02-09-2010 00:24:04 13 C 8.17 g/m*3 13 C 0 km/h
2161 02-09-2010 00:36:04 12.9 C 8.34 g/m*3 12.9 C 0 km/h
2162 02-09-2010 00:48:04 12.8 C 8.29 g/m*3 12.8 C 0 km/h
2163 02-09-2010 01:00:04 12.6 C 8.3 g/m*3 12.6 C 0 km/h
2164 02-09-2010 01:12:04 12.5 C 8.36 g/m*3 12.5 C 0 km/h
2165 02-09-2010 01:24:04 12.3 C 8.36 g/m*3 12.3 C 0 km/h
2166 02-09-2010 01:36:04 12.1 C 8.26 g/m*3 12.1 C 0 km/h
2167 02-09-2010 01:48:04 12.1 C 8.58 g/m*3 12.1 C 0 km/h
2168 02-09-2010 02:00:04 11.9 C 8.58 g/m*3 11.9 C 0 km/h
2169 02-09-2010 02:12:04 11.7 C 8.58 g/m*3 11.7 C 0 km/h
2170 02-09-2010 02:24:04 11.6 C 8.63 g/m*3 11.6 C 0 km/h
2171 02-09-2010 02:36:04 11.5 C 8.57 g/m*3 11.5 C 0 km/h
2172 02-09-2010 02:48:04 11.3 C 8.47 g/m*3 11.3 C 0 km/h
2173 02-09-2010 03:00:04 11.2 C 8.41 g/m*3 11.2 C 0 km/h
2174 02-09-2010 03:12:04 11.1 C 8.36 g/m*3 11.1 C 0 km/h
2175 02-09-2010 03:24:04 11 C 8.31 g/m*3 11 C 0 km/h
Sensor: Nr:Datum:Temp:Abs-Feuchte:Windchill:Wind:
Aussen-T/F 2176 02-09-2010 03:36:04 10.9 C 8.26 g/m*3 10.9 C 0 km/h
2177 02-09-2010 03:48:04 10.8 C 8.2 g/m*3 10.8 C 0 km/h
2178 02-09-2010 04:00:04 10.7 C 8.25 g/m*3 10.7 C 0 km/h
2179 02-09-2010 04:12:05 10.5 C 8.24 g/m*3 10.5 C 0 km/h
2180 02-09-2010 04:24:05 10.4 C 8.29 g/m*3 10.4 C 0 km/h
2181 02-09-2010 04:36:05 10.3 C 8.33 g/m*3 10.3 C 0 km/h
2182 02-09-2010 04:48:05 10.3 C 8.33 g/m*3 10.3 C 0 km/h
2183 02-09-2010 05:00:05 10.3 C 8.43 g/m*3 10.3 C 0 km/h
2184 02-09-2010 05:12:05 10.3 C 8.43 g/m*3 10.3 C 0 km/h
2185 02-09-2010 05:24:05 10.3 C 8.52 g/m*3 10.3 C 0 km/h
2186 02-09-2010 05:36:05 10.3 C 8.52 g/m*3 10.3 C 0 km/h
2187 02-09-2010 05:48:05 10.4 C 8.58 g/m*3 10.4 C 0 km/h
2188 02-09-2010 06:00:05 10.3 C 8.52 g/m*3 10.3 C 0 km/h
2189 02-09-2010 06:12:05 10.3 C 8.52 g/m*3 10.3 C 0 km/h
2190 02-09-2010 06:24:05 10.3 C 8.62 g/m*3 10.3 C 0 km/h
2191 02-09-2010 06:36:03 10.4 C 8.67 g/m*3 10.4 C 0 km/h
2192 02-09-2010 06:48:01 10.4 C 8.67 g/m*3 10.4 C 0 km/h
2193 02-09-2010 07:00:01 10.4 C 8.67 g/m*3 10.4 C 0 km/h
2194 02-09-2010 07:12:02 10.5 C 8.73 g/m*3 10.5 C 0 km/h
2195 02-09-2010 07:24:01 10.7 C 8.84 g/m*3 10.7 C 0 km/h
2196 02-09-2010 07:36:01 10.9 C 8.95 g/m*3 10.9 C 0 km/h
2197 02-09-2010 07:48:01 10.9 C 8.85 g/m*3 10.9 C 0 km/h
2198 02-09-2010 08:00:01 11 C 8.81 g/m*3 11 C 0 km/h
2199 02-09-2010 08:12:02 11.3 C 8.98 g/m*3 11.3 C 0 km/h
2200 02-09-2010 08:24:02 11.3 C 8.98 g/m*3 11.3 C 0 km/h
Sensor: Nr:Datum:Temp:Abs-Feuchte:Windchill:Wind:
Aussen-T/F 2201 02-09-2010 08:36:01 11.4 C 8.93 g/m*3 11.4 C 0 km/h
2202 02-09-2010 08:48:02 11.7 C 9.1 g/m*3 11.7 C 0 km/h
2203 02-09-2010 09:00:03 11.7 C 8.99 g/m*3 11.7 C 0 km/h
2204 02-09-2010 09:12:02 12 C 8.95 g/m*3 12 C 0 km/h
2205 02-09-2010 09:24:02 12.5 C 9.13 g/m*3 12.5 C 0 km/h
2206 02-09-2010 09:36:02 12.8 C 9.07 g/m*3 12.8 C 0 km/h
2207 02-09-2010 09:48:01 13 C 8.73 g/m*3 13 C 0 km/h
2208 02-09-2010 10:00:01 13.5 C 8.77 g/m*3 13.5 C 0 km/h
2209 02-09-2010 10:12:02 13.9 C 8.75 g/m*3 13.9 C 0 km/h
2210 02-09-2010 10:24:01 14.1 C 8.62 g/m*3 14.1 C 0 km/h
2211 02-09-2010 10:36:01 14.3 C 8.6 g/m*3 14.3 C 0 km/h
2212 02-09-2010 10:48:02 14.3 C 8.48 g/m*3 14.3 C 0 km/h
2213 02-09-2010 11:00:02 14.4 C 8.65 g/m*3 14.4 C 0 km/h
2214 02-09-2010 11:12:02 14.8 C 9.12 g/m*3 14.8 C 0 km/h
2215 02-09-2010 11:24:01 15.3 C 9.14 g/m*3 15.3 C 0 km/h
2216 02-09-2010 11:36:02 16 C 8.99 g/m*3 16 C 0 km/h
2217 02-09-2010 11:48:01 16.8 C 9.15 g/m*3 16.8 C 0 km/h
2218 02-09-2010 12:00:01 17.5 C 9.24 g/m*3 17.5 C 0 km/h
2219 02-09-2010 12:12:02 18.1 C 9.12 g/m*3 18.1 C 0 km/h
2220 02-09-2010 12:24:02 18.5 C 8.86 g/m*3 18.5 C 0 km/h
2221 02-09-2010 12:36:01 19.2 C 8.41 g/m*3 19.2 C 0 km/h
2222 02-09-2010 12:48:02 20 C 7.95 g/m*3 20 C 0 km/h
2223 02-09-2010 13:00:02 20.2 C 7.34 g/m*3 20.2 C 0 km/h
2224 02-09-2010 13:12:01 20.1 C 7.3 g/m*3 20.1 C 0 km/h
2225 02-09-2010 13:24:01 21 C 7.51 g/m*3 21 C 0 km/h
Sensor: Nr:Datum:Temp:Abs-Feuchte:Windchill:Wind:
Aussen-T/F 2226 02-09-2010 13:36:02 21.6 C 7.21 g/m*3 21.6 C 0 km/h
2227 02-09-2010 13:48:02 21.3 C 7.46 g/m*3 21.3 C 0 km/h
2228 02-09-2010 14:00:02 21.7 C 7.63 g/m*3 21.7 C 0 km/h
2229 02-09-2010 14:12:01 22 C 7.38 g/m*3 22 C 0 km/h
2230 02-09-2010 14:24:02 21.7 C 7.06 g/m*3 21.7 C 0 km/h
2231 02-09-2010 14:36:02 22.9 C 6.95 g/m*3 22.9 C 0 km/h
2232 02-09-2010 14:48:02 22.7 C 7.07 g/m*3 22.7 C 0 km/h
2233 02-09-2010 15:00:02 22.6 C 7.03 g/m*3 22.6 C 0 km/h
2234 02-09-2010 15:12:02 21.8 C 6.72 g/m*3 21.8 C 0 km/h
2235 02-09-2010 15:24:02 20.3 C 6.68 g/m*3 20.3 C 0 km/h
2236 02-09-2010 15:36:02 20.9 C 7.1 g/m*3 20.9 C 0 km/h
2237 02-09-2010 15:48:02 21.5 C 6.98 g/m*3 21.5 C 0 km/h
2238 02-09-2010 16:00:02 20.9 C 6.74 g/m*3 20.9 C 0 km/h
2239 02-09-2010 16:12:02 20.2 C 6.82 g/m*3 20.2 C 0 km/h
2240 02-09-2010 16:24:02 20.3 C 7.03 g/m*3 20.3 C 0 km/h
2241 02-09-2010 16:36:02 20.8 C 7.24 g/m*3 20.8 C 0 km/h
2242 02-09-2010 16:48:02 20.8 C 6.7 g/m*3 20.8 C 0 km/h
2243 02-09-2010 17:00:02 20 C 6.91 g/m*3 20 C 0 km/h
2244 02-09-2010 17:12:02 19.3 C 7.13 g/m*3 19.3 C 0 km/h
2245 02-09-2010 17:24:02 19.6 C 7.26 g/m*3 19.6 C 0 km/h
2246 02-09-2010 17:36:02 19.6 C 7.26 g/m*3 19.6 C 0 km/h
2247 02-09-2010 17:48:02 19.2 C 7.09 g/m*3 19.2 C 0 km/h
2248 02-09-2010 18:00:02 18.9 C 7.13 g/m*3 18.9 C 0 km/h
2249 02-09-2010 18:12:01 18.7 C 7.36 g/m*3 18.7 C 0 km/h
2250 02-09-2010 18:24:02 18.7 C 7.52 g/m*3 18.7 C 0 km/h
Sensor: Nr:Datum:Temp:Abs-Feuchte:Windchill:Wind:
Aussen-T/F 2251 02-09-2010 18:36:02 18.6 C 7.48 g/m*3 18.6 C 0 km/h
2252 02-09-2010 18:48:01 18.4 C 7.55 g/m*3 18.4 C 0 km/h
2253 02-09-2010 19:00:01 18.5 C 8.07 g/m*3 18.5 C 0 km/h
2254 02-09-2010 19:12:02 18.3 C 8.6 g/m*3 18.3 C 0 km/h
2255 02-09-2010 19:24:01 17.8 C 8.95 g/m*3 17.8 C 0 km/h
2256 02-09-2010 19:36:02 17.2 C 9.23 g/m*3 17.2 C 0 km/h
2257 02-09-2010 19:48:02 16.4 C 9.63 g/m*3 16.4 C 0 km/h
2258 02-09-2010 20:00:02 15.8 C 9.96 g/m*3 15.8 C 0 km/h
2259 02-09-2010 20:12:02 15.5 C 9.91 g/m*3 15.5 C 0 km/h
2260 02-09-2010 20:24:02 15 C 9.87 g/m*3 15 C 0 km/h
2261 02-09-2010 20:36:02 14.7 C 10.07 g/m*3 14.7 C 0 km/h
2262 02-09-2010 20:48:01 14.7 C 10.2 g/m*3 14.7 C 0 km/h
2263 02-09-2010 21:00:01 14.5 C 10.07 g/m*3 14.5 C 0 km/h
2264 02-09-2010 21:12:02 14.4 C 9.89 g/m*3 14.4 C 0 km/h
2265 02-09-2010 21:24:01 14.5 C 9.95 g/m*3 14.5 C 0 km/h
2266 02-09-2010 21:36:02 14.4 C 9.77 g/m*3 14.4 C 0 km/h
2267 02-09-2010 21:49:02 14.3 C 9.58 g/m*3 14.3 C 0 km/h
2268 02-09-2010 22:01:02 14.4 C 9.52 g/m*3 14.4 C 0 km/h
2269 02-09-2010 22:13:02 14 C 9.29 g/m*3 14 C 0 km/h
2270 02-09-2010 22:25:02 13.7 C 9.24 g/m*3 13.7 C 0 km/h
2271 02-09-2010 22:37:02 13.6 C 9.3 g/m*3 13.6 C 0 km/h
2272 02-09-2010 22:49:03 13.5 C 9.36 g/m*3 13.5 C 0 km/h
2273 02-09-2010 23:01:03 13 C 9.07 g/m*3 13 C 0 km/h
2274 02-09-2010 23:13:03 13.2 C 9.3 g/m*3 13.2 C 0 km/h
2275 02-09-2010 23:25:03 13.1 C 9.24 g/m*3 13.1 C 0 km/h
Sensor: Nr:Datum:Temp:Abs-Feuchte:Windchill:Wind:
Aussen-T/F 2276 02-09-2010 23:37:03 12.9 C 9.24 g/m*3 12.9 C 0 km/h
2277 02-09-2010 23:49:03 12.7 C 9.13 g/m*3 12.7 C 0 km/h
2278 03-09-2010 00:01:03 12.7 C 9.13 g/m*3 12.7 C 0 km/h
2279 03-09-2010 00:13:03 12.5 C 9.13 g/m*3 12.5 C 0 km/h
2280 03-09-2010 00:25:03 12.4 C 9.07 g/m*3 12.4 C 0 km/h
2281 03-09-2010 00:37:03 12.3 C 9.12 g/m*3 12.3 C 0 km/h
2282 03-09-2010 00:49:03 12.2 C 9.06 g/m*3 12.2 C 0 km/h
2283 03-09-2010 01:01:03 12.1 C 9.01 g/m*3 12.1 C 0 km/h
2284 03-09-2010 01:13:03 11.9 C 8.9 g/m*3 11.9 C 0 km/h
2285 03-09-2010 01:25:03 11.9 C 9 g/m*3 11.9 C 0 km/h
2286 03-09-2010 01:37:03 11.7 C 8.89 g/m*3 11.7 C 0 km/h
2287 03-09-2010 01:49:03 11.5 C 8.78 g/m*3 11.5 C 0 km/h
2288 03-09-2010 02:01:03 11.5 C 8.88 g/m*3 11.5 C 0 km/h
2289 03-09-2010 02:13:03 11.4 C 8.83 g/m*3 11.4 C 0 km/h
2290 03-09-2010 02:25:03 11.1 C 8.66 g/m*3 11.1 C 0 km/h
2291 03-09-2010 02:37:03 11.1 C 8.66 g/m*3 11.1 C 0 km/h
2292 03-09-2010 02:49:03 11.1 C 8.76 g/m*3 11.1 C 0 km/h
2293 03-09-2010 03:01:04 11 C 8.71 g/m*3 11 C 0 km/h
2294 03-09-2010 03:13:04 10.8 C 8.7 g/m*3 10.8 C 0 km/h
2295 03-09-2010 03:25:04 10.7 C 8.64 g/m*3 10.7 C 0 km/h
2296 03-09-2010 03:37:04 10.6 C 8.59 g/m*3 10.6 C 0 km/h
2297 03-09-2010 03:49:04 10.5 C 8.53 g/m*3 10.5 C 0 km/h
2298 03-09-2010 04:01:04 10.4 C 8.58 g/m*3 10.4 C 0 km/h
2299 03-09-2010 04:13:04 10.4 C 8.58 g/m*3 10.4 C 0 km/h
2300 03-09-2010 04:25:04 10.4 C 8.67 g/m*3 10.4 C 0 km/h
Sensor: Nr:Datum:Temp:Abs-Feuchte:Windchill:Wind:
Aussen-T/F 2301 03-09-2010 04:37:04 10.3 C 8.62 g/m*3 10.3 C 0 km/h
2302 03-09-2010 04:49:04 10.2 C 8.56 g/m*3 10.2 C 0 km/h
2303 03-09-2010 05:01:04 10.2 C 8.56 g/m*3 10.2 C 0 km/h
2304 03-09-2010 05:13:04 10.3 C 8.62 g/m*3 10.3 C 0 km/h
2305 03-09-2010 05:25:04 10.4 C 8.77 g/m*3 10.4 C 0 km/h
2306 03-09-2010 05:37:04 10.4 C 8.77 g/m*3 10.4 C 0 km/h
2307 03-09-2010 05:49:04 10.7 C 9.04 g/m*3 10.7 C 0 km/h
2308 03-09-2010 06:01:04 10.9 C 9.15 g/m*3 10.9 C 0 km/h
2309 03-09-2010 06:13:04 11 C 9.21 g/m*3 11 C 0 km/h
2310 03-09-2010 06:25:04 11.1 C 9.27 g/m*3 11.1 C 0 km/h
2311 03-09-2010 06:37:04 11.1 C 9.27 g/m*3 11.1 C 0 km/h
2312 03-09-2010 06:49:04 11.3 C 9.28 g/m*3 11.3 C 0 km/h
2313 03-09-2010 07:01:02 11.4 C 9.34 g/m*3 11.4 C 0 km/h
2314 03-09-2010 07:13:02 11.2 C 9.22 g/m*3 11.2 C 0 km/h
2315 03-09-2010 07:25:02 11.2 C 9.22 g/m*3 11.2 C 0 km/h
2316 03-09-2010 07:37:03 11.5 C 9.4 g/m*3 11.5 C 0 km/h
2317 03-09-2010 07:49:02 11.5 C 9.4 g/m*3 11.5 C 0 km/h
2318 03-09-2010 08:01:03 11.6 C 9.46 g/m*3 11.6 C 0 km/h
2319 03-09-2010 08:13:03 11.7 C 9.41 g/m*3 11.7 C 0 km/h
2320 03-09-2010 08:25:02 11.7 C 9.41 g/m*3 11.7 C 0 km/h
2321 03-09-2010 08:37:03 11.6 C 9.25 g/m*3 11.6 C 0 km/h
2322 03-09-2010 08:49:02 11.6 C 9.15 g/m*3 11.6 C 0 km/h
2323 03-09-2010 09:01:02 12 C 9.27 g/m*3 12 C 0 km/h
2324 03-09-2010 09:13:02 12.1 C 9.22 g/m*3 12.1 C 0 km/h
2325 03-09-2010 09:25:02 12.3 C 9.23 g/m*3 12.3 C 0 km/h
Sensor: Nr:Datum:Temp:Abs-Feuchte:Windchill:Wind:
Aussen-T/F 2326 03-09-2010 09:37:02 12.7 C 9.35 g/m*3 12.7 C 0 km/h
2327 03-09-2010 09:49:02 13.1 C 9.36 g/m*3 13.1 C 0 km/h
2328 03-09-2010 10:01:02 12.9 C 9.13 g/m*3 12.9 C 0 km/h
2329 03-09-2010 10:13:02 12.8 C 9.18 g/m*3 12.8 C 0 km/h
2330 03-09-2010 10:25:02 13.5 C 9.36 g/m*3 13.5 C 0 km/h
2331 03-09-2010 10:37:03 14 C 9.05 g/m*3 14 C 0 km/h
2332 03-09-2010 10:49:02 14.7 C 9.32 g/m*3 14.7 C 0 km/h
2333 03-09-2010 11:01:02 15.3 C 9.14 g/m*3 15.3 C 0 km/h
2334 03-09-2010 11:13:02 15.4 C 8.93 g/m*3 15.4 C 0 km/h
2335 03-09-2010 11:25:02 15.8 C 9.02 g/m*3 15.8 C 0 km/h
2336 03-09-2010 11:37:02 16.4 C 8.93 g/m*3 16.4 C 0 km/h
2337 03-09-2010 11:49:02 16.6 C 8.62 g/m*3 16.6 C 0 km/h
2338 03-09-2010 12:01:02 17.4 C 8.45 g/m*3 17.4 C 0 km/h
2339 03-09-2010 12:13:02 17.7 C 8.6 g/m*3 17.7 C 0 km/h
2340 03-09-2010 12:25:02 17.8 C 8.35 g/m*3 17.8 C 0 km/h
2341 03-09-2010 12:37:02 18.1 C 8.34 g/m*3 18.1 C 0 km/h
2342 03-09-2010 12:49:01 18.3 C 8.6 g/m*3 18.3 C 0 km/h
2343 03-09-2010 13:01:01 18.8 C 8.37 g/m*3 18.8 C 0 km/h
2344 03-09-2010 13:13:01 19.4 C 8.18 g/m*3 19.4 C 0 km/h
2345 03-09-2010 13:25:01 20.1 C 8.17 g/m*3 20.1 C 0 km/h
2346 03-09-2010 13:37:01 19.9 C 7.9 g/m*3 19.9 C 0 km/h
2347 03-09-2010 13:49:01 20.2 C 8.22 g/m*3 20.2 C 0 km/h
2348 03-09-2010 14:01:01 20 C 7.6 g/m*3 20 C 0 km/h
2349 03-09-2010 14:13:01 20.5 C 7.65 g/m*3 20.5 C 0 km/h
2350 03-09-2010 14:25:01 19.7 C 7.64 g/m*3 19.7 C 0 km/h
Sensor: Nr:Datum:Temp:Abs-Feuchte:Windchill:Wind:
Aussen-T/F 2351 03-09-2010 14:37:01 20.4 C 7.96 g/m*3 20.4 C 0 km/h
2352 03-09-2010 14:49:01 21.4 C 7.31 g/m*3 21.4 C 0 km/h
2353 03-09-2010 15:01:02 21.8 C 7.1 g/m*3 21.8 C 0 km/h
2354 03-09-2010 15:13:02 22.7 C 7.27 g/m*3 22.7 C 0 km/h
2355 03-09-2010 15:25:01 23.3 C 6.9 g/m*3 23.3 C 0 km/h
2356 03-09-2010 15:37:01 22.7 C 6.87 g/m*3 22.7 C 0 km/h
2357 03-09-2010 15:49:01 23.4 C 6.94 g/m*3 23.4 C 0 km/h
2358 03-09-2010 16:01:01 24.8 C 6.83 g/m*3 24.8 C 0 km/h
2359 03-09-2010 16:13:01 25.5 C 6.63 g/m*3 25.5 C 0 km/h
2360 03-09-2010 16:25:02 25.7 C 6.46 g/m*3 25.7 C 0 km/h
2361 03-09-2010 16:37:01 25.7 C 6.46 g/m*3 25.7 C 0 km/h
2362 03-09-2010 16:49:02 23.9 C 6.49 g/m*3 23.9 C 0 km/h
2363 03-09-2010 17:01:01 25.3 C 6.32 g/m*3 25.3 C 0 km/h
2364 03-09-2010 17:13:01 24.8 C 6.6 g/m*3 24.8 C 0 km/h
2365 03-09-2010 17:25:01 23.9 C 6.49 g/m*3 23.9 C 0 km/h
2366 03-09-2010 17:37:01 23.4 C 6.52 g/m*3 23.4 C 0 km/h
2367 03-09-2010 17:49:02 23.2 C 6.65 g/m*3 23.2 C 0 km/h
2368 03-09-2010 18:01:02 23 C 7.6 g/m*3 23 C 0 km/h
2369 03-09-2010 18:13:02 23.1 C 8.06 g/m*3 23.1 C 0 km/h
2370 03-09-2010 18:25:02 23.2 C 8.11 g/m*3 23.2 C 0 km/h
2371 03-09-2010 18:37:02 22.5 C 7.99 g/m*3 22.5 C 0 km/h
2372 03-09-2010 18:49:01 21.7 C 8.77 g/m*3 21.7 C 0 km/h
2373 03-09-2010 19:01:02 21.2 C 8.9 g/m*3 21.2 C 0 km/h
2374 03-09-2010 19:13:02 20.6 C 8.95 g/m*3 20.6 C 0 km/h
2375 03-09-2010 19:25:01 20.6 C 8.77 g/m*3 20.6 C 0 km/h
Sensor: Nr:Datum:Temp:Abs-Feuchte:Windchill:Wind:
Aussen-T/F 2376 03-09-2010 19:37:02 20.7 C 8.82 g/m*3 20.7 C 0 km/h
2377 03-09-2010 19:49:02 20.4 C 8.85 g/m*3 20.4 C 0 km/h
2378 03-09-2010 20:01:02 19.7 C 8.66 g/m*3 19.7 C 0 km/h
2379 03-09-2010 20:13:02 19.2 C 8.08 g/m*3 19.2 C 0 km/h
2380 03-09-2010 20:25:01 18.3 C 8.6 g/m*3 18.3 C 0 km/h
2381 03-09-2010 20:37:02 18.1 C 7.88 g/m*3 18.1 C 0 km/h
2382 03-09-2010 20:49:02 17.8 C 8.04 g/m*3 17.8 C 0 km/h
2383 03-09-2010 21:01:02 17 C 8.39 g/m*3 17 C 0 km/h
2384 03-09-2010 21:13:02 16.5 C 8.57 g/m*3 16.5 C 0 km/h
2385 03-09-2010 21:25:02 16.2 C 8.55 g/m*3 16.2 C 0 km/h
2386 03-09-2010 21:37:02 16.1 C 8.64 g/m*3 16.1 C 0 km/h
2387 03-09-2010 21:49:01 15.8 C 8.62 g/m*3 15.8 C 0 km/h
2388 03-09-2010 22:01:01 15.6 C 8.78 g/m*3 15.6 C 0 km/h
2389 03-09-2010 22:13:01 15.3 C 8.75 g/m*3 15.3 C 0 km/h
2390 03-09-2010 22:25:02 15.2 C 8.7 g/m*3 15.2 C 0 km/h
2391 03-09-2010 22:37:01 15.2 C 8.96 g/m*3 15.2 C 0 km/h
2392 03-09-2010 22:50:03 15.5 C 9.12 g/m*3 15.5 C 0 km/h
2393 03-09-2010 23:02:03 15.5 C 9.25 g/m*3 15.5 C 0 km/h
2394 03-09-2010 23:14:03 15.4 C 9.2 g/m*3 15.4 C 0 km/h
2395 03-09-2010 23:26:03 15.4 C 9.2 g/m*3 15.4 C 0 km/h
2396 03-09-2010 23:38:03 15.2 C 9.22 g/m*3 15.2 C 0 km/h
2397 03-09-2010 23:50:03 15.2 C 9.22 g/m*3 15.2 C 0 km/h
2398 04-09-2010 00:02:03 15.2 C 9.22 g/m*3 15.2 C 0 km/h
2399 04-09-2010 00:14:03 15.1 C 9.29 g/m*3 15.1 C 0 km/h
2400 04-09-2010 00:26:03 15.1 C 9.29 g/m*3 15.1 C 0 km/h
Sensor: Nr:Datum:Temp:Abs-Feuchte:Windchill:Wind:
Aussen-T/F 2401 04-09-2010 00:38:03 15.1 C 9.29 g/m*3 15.1 C 0 km/h
2402 04-09-2010 00:50:03 15 C 9.36 g/m*3 15 C 0 km/h
2403 04-09-2010 01:02:03 15 C 9.36 g/m*3 15 C 0 km/h
2404 04-09-2010 01:14:03 15 C 9.36 g/m*3 15 C 0 km/h
2405 04-09-2010 01:26:04 14.7 C 9.44 g/m*3 14.7 C 0 km/h
2406 04-09-2010 01:38:04 14.7 C 9.44 g/m*3 14.7 C 0 km/h
2407 04-09-2010 01:50:04 14.7 C 9.44 g/m*3 14.7 C 0 km/h
2408 04-09-2010 02:02:04 14.5 C 9.45 g/m*3 14.5 C 0 km/h
2409 04-09-2010 02:14:04 14.4 C 9.39 g/m*3 14.4 C 0 km/h
2410 04-09-2010 02:26:04 14.2 C 9.4 g/m*3 14.2 C 0 km/h
2411 04-09-2010 02:38:04 14.2 C 9.4 g/m*3 14.2 C 0 km/h
2412 04-09-2010 02:50:04 14.1 C 9.34 g/m*3 14.1 C 0 km/h
2413 04-09-2010 03:02:04 14 C 9.29 g/m*3 14 C 0 km/h
2414 04-09-2010 03:14:04 13.7 C 9.35 g/m*3 13.7 C 0 km/h
2415 04-09-2010 03:26:04 13.7 C 9.35 g/m*3 13.7 C 0 km/h
2416 04-09-2010 03:38:04 13.6 C 9.53 g/m*3 13.6 C 0 km/h
2417 04-09-2010 03:50:04 13.6 C 9.53 g/m*3 13.6 C 0 km/h
2418 04-09-2010 04:02:04 13.4 C 9.42 g/m*3 13.4 C 0 km/h
2419 04-09-2010 04:14:04 13.3 C 9.47 g/m*3 13.3 C 0 km/h
2420 04-09-2010 04:26:04 13.1 C 9.36 g/m*3 13.1 C 0 km/h
2421 04-09-2010 04:38:04 13.2 C 9.64 g/m*3 13.2 C 0 km/h
2422 04-09-2010 04:50:04 13 C 9.53 g/m*3 13 C 0 km/h
2423 04-09-2010 05:02:04 13.1 C 9.59 g/m*3 13.1 C 0 km/h
2424 04-09-2010 05:14:04 13.2 C 9.64 g/m*3 13.2 C 0 km/h
2425 04-09-2010 05:26:04 13.2 C 9.64 g/m*3 13.2 C 0 km/h
Sensor: Nr:Datum:Temp:Abs-Feuchte:Windchill:Wind:
Aussen-T/F 2426 04-09-2010 05:38:05 13.1 C 9.59 g/m*3 13.1 C 0 km/h
2427 04-09-2010 05:50:05 12.9 C 9.47 g/m*3 12.9 C 0 km/h
2428 04-09-2010 06:02:05 12.9 C 9.47 g/m*3 12.9 C 0 km/h
2429 04-09-2010 06:14:05 12.7 C 9.35 g/m*3 12.7 C 0 km/h
2430 04-09-2010 06:26:05 12.5 C 9.24 g/m*3 12.5 C 0 km/h
2431 04-09-2010 06:38:05 12.4 C 9.29 g/m*3 12.4 C 0 km/h
2432 04-09-2010 06:50:05 12.2 C 9.17 g/m*3 12.2 C 0 km/h
2433 04-09-2010 07:02:05 12 C 9.17 g/m*3 12 C 0 km/h
2434 04-09-2010 07:14:05 12 C 9.17 g/m*3 12 C 0 km/h
2435 04-09-2010 07:26:05 12 C 9.17 g/m*3 12 C 0 km/h
2436 04-09-2010 07:38:05 12.2 C 9.39 g/m*3 12.2 C 0 km/h
2437 04-09-2010 07:50:02 12.2 C 9.39 g/m*3 12.2 C 0 km/h
2438 04-09-2010 08:02:02 12.5 C 9.68 g/m*3 12.5 C 0 km/h
2439 04-09-2010 08:14:02 12.7 C 9.8 g/m*3 12.7 C 0 km/h
2440 04-09-2010 08:26:03 12.7 C 9.68 g/m*3 12.7 C 0 km/h
2441 04-09-2010 08:38:02 12.9 C 9.81 g/m*3 12.9 C 0 km/h
2442 04-09-2010 08:50:02 13.2 C 9.87 g/m*3 13.2 C 0 km/h
2443 04-09-2010 09:02:02 13.7 C 10.07 g/m*3 13.7 C 0 km/h
2444 04-09-2010 09:14:02 14.3 C 10.2 g/m*3 14.3 C 0 km/h
2445 04-09-2010 09:26:02 14.6 C 10.01 g/m*3 14.6 C 0 km/h
2446 04-09-2010 09:38:02 14.7 C 9.82 g/m*3 14.7 C 0 km/h
2447 04-09-2010 09:50:02 14.9 C 9.69 g/m*3 14.9 C 0 km/h
2448 04-09-2010 10:02:02 15.2 C 9.61 g/m*3 15.2 C 0 km/h
2449 04-09-2010 10:14:02 15.6 C 9.58 g/m*3 15.6 C 0 km/h
2450 04-09-2010 10:26:02 15.9 C 9.62 g/m*3 15.9 C 0 km/h
Sensor: Nr:Datum:Temp:Abs-Feuchte:Windchill:Wind:
Aussen-T/F 2451 04-09-2010 10:38:02 17 C 9.41 g/m*3 17 C 0 km/h
2452 04-09-2010 10:50:02 17.8 C 9.11 g/m*3 17.8 C 0 km/h
2453 04-09-2010 11:02:02 17.8 C 9.11 g/m*3 17.8 C 0 km/h
2454 04-09-2010 11:14:02 18.1 C 8.96 g/m*3 18.1 C 0 km/h
2455 04-09-2010 11:26:03 18.9 C 8.75 g/m*3 18.9 C 0 km/h
2456 04-09-2010 11:38:02 19.6 C 8.61 g/m*3 19.6 C 0 km/h
2457 04-09-2010 11:50:02 20 C 8.3 g/m*3 20 C 0 km/h
2458 04-09-2010 12:02:02 18.3 C 8.13 g/m*3 18.3 C 0 km/h
2459 04-09-2010 12:14:02 19.7 C 8.49 g/m*3 19.7 C 0 km/h
2460 04-09-2010 12:26:02 19 C 7.33 g/m*3 19 C 0 km/h
2461 04-09-2010 12:38:02 18.5 C 7.59 g/m*3 18.5 C 0 km/h
2462 04-09-2010 12:50:02 18.8 C 7.89 g/m*3 18.8 C 0 km/h
2463 04-09-2010 13:02:02 19.2 C 7.42 g/m*3 19.2 C 0 km/h
2464 04-09-2010 13:14:02 19.9 C 7.9 g/m*3 19.9 C 0 km/h
2465 04-09-2010 13:26:02 19.9 C 7.56 g/m*3 19.9 C 0 km/h
2466 04-09-2010 13:38:01 18.8 C 7.73 g/m*3 18.8 C 0 km/h
2467 04-09-2010 13:50:02 20.1 C 7.47 g/m*3 20.1 C 0 km/h
2468 04-09-2010 14:02:01 21.5 C 6.98 g/m*3 21.5 C 0 km/h
2469 04-09-2010 14:14:01 22 C 6.79 g/m*3 22 C 0 km/h
2470 04-09-2010 14:26:02 22.2 C 6.68 g/m*3 22.2 C 0 km/h
2471 04-09-2010 14:38:02 22.1 C 6.83 g/m*3 22.1 C 0 km/h
2472 04-09-2010 14:50:02 23.2 C 6.24 g/m*3 23.2 C 0 km/h
2473 04-09-2010 15:02:02 23.4 C 6.1 g/m*3 23.4 C 0 km/h
2474 04-09-2010 15:14:02 24.3 C 6.64 g/m*3 24.3 C 0 km/h
2475 04-09-2010 15:26:02 24.1 C 5.91 g/m*3 24.1 C 0 km/h
Sensor: Nr:Datum:Temp:Abs-Feuchte:Windchill:Wind:
Aussen-T/F 2476 04-09-2010 15:38:02 21.8 C 6.14 g/m*3 21.8 C 0 km/h
2477 04-09-2010 15:50:01 20.8 C 6.52 g/m*3 20.8 C 0 km/h
2478 04-09-2010 16:02:02 22.8 C 5.69 g/m*3 22.8 C 0 km/h
2479 04-09-2010 16:14:02 24.7 C 5.21 g/m*3 24.7 C 0 km/h
2480 04-09-2010 16:26:01 22.2 C 5.5 g/m*3 22.2 C 0 km/h
2481 04-09-2010 16:38:01 21.3 C 5.59 g/m*3 21.3 C 0 km/h
2482 04-09-2010 16:50:01 21.1 C 5.53 g/m*3 21.1 C 0 km/h
2483 04-09-2010 17:02:02 22.4 C 5.76 g/m*3 22.4 C 0 km/h
2484 04-09-2010 17:14:02 23.3 C 5.23 g/m*3 23.3 C 0 km/h
2485 04-09-2010 17:26:01 23.5 C 5.08 g/m*3 23.5 C 0 km/h
2486 04-09-2010 17:38:01 22.9 C 4.09 g/m*3 22.9 C 0 km/h
2487 04-09-2010 17:50:01 23.5 C 4.23 g/m*3 23.5 C 0 km/h
2488 04-09-2010 18:02:01 22.9 C 4.29 g/m*3 22.9 C 0 km/h
2489 04-09-2010 18:14:01 23.2 C 4.57 g/m*3 23.2 C 0 km/h
2490 04-09-2010 18:26:02 23.1 C 4.13 g/m*3 23.1 C 0 km/h
2491 04-09-2010 18:38:01 22.9 C 4.29 g/m*3 22.9 C 0 km/h
2492 04-09-2010 18:50:02 21.6 C 4.55 g/m*3 21.6 C 0 km/h
2493 04-09-2010 19:02:01 21.2 C 5.19 g/m*3 21.2 C 0 km/h
2494 04-09-2010 19:14:01 20.7 C 5.04 g/m*3 20.7 C 0 km/h
2495 04-09-2010 19:26:02 19.4 C 5.34 g/m*3 19.4 C 0 km/h
2496 04-09-2010 19:38:01 19 C 5.7 g/m*3 19 C 0 km/h
2497 04-09-2010 19:50:03 18.4 C 6.29 g/m*3 18.4 C 0 km/h
2498 04-09-2010 20:02:02 17.5 C 6.41 g/m*3 17.5 C 0 km/h
2499 04-09-2010 20:14:02 16.6 C 6.36 g/m*3 16.6 C 0 km/h
2500 04-09-2010 20:26:03 15.9 C 6.5 g/m*3 15.9 C 0 km/h
Sensor: Nr:Datum:Temp:Abs-Feuchte:Windchill:Wind:
Aussen-T/F 2501 04-09-2010 20:38:02 15.5 C 6.61 g/m*3 15.5 C 0 km/h
2502 04-09-2010 20:50:02 15.2 C 6.75 g/m*3 15.2 C 0 km/h
2503 04-09-2010 21:02:02 15.2 C 6.88 g/m*3 15.2 C 0 km/h
2504 04-09-2010 21:14:02 14.8 C 6.84 g/m*3 14.8 C 0 km/h
2505 04-09-2010 21:26:02 14.8 C 6.97 g/m*3 14.8 C 0 km/h
2506 04-09-2010 21:38:01 15 C 6.92 g/m*3 15 C 0 km/h
2507 04-09-2010 21:50:02 14.8 C 7.09 g/m*3 14.8 C 0 km/h
2508 04-09-2010 22:02:02 14.8 C 7.22 g/m*3 14.8 C 0 km/h
2509 04-09-2010 22:14:03 14.4 C 7.17 g/m*3 14.4 C 0 km/h
2510 04-09-2010 22:26:01 14.1 C 7.28 g/m*3 14.1 C 0 km/h
2511 04-09-2010 22:38:02 14 C 7.36 g/m*3 14 C 0 km/h
2512 04-09-2010 22:50:02 13.5 C 7.25 g/m*3 13.5 C 0 km/h
2513 04-09-2010 23:03:03 13.5 C 7.49 g/m*3 13.5 C 0 km/h
2514 04-09-2010 23:15:03 13.2 C 7.46 g/m*3 13.2 C 0 km/h
2515 04-09-2010 23:27:03 13.1 C 7.53 g/m*3 13.1 C 0 km/h
2516 04-09-2010 23:39:03 13 C 7.71 g/m*3 13 C 0 km/h
2517 04-09-2010 23:51:03 12.8 C 7.73 g/m*3 12.8 C 0 km/h
2518 05-09-2010 00:03:03 12.7 C 7.68 g/m*3 12.7 C 0 km/h
2519 05-09-2010 00:15:03 12.3 C 7.49 g/m*3 12.3 C 0 km/h
2520 05-09-2010 00:27:03 12.1 C 7.61 g/m*3 12.1 C 0 km/h
2521 05-09-2010 00:39:03 11.9 C 7.63 g/m*3 11.9 C 0 km/h
2522 05-09-2010 00:51:03 11.8 C 7.68 g/m*3 11.8 C 0 km/h
2523 05-09-2010 01:03:03 11.6 C 7.59 g/m*3 11.6 C 0 km/h
2524 05-09-2010 01:15:03 11.4 C 7.49 g/m*3 11.4 C 0 km/h
2525 05-09-2010 01:27:03 11.2 C 7.6 g/m*3 11.2 C 0 km/h
Sensor: Nr:Datum:Temp:Abs-Feuchte:Windchill:Wind:
Aussen-T/F 2526 05-09-2010 01:39:03 11 C 7.51 g/m*3 11 C 0 km/h
2527 05-09-2010 01:51:03 10.9 C 7.46 g/m*3 10.9 C 0 km/h
2528 05-09-2010 02:03:03 10.8 C 7.61 g/m*3 10.8 C 0 km/h
2529 05-09-2010 02:15:03 10.6 C 7.52 g/m*3 10.6 C 0 km/h
2530 05-09-2010 02:27:04 10.4 C 7.52 g/m*3 10.4 C 0 km/h
2531 05-09-2010 02:39:04 10.3 C 7.47 g/m*3 10.3 C 0 km/h
2532 05-09-2010 02:51:04 10.1 C 7.47 g/m*3 10.1 C 0 km/h
2533 05-09-2010 03:03:04 10 C 7.33 g/m*3 10 C 0 km/h
2534 05-09-2010 03:15:04 9.8 C 7.42 g/m*3 9.8 C 0 km/h
2535 05-09-2010 03:27:04 9.7 C 7.47 g/m*3 9.7 C 0 km/h
2536 05-09-2010 03:39:04 9.6 C 7.42 g/m*3 9.6 C 0 km/h
2537 05-09-2010 03:51:04 9.5 C 7.37 g/m*3 9.5 C 0 km/h
2538 05-09-2010 04:03:04 9.2 C 7.23 g/m*3 9.2 C 0 km/h
2539 05-09-2010 04:15:04 9.2 C 7.23 g/m*3 9.2 C 0 km/h
2540 05-09-2010 04:27:04 9.2 C 7.32 g/m*3 9.2 C 0 km/h
2541 05-09-2010 04:39:04 9.1 C 7.28 g/m*3 9.1 C 0 km/h
2542 05-09-2010 04:51:04 8.9 C 7.27 g/m*3 8.9 C 0 km/h
2543 05-09-2010 05:03:04 8.9 C 7.27 g/m*3 8.9 C 0 km/h
2544 05-09-2010 05:15:04 8.8 C 7.31 g/m*3 8.8 C 0 km/h
2545 05-09-2010 05:27:04 8.5 C 7.17 g/m*3 8.5 C 0 km/h
2546 05-09-2010 05:39:04 8.5 C 7.26 g/m*3 8.5 C 0 km/h
2547 05-09-2010 05:51:04 8.5 C 7.34 g/m*3 8.5 C 0 km/h
2548 05-09-2010 06:03:04 8.3 C 7.33 g/m*3 8.3 C 0 km/h
2549 05-09-2010 06:15:04 8.1 C 7.24 g/m*3 8.1 C 0 km/h
2550 05-09-2010 06:27:04 8.1 C 7.24 g/m*3 8.1 C 0 km/h
Sensor: Nr:Datum:Temp:Abs-Feuchte:Windchill:Wind:
Aussen-T/F 2551 05-09-2010 06:39:04 8 C 7.19 g/m*3 8 C 0 km/h
2552 05-09-2010 06:51:05 7.9 C 7.23 g/m*3 7.9 C 0 km/h
2553 05-09-2010 07:03:05 7.9 C 7.23 g/m*3 7.9 C 0 km/h
2554 05-09-2010 07:15:05 8.2 C 7.37 g/m*3 8.2 C 0 km/h
2555 05-09-2010 07:27:05 8.5 C 7.6 g/m*3 8.5 C 0 km/h
2556 05-09-2010 07:39:02 8.6 C 7.65 g/m*3 8.6 C 0 km/h
2557 05-09-2010 07:51:02 8.8 C 7.75 g/m*3 8.8 C 0 km/h
2558 05-09-2010 08:03:02 9.2 C 7.86 g/m*3 9.2 C 0 km/h
2559 05-09-2010 08:15:01 9.5 C 7.92 g/m*3 9.5 C 0 km/h
2560 05-09-2010 08:27:01 9.9 C 8.03 g/m*3 9.9 C 0 km/h
2561 05-09-2010 08:39:02 10 C 7.8 g/m*3 10 C 0 km/h
2562 05-09-2010 08:51:01 10.5 C 7.95 g/m*3 10.5 C 0 km/h
2563 05-09-2010 09:03:01 10.7 C 7.96 g/m*3 10.7 C 0 km/h
2564 05-09-2010 09:15:01 11.1 C 7.86 g/m*3 11.1 C 0 km/h
2565 05-09-2010 09:27:01 11.2 C 7.8 g/m*3 11.2 C 0 km/h
2566 05-09-2010 09:39:01 11.3 C 7.85 g/m*3 11.3 C 0 km/h
2567 05-09-2010 09:51:01 11.2 C 7.91 g/m*3 11.2 C 0 km/h
2568 05-09-2010 10:03:02 11.2 C 8.01 g/m*3 11.2 C 0 km/h
2569 05-09-2010 10:15:01 11.8 C 8.42 g/m*3 11.8 C 0 km/h
2570 05-09-2010 10:27:01 12.3 C 8.47 g/m*3 12.3 C 0 km/h
2571 05-09-2010 10:39:01 12.9 C 8.68 g/m*3 12.9 C 0 km/h
2572 05-09-2010 10:51:02 13.6 C 8.59 g/m*3 13.6 C 0 km/h
2573 05-09-2010 11:03:02 14.3 C 8.48 g/m*3 14.3 C 0 km/h
2574 05-09-2010 11:15:01 15.1 C 8.51 g/m*3 15.1 C 0 km/h
2575 05-09-2010 11:27:01 15.4 C 8.41 g/m*3 15.4 C 0 km/h
Sensor: Nr:Datum:Temp:Abs-Feuchte:Windchill:Wind:
Aussen-T/F 2576 05-09-2010 11:39:02 15.9 C 8.13 g/m*3 15.9 C 0 km/h
2577 05-09-2010 11:51:02 16.4 C 7.12 g/m*3 16.4 C 0 km/h
2578 05-09-2010 12:03:02 17.2 C 7.18 g/m*3 17.2 C 0 km/h
2579 05-09-2010 12:15:02 17.6 C 6.6 g/m*3 17.6 C 0 km/h
2580 05-09-2010 12:27:02 18.2 C 6.53 g/m*3 18.2 C 0 km/h
2581 05-09-2010 12:39:02 18.5 C 6.33 g/m*3 18.5 C 0 km/h
2582 05-09-2010 12:51:01 18.6 C 5.89 g/m*3 18.6 C 0 km/h
2583 05-09-2010 13:03:02 19.3 C 6.47 g/m*3 19.3 C 0 km/h
2584 05-09-2010 13:15:02 19.4 C 6.01 g/m*3 19.4 C 0 km/h
2585 05-09-2010 13:27:02 20 C 5.88 g/m*3 20 C 0 km/h
2586 05-09-2010 13:39:01 20.6 C 5.55 g/m*3 20.6 C 0 km/h
2587 05-09-2010 13:51:01 21.4 C 5.62 g/m*3 21.4 C 0 km/h
2588 05-09-2010 14:03:01 22.3 C 5.53 g/m*3 22.3 C 0 km/h
2589 05-09-2010 14:15:02 22.9 C 5.31 g/m*3 22.9 C 0 km/h
2590 05-09-2010 14:27:02 23.3 C 5.02 g/m*3 23.3 C 0 km/h
2591 05-09-2010 14:39:01 24.2 C 5.06 g/m*3 24.2 C 0 km/h
2592 05-09-2010 14:51:03 24.8 C 5.01 g/m*3 24.8 C 0 km/h
2593 05-09-2010 15:03:02 24.8 C 5.46 g/m*3 24.8 C 0 km/h
2594 05-09-2010 15:15:02 23.7 C 4.92 g/m*3 23.7 C 0 km/h
2595 05-09-2010 15:27:02 24 C 4.79 g/m*3 24 C 0 km/h
2596 05-09-2010 15:39:02 24.4 C 4.45 g/m*3 24.4 C 0 km/h
2597 05-09-2010 15:51:02 23.9 C 4.54 g/m*3 23.9 C 0 km/h
2598 05-09-2010 16:03:01 24.1 C 4.38 g/m*3 24.1 C 0 km/h
2599 05-09-2010 16:15:02 24.4 C 4.67 g/m*3 24.4 C 0 km/h
2600 05-09-2010 16:27:02 25 C 4.83 g/m*3 25 C 0 km/h
Sensor: Nr:Datum:Temp:Abs-Feuchte:Windchill:Wind:
Aussen-T/F 2601 05-09-2010 16:39:02 25 C 4.83 g/m*3 25 C 0 km/h
2602 05-09-2010 16:51:01 23.5 C 4.65 g/m*3 23.5 C 0 km/h
2603 05-09-2010 17:03:02 24.7 C 4.75 g/m*3 24.7 C 0 km/h
2604 05-09-2010 17:15:01 24.7 C 5.21 g/m*3 24.7 C 0 km/h
2605 05-09-2010 17:27:01 24 C 5.44 g/m*3 24 C 0 km/h
2606 05-09-2010 17:39:02 24.6 C 5.18 g/m*3 24.6 C 0 km/h
2607 05-09-2010 17:51:01 25 C 4.6 g/m*3 25 C 0 km/h
2608 05-09-2010 18:03:02 25.7 C 5.51 g/m*3 25.7 C 0 km/h
2609 05-09-2010 18:15:01 26 C 4.87 g/m*3 26 C 0 km/h
2610 05-09-2010 18:27:01 25.4 C 4.71 g/m*3 25.4 C 0 km/h
2611 05-09-2010 18:39:02 24.1 C 5.03 g/m*3 24.1 C 0 km/h
2612 05-09-2010 18:51:01 23 C 6.17 g/m*3 23 C 0 km/h
2613 05-09-2010 19:03:02 21.9 C 6.37 g/m*3 21.9 C 0 km/h
2614 05-09-2010 19:15:02 20.1 C 6.26 g/m*3 20.1 C 0 km/h
2615 05-09-2010 19:27:02 19.2 C 6.43 g/m*3 19.2 C 0 km/h
2616 05-09-2010 19:39:02 18.2 C 6.37 g/m*3 18.2 C 0 km/h
2617 05-09-2010 19:51:02 17.5 C 6.41 g/m*3 17.5 C 0 km/h
2618 05-09-2010 20:03:01 17 C 6.37 g/m*3 17 C 0 km/h
2619 05-09-2010 20:15:02 16.6 C 6.36 g/m*3 16.6 C 0 km/h
2620 05-09-2010 20:27:03 16.6 C 6.36 g/m*3 16.6 C 0 km/h
2621 05-09-2010 20:39:01 16.2 C 6.34 g/m*3 16.2 C 0 km/h
2622 05-09-2010 20:51:02 15.8 C 6.46 g/m*3 15.8 C 0 km/h
2623 05-09-2010 21:03:01 15.3 C 6.66 g/m*3 15.3 C 0 km/h
2624 05-09-2010 21:15:01 15.1 C 6.71 g/m*3 15.1 C 0 km/h
2625 05-09-2010 21:27:01 14.9 C 6.75 g/m*3 14.9 C 0 km/h
Sensor: Nr:Datum:Temp:Abs-Feuchte:Windchill:Wind:
Aussen-T/F 2626 05-09-2010 21:39:02 14.7 C 6.92 g/m*3 14.7 C 0 km/h
2627 05-09-2010 21:51:02 14.5 C 6.96 g/m*3 14.5 C 0 km/h
2628 05-09-2010 22:03:02 14.4 C 7.05 g/m*3 14.4 C 0 km/h
2629 05-09-2010 22:15:02 14.2 C 7.08 g/m*3 14.2 C 0 km/h
2630 05-09-2010 22:27:02 14 C 7.12 g/m*3 14 C 0 km/h
2631 05-09-2010 22:40:03 14 C 7.12 g/m*3 14 C 0 km/h
2632 05-09-2010 22:52:03 14 C 7.12 g/m*3 14 C 0 km/h
2633 05-09-2010 23:04:03 14 C 7 g/m*3 14 C 0 km/h
2634 05-09-2010 23:16:03 14.1 C 6.92 g/m*3 14.1 C 0 km/h
2635 05-09-2010 23:28:03 14.1 C 6.92 g/m*3 14.1 C 0 km/h
2636 05-09-2010 23:40:03 13.7 C 6.87 g/m*3 13.7 C 0 km/h
2637 05-09-2010 23:52:03 13.8 C 6.91 g/m*3 13.8 C 0 km/h
2638 06-09-2010 00:04:03 13.6 C 7.06 g/m*3 13.6 C 0 km/h
2639 06-09-2010 00:16:03 13.4 C 7.09 g/m*3 13.4 C 0 km/h
2640 06-09-2010 00:28:03 13.2 C 7.12 g/m*3 13.2 C 0 km/h
2641 06-09-2010 00:40:03 13.1 C 7.07 g/m*3 13.1 C 0 km/h
2642 06-09-2010 00:52:03 12.8 C 7.06 g/m*3 12.8 C 0 km/h
2643 06-09-2010 01:04:03 12.7 C 7.12 g/m*3 12.7 C 0 km/h
2644 06-09-2010 01:16:03 12.5 C 7.15 g/m*3 12.5 C 0 km/h
2645 06-09-2010 01:28:03 12.3 C 7.06 g/m*3 12.3 C 0 km/h
2646 06-09-2010 01:40:03 12.2 C 7.12 g/m*3 12.2 C 0 km/h
2647 06-09-2010 01:52:03 12.1 C 7.08 g/m*3 12.1 C 0 km/h
2648 06-09-2010 02:04:03 12 C 7.14 g/m*3 12 C 0 km/h
2649 06-09-2010 02:16:04 11.8 C 7.26 g/m*3 11.8 C 0 km/h
2650 06-09-2010 02:28:04 11.6 C 7.17 g/m*3 11.6 C 0 km/h
Sensor: Nr:Datum:Temp:Abs-Feuchte:Windchill:Wind:
Aussen-T/F 2651 06-09-2010 02:40:04 11.5 C 7.23 g/m*3 11.5 C 0 km/h
2652 06-09-2010 02:52:04 11.2 C 7.2 g/m*3 11.2 C 0 km/h
2653 06-09-2010 03:04:04 11.2 C 7.2 g/m*3 11.2 C 0 km/h
2654 06-09-2010 03:16:04 11.2 C 7.2 g/m*3 11.2 C 0 km/h
2655 06-09-2010 03:28:04 11.1 C 7.15 g/m*3 11.1 C 0 km/h
2656 06-09-2010 03:40:04 11 C 7.11 g/m*3 11 C 0 km/h
2657 06-09-2010 03:52:04 11 C 7.11 g/m*3 11 C 0 km/h
2658 06-09-2010 04:04:04 11 C 7.11 g/m*3 11 C 0 km/h
2659 06-09-2010 04:16:04 10.8 C 7.12 g/m*3 10.8 C 0 km/h
2660 06-09-2010 04:28:04 10.7 C 7.07 g/m*3 10.7 C 0 km/h
2661 06-09-2010 04:40:04 10.6 C 7.12 g/m*3 10.6 C 0 km/h
2662 06-09-2010 04:52:04 10.4 C 7.04 g/m*3 10.4 C 0 km/h
2663 06-09-2010 05:04:04 10.3 C 7.09 g/m*3 10.3 C 0 km/h
2664 06-09-2010 05:16:04 10.4 C 7.13 g/m*3 10.4 C 0 km/h
2665 06-09-2010 05:28:04 10.2 C 6.95 g/m*3 10.2 C 0 km/h
2666 06-09-2010 05:40:04 10.2 C 6.95 g/m*3 10.2 C 0 km/h
2667 06-09-2010 05:52:04 10.1 C 7 g/m*3 10.1 C 0 km/h
2668 06-09-2010 06:04:04 9.8 C 6.96 g/m*3 9.8 C 0 km/h
2669 06-09-2010 06:16:04 9.7 C 7.01 g/m*3 9.7 C 0 km/h
2670 06-09-2010 06:28:04 9.5 C 7.01 g/m*3 9.5 C 0 km/h
2671 06-09-2010 06:40:05 9.5 C 7.01 g/m*3 9.5 C 0 km/h
2672 06-09-2010 06:52:05 9.3 C 7.01 g/m*3 9.3 C 0 km/h
2673 06-09-2010 07:04:05 9.2 C 6.97 g/m*3 9.2 C 0 km/h
2674 06-09-2010 07:16:03 9.3 C 7.1 g/m*3 9.3 C 0 km/h
2675 06-09-2010 07:28:03 9.3 C 7.1 g/m*3 9.3 C 0 km/h
Sensor: Nr:Datum:Temp:Abs-Feuchte:Windchill:Wind:
Aussen-T/F 2676 06-09-2010 07:40:03 9.3 C 7.1 g/m*3 9.3 C 0 km/h
2677 06-09-2010 07:52:01 9.3 C 7.1 g/m*3 9.3 C 0 km/h
2678 06-09-2010 08:04:02 9.4 C 7.15 g/m*3 9.4 C 0 km/h
2679 06-09-2010 08:16:01 9.6 C 7.24 g/m*3 9.6 C 0 km/h
2680 06-09-2010 08:28:01 9.6 C 7.24 g/m*3 9.6 C 0 km/h
2681 06-09-2010 08:40:02 9.8 C 7.24 g/m*3 9.8 C 0 km/h
2682 06-09-2010 08:52:02 10 C 7.24 g/m*3 10 C 0 km/h
2683 06-09-2010 09:04:02 10.2 C 7.33 g/m*3 10.2 C 0 km/h
2684 06-09-2010 09:16:01 10.5 C 7.47 g/m*3 10.5 C 0 km/h
2685 06-09-2010 09:28:01 10.8 C 7.51 g/m*3 10.8 C 0 km/h
2686 06-09-2010 09:40:02 11.3 C 7.55 g/m*3 11.3 C 0 km/h
2687 06-09-2010 09:52:02 11.9 C 7.73 g/m*3 11.9 C 0 km/h
2688 06-09-2010 10:04:02 12.5 C 7.59 g/m*3 12.5 C 0 km/h
2689 06-09-2010 10:16:02 13.1 C 7.53 g/m*3 13.1 C 0 km/h
2690 06-09-2010 10:28:02 13.5 C 7.37 g/m*3 13.5 C 0 km/h
2691 06-09-2010 10:40:02 13.9 C 7.67 g/m*3 13.9 C 0 km/h
2692 06-09-2010 10:52:02 14.4 C 7.42 g/m*3 14.4 C 0 km/h
2693 06-09-2010 11:04:02 15.2 C 7.4 g/m*3 15.2 C 0 km/h
2694 06-09-2010 11:16:02 15.8 C 7.27 g/m*3 15.8 C 0 km/h
2695 06-09-2010 11:28:02 16.2 C 7.45 g/m*3 16.2 C 0 km/h
2696 06-09-2010 11:40:01 16.9 C 6.76 g/m*3 16.9 C 0 km/h
2697 06-09-2010 11:52:02 17.5 C 6.71 g/m*3 17.5 C 0 km/h
2698 06-09-2010 12:04:01 18.1 C 5.87 g/m*3 18.1 C 0 km/h
2699 06-09-2010 12:16:02 18.5 C 5.7 g/m*3 18.5 C 0 km/h
2700 06-09-2010 12:28:02 18.7 C 5.6 g/m*3 18.7 C 0 km/h
Sensor: Nr:Datum:Temp:Abs-Feuchte:Windchill:Wind:
Aussen-T/F 2701 06-09-2010 12:40:02 18.9 C 5.35 g/m*3 18.9 C 0 km/h
2702 06-09-2010 12:52:02 19 C 5.38 g/m*3 19 C 0 km/h
2703 06-09-2010 13:04:03 19.3 C 5.31 g/m*3 19.3 C 0 km/h
2704 06-09-2010 13:16:02 19.7 C 5.6 g/m*3 19.7 C 0 km/h
2705 06-09-2010 13:28:02 20.1 C 5.56 g/m*3 20.1 C 0 km/h
2706 06-09-2010 13:40:02 20.8 C 5.43 g/m*3 20.8 C 0 km/h
2707 06-09-2010 13:52:01 21.3 C 5.03 g/m*3 21.3 C 0 km/h
2708 06-09-2010 14:04:02 21.6 C 4.74 g/m*3 21.6 C 0 km/h
2709 06-09-2010 14:16:01 21.9 C 4.82 g/m*3 21.9 C 0 km/h
2710 06-09-2010 14:28:01 22.3 C 4.54 g/m*3 22.3 C 0 km/h
2711 06-09-2010 14:40:02 22.7 C 4.24 g/m*3 22.7 C 0 km/h
2712 06-09-2010 14:52:01 23.2 C 4.16 g/m*3 23.2 C 0 km/h
2713 06-09-2010 15:04:02 23.6 C 4.25 g/m*3 23.6 C 0 km/h
2714 06-09-2010 15:16:02 23.9 C 4.33 g/m*3 23.9 C 0 km/h
2715 06-09-2010 15:28:02 24.1 C 4.38 g/m*3 24.1 C 0 km/h
2716 06-09-2010 15:40:01 24.3 C 4.43 g/m*3 24.3 C 0 km/h
2717 06-09-2010 15:52:01 24.1 C 4.38 g/m*3 24.1 C 0 km/h
2718 06-09-2010 16:04:01 24 C 4.35 g/m*3 24 C 0 km/h
2719 06-09-2010 16:16:02 23.8 C 4.3 g/m*3 23.8 C 0 km/h
2720 06-09-2010 16:28:02 23.7 C 4.28 g/m*3 23.7 C 0 km/h
2721 06-09-2010 16:40:01 23.9 C 4.33 g/m*3 23.9 C 0 km/h
2722 06-09-2010 16:52:02 24 C 4.35 g/m*3 24 C 0 km/h
2723 06-09-2010 17:04:01 24.5 C 4.48 g/m*3 24.5 C 0 km/h
2724 06-09-2010 17:16:01 24.7 C 4.53 g/m*3 24.7 C 0 km/h
2725 06-09-2010 17:28:01 25.4 C 4.71 g/m*3 25.4 C 0 km/h
Sensor: Nr:Datum:Temp:Abs-Feuchte:Windchill:Wind:
Aussen-T/F 2726 06-09-2010 17:40:01 24.2 C 4.4 g/m*3 24.2 C 0 km/h
2727 06-09-2010 17:52:02 23.3 C 4.18 g/m*3 23.3 C 0 km/h
2728 06-09-2010 18:04:02 22.6 C 4.82 g/m*3 22.6 C 0 km/h
2729 06-09-2010 18:16:02 21.5 C 4.9 g/m*3 21.5 C 0 km/h
2730 06-09-2010 18:28:02 21.1 C 5.53 g/m*3 21.1 C 0 km/h
2731 06-09-2010 18:40:02 21.2 C 5.37 g/m*3 21.2 C 0 km/h
2732 06-09-2010 18:52:01 20.8 C 5.98 g/m*3 20.8 C 0 km/h
2733 06-09-2010 19:04:02 20 C 6.05 g/m*3 20 C 0 km/h
2734 06-09-2010 19:16:01 19.1 C 5.9 g/m*3 19.1 C 0 km/h
2735 06-09-2010 19:28:01 18.7 C 5.76 g/m*3 18.7 C 0 km/h
2736 06-09-2010 19:40:02 18.1 C 5.87 g/m*3 18.1 C 0 km/h
2737 06-09-2010 19:52:01 17.7 C 5.73 g/m*3 17.7 C 0 km/h
2738 06-09-2010 20:04:02 17.6 C 5.55 g/m*3 17.6 C 0 km/h
2739 06-09-2010 20:16:01 17.3 C 5.6 g/m*3 17.3 C 0 km/h
2740 06-09-2010 20:28:01 17.1 C 5.68 g/m*3 17.1 C 0 km/h
2741 06-09-2010 20:40:02 16.9 C 5.61 g/m*3 16.9 C 0 km/h
2742 06-09-2010 20:52:01 16.6 C 5.65 g/m*3 16.6 C 0 km/h
2743 06-09-2010 21:04:02 16.5 C 5.2 g/m*3 16.5 C 0 km/h
2744 06-09-2010 21:16:02 16.4 C 5.44 g/m*3 16.4 C 0 km/h
2745 06-09-2010 21:28:02 16.2 C 5.52 g/m*3 16.2 C 0 km/h
2746 06-09-2010 21:41:03 16.1 C 5.48 g/m*3 16.1 C 0 km/h
2747 06-09-2010 21:53:03 15.9 C 5.55 g/m*3 15.9 C 0 km/h
2748 06-09-2010 22:05:03 15.7 C 5.62 g/m*3 15.7 C 0 km/h
2749 06-09-2010 22:17:03 15.6 C 5.59 g/m*3 15.6 C 0 km/h
2750 06-09-2010 22:29:03 15.6 C 5.59 g/m*3 15.6 C 0 km/h
Sensor: Nr:Datum:Temp:Abs-Feuchte:Windchill:Wind:
Aussen-T/F 2751 06-09-2010 22:41:03 15.3 C 5.62 g/m*3 15.3 C 0 km/h
2752 06-09-2010 22:53:03 15.3 C 5.62 g/m*3 15.3 C 0 km/h
2753 06-09-2010 23:05:03 15.2 C 5.71 g/m*3 15.2 C 0 km/h
2754 06-09-2010 23:17:03 15.1 C 5.68 g/m*3 15.1 C 0 km/h
2755 06-09-2010 23:29:03 15.2 C 5.58 g/m*3 15.2 C 0 km/h
2756 06-09-2010 23:41:03 15.3 C 5.48 g/m*3 15.3 C 0 km/h
2757 06-09-2010 23:53:03 15.2 C 5.71 g/m*3 15.2 C 0 km/h
2758 07-09-2010 00:05:03 15.2 C 5.71 g/m*3 15.2 C 0 km/h
2759 07-09-2010 00:17:03 15.4 C 5.52 g/m*3 15.4 C 0 km/h
2760 07-09-2010 00:29:03 15.4 C 5.52 g/m*3 15.4 C 0 km/h
2761 07-09-2010 00:41:03 15.5 C 5.42 g/m*3 15.5 C 0 km/h
2762 07-09-2010 00:53:03 15.4 C 5.39 g/m*3 15.4 C 0 km/h
2763 07-09-2010 01:05:03 15.4 C 5.52 g/m*3 15.4 C 0 km/h
2764 07-09-2010 01:17:04 15.4 C 5.39 g/m*3 15.4 C 0 km/h
2765 07-09-2010 01:29:04 15.4 C 5.39 g/m*3 15.4 C 0 km/h
2766 07-09-2010 01:41:04 15.4 C 5.39 g/m*3 15.4 C 0 km/h
2767 07-09-2010 01:53:04 15.5 C 5.29 g/m*3 15.5 C 0 km/h
2768 07-09-2010 02:05:04 15.5 C 5.29 g/m*3 15.5 C 0 km/h
2769 07-09-2010 02:17:04 15.5 C 5.29 g/m*3 15.5 C 0 km/h
2770 07-09-2010 02:29:04 15.5 C 5.55 g/m*3 15.5 C 0 km/h
2771 07-09-2010 02:41:04 15.4 C 5.39 g/m*3 15.4 C 0 km/h
2772 07-09-2010 02:53:04 15.4 C 5.39 g/m*3 15.4 C 0 km/h
2773 07-09-2010 03:05:04 15.4 C 5.52 g/m*3 15.4 C 0 km/h
2774 07-09-2010 03:17:04 15.4 C 5.26 g/m*3 15.4 C 0 km/h
2775 07-09-2010 03:29:04 14.8 C 5.7 g/m*3 14.8 C 0 km/h
Sensor: Nr:Datum:Temp:Abs-Feuchte:Windchill:Wind:
Aussen-T/F 2776 07-09-2010 03:41:04 13.3 C 6.47 g/m*3 13.3 C 0 km/h
2777 07-09-2010 03:53:04 12.8 C 6.94 g/m*3 12.8 C 0 km/h
2778 07-09-2010 04:05:04 13.1 C 6.85 g/m*3 13.1 C 0 km/h
2779 07-09-2010 04:17:04 13.4 C 6.97 g/m*3 13.4 C 0 km/h
2780 07-09-2010 04:29:04 13.1 C 6.62 g/m*3 13.1 C 0 km/h
2781 07-09-2010 04:41:04 12.8 C 7.28 g/m*3 12.8 C 0 km/h
2782 07-09-2010 04:53:04 12.9 C 7.33 g/m*3 12.9 C 0 km/h
2783 07-09-2010 05:05:04 12.9 C 7.21 g/m*3 12.9 C 0 km/h
2784 07-09-2010 05:17:04 13 C 7.26 g/m*3 13 C 0 km/h
2785 07-09-2010 05:29:05 13 C 7.03 g/m*3 13 C 0 km/h
2786 07-09-2010 05:41:05 13.2 C 6.77 g/m*3 13.2 C 0 km/h
2787 07-09-2010 05:53:05 12.8 C 7.28 g/m*3 12.8 C 0 km/h
2788 07-09-2010 06:05:05 12.5 C 7.26 g/m*3 12.5 C 0 km/h
2789 07-09-2010 06:17:05 12.3 C 7.38 g/m*3 12.3 C 0 km/h
2790 07-09-2010 06:29:05 12.4 C 7.1 g/m*3 12.4 C 0 km/h
2791 07-09-2010 06:41:05 12.6 C 6.75 g/m*3 12.6 C 0 km/h
2792 07-09-2010 06:53:05 12.7 C 6.68 g/m*3 12.7 C 0 km/h
2793 07-09-2010 07:05:05 12.4 C 6.66 g/m*3 12.4 C 0 km/h
2794 07-09-2010 07:17:05 12.2 C 7.01 g/m*3 12.2 C 0 km/h
2795 07-09-2010 07:29:05 12.1 C 6.97 g/m*3 12.1 C 0 km/h
2796 07-09-2010 07:41:05 12 C 7.35 g/m*3 12 C 0 km/h
2797 07-09-2010 07:53:01 11.9 C 7.41 g/m*3 11.9 C 0 km/h
2798 07-09-2010 08:05:02 11.7 C 7.74 g/m*3 11.7 C 0 km/h
2799 07-09-2010 08:17:02 11.6 C 8.11 g/m*3 11.6 C 0 km/h
2800 07-09-2010 08:29:02 11.7 C 8.37 g/m*3 11.7 C 0 km/h
Sensor: Nr:Datum:Temp:Abs-Feuchte:Windchill:Wind:
Aussen-T/F 2801 07-09-2010 08:41:02 11.4 C 8.11 g/m*3 11.4 C 0 km/h
2802 07-09-2010 08:53:01 11.4 C 8.21 g/m*3 11.4 C 0 km/h
2803 07-09-2010 09:05:02 11.4 C 8.21 g/m*3 11.4 C 0 km/h
2804 07-09-2010 09:17:02 11.4 C 8.21 g/m*3 11.4 C 0 km/h
2805 07-09-2010 09:29:02 11.5 C 8.47 g/m*3 11.5 C 0 km/h
2806 07-09-2010 09:41:01 11.5 C 8.47 g/m*3 11.5 C 0 km/h
2807 07-09-2010 09:53:02 11.5 C 8.68 g/m*3 11.5 C 0 km/h
2808 07-09-2010 10:05:01 11.4 C 8.72 g/m*3 11.4 C 0 km/h
2809 07-09-2010 10:17:02 11.4 C 8.83 g/m*3 11.4 C 0 km/h
2810 07-09-2010 10:29:02 11.5 C 8.88 g/m*3 11.5 C 0 km/h
2811 07-09-2010 10:41:01 11.4 C 8.93 g/m*3 11.4 C 0 km/h
2812 07-09-2010 10:53:02 11.6 C 9.04 g/m*3 11.6 C 0 km/h
2813 07-09-2010 11:05:01 11.6 C 9.15 g/m*3 11.6 C 0 km/h
2814 07-09-2010 11:17:01 11.5 C 9.09 g/m*3 11.5 C 0 km/h
2815 07-09-2010 11:29:01 11.2 C 8.92 g/m*3 11.2 C 0 km/h
2816 07-09-2010 11:41:02 11.7 C 9.41 g/m*3 11.7 C 0 km/h
2817 07-09-2010 11:53:02 12.2 C 9.5 g/m*3 12.2 C 0 km/h
2818 07-09-2010 12:05:02 12 C 9.38 g/m*3 12 C 0 km/h
2819 07-09-2010 12:17:02 12.4 C 9.62 g/m*3 12.4 C 0 km/h
2820 07-09-2010 12:29:02 12.4 C 9.4 g/m*3 12.4 C 0 km/h
2821 07-09-2010 12:41:02 12.5 C 9.46 g/m*3 12.5 C 0 km/h
2822 07-09-2010 12:53:02 12.8 C 9.63 g/m*3 12.8 C 0 km/h
2823 07-09-2010 13:05:02 12.7 C 9.35 g/m*3 12.7 C 0 km/h
2824 07-09-2010 13:17:02 12.8 C 9.41 g/m*3 12.8 C 0 km/h
2825 07-09-2010 13:29:02 12.8 C 9.3 g/m*3 12.8 C 0 km/h
Sensor: Nr:Datum:Temp:Abs-Feuchte:Windchill:Wind:
Aussen-T/F 2826 07-09-2010 13:41:02 12.7 C 9.13 g/m*3 12.7 C 0 km/h
2827 07-09-2010 13:53:01 12.9 C 9.35 g/m*3 12.9 C 0 km/h
2828 07-09-2010 14:05:01 12.9 C 9.35 g/m*3 12.9 C 0 km/h
2829 07-09-2010 14:17:01 13.1 C 9.36 g/m*3 13.1 C 0 km/h
2830 07-09-2010 14:29:01 13.3 C 9.47 g/m*3 13.3 C 0 km/h
2831 07-09-2010 14:41:01 13.4 C 9.3 g/m*3 13.4 C 0 km/h
2832 07-09-2010 14:53:01 14.1 C 9.34 g/m*3 14.1 C 0 km/h
2833 07-09-2010 15:05:01 14.4 C 9.39 g/m*3 14.4 C 0 km/h
2834 07-09-2010 15:17:02 14.4 C 8.9 g/m*3 14.4 C 0 km/h
2835 07-09-2010 15:29:02 14.7 C 9.07 g/m*3 14.7 C 0 km/h
2836 07-09-2010 15:41:01 14.7 C 9.07 g/m*3 14.7 C 0 km/h
2837 07-09-2010 15:53:03 14.7 C 9.19 g/m*3 14.7 C 0 km/h
2838 07-09-2010 16:05:02 15.3 C 9.27 g/m*3 15.3 C 0 km/h
2839 07-09-2010 16:17:02 15.6 C 9.04 g/m*3 15.6 C 0 km/h
2840 07-09-2010 16:29:02 15.7 C 9.1 g/m*3 15.7 C 0 km/h
2841 07-09-2010 16:41:02 15.6 C 9.04 g/m*3 15.6 C 0 km/h
2842 07-09-2010 16:53:02 15.4 C 9.07 g/m*3 15.4 C 0 km/h
2843 07-09-2010 17:05:02 15.2 C 8.96 g/m*3 15.2 C 0 km/h
2844 07-09-2010 17:17:02 14.9 C 8.92 g/m*3 14.9 C 0 km/h
2845 07-09-2010 17:29:02 14.8 C 9.12 g/m*3 14.8 C 0 km/h
2846 07-09-2010 17:41:02 14.8 C 9.12 g/m*3 14.8 C 0 km/h
2847 07-09-2010 17:53:02 14.7 C 9.19 g/m*3 14.7 C 0 km/h
2848 07-09-2010 18:05:02 14.1 C 8.86 g/m*3 14.1 C 0 km/h
2849 07-09-2010 18:17:01 14 C 9.05 g/m*3 14 C 0 km/h
2850 07-09-2010 18:29:01 14 C 9.05 g/m*3 14 C 0 km/h
Sensor: Nr:Datum:Temp:Abs-Feuchte:Windchill:Wind:
Aussen-T/F 2851 07-09-2010 18:41:02 13.9 C 9.23 g/m*3 13.9 C 0 km/h
2852 07-09-2010 18:53:02 13.9 C 9.23 g/m*3 13.9 C 0 km/h
2853 07-09-2010 19:05:02 13.9 C 9.35 g/m*3 13.9 C 0 km/h
2854 07-09-2010 19:17:01 13.8 C 9.29 g/m*3 13.8 C 0 km/h
2855 07-09-2010 19:29:01 13.8 C 9.41 g/m*3 13.8 C 0 km/h
2856 07-09-2010 19:41:02 13.7 C 9.35 g/m*3 13.7 C 0 km/h
2857 07-09-2010 19:53:02 13.7 C 9.47 g/m*3 13.7 C 0 km/h
2858 07-09-2010 20:05:02 13.5 C 9.47 g/m*3 13.5 C 0 km/h
2859 07-09-2010 20:17:02 13.3 C 9.47 g/m*3 13.3 C 0 km/h
2860 07-09-2010 20:29:02 13.2 C 9.53 g/m*3 13.2 C 0 km/h
2861 07-09-2010 20:41:02 13.1 C 9.59 g/m*3 13.1 C 0 km/h
2862 07-09-2010 20:53:02 13.1 C 9.7 g/m*3 13.1 C 0 km/h
2863 07-09-2010 21:05:02 13 C 9.75 g/m*3 13 C 0 km/h
2864 07-09-2010 21:17:02 13 C 9.87 g/m*3 13 C 0 km/h
2865 07-09-2010 21:29:02 13 C 9.87 g/m*3 13 C 0 km/h
2866 07-09-2010 21:41:02 13 C 9.98 g/m*3 13 C 0 km/h
2867 07-09-2010 21:53:02 12.8 C 9.97 g/m*3 12.8 C 0 km/h
2868 07-09-2010 22:05:02 12.9 C 10.03 g/m*3 12.9 C 0 km/h
2869 07-09-2010 22:18:05 12.9 C 10.03 g/m*3 12.9 C 0 km/h
2870 07-09-2010 22:30:05 12.9 C 10.03 g/m*3 12.9 C 0 km/h
2871 07-09-2010 22:42:05 12.8 C 9.97 g/m*3 12.8 C 0 km/h
2872 07-09-2010 22:54:05 12.8 C 10.08 g/m*3 12.8 C 0 km/h
2873 07-09-2010 23:06:05 12.9 C 10.14 g/m*3 12.9 C 0 km/h
2874 07-09-2010 23:18:05 12.9 C 10.14 g/m*3 12.9 C 0 km/h
2875 07-09-2010 23:30:05 12.8 C 10.08 g/m*3 12.8 C 0 km/h
Sensor: Nr:Datum:Temp:Abs-Feuchte:Windchill:Wind:
Aussen-T/F 2876 07-09-2010 23:42:05 13 C 10.21 g/m*3 13 C 0 km/h
2877 07-09-2010 23:54:05 13 C 10.21 g/m*3 13 C 0 km/h
2878 08-09-2010 00:06:05 12.9 C 10.26 g/m*3 12.9 C 0 km/h
2879 08-09-2010 00:18:05 12.8 C 10.19 g/m*3 12.8 C 0 km/h
2880 08-09-2010 00:30:05 12.9 C 10.26 g/m*3 12.9 C 0 km/h
2881 08-09-2010 00:42:06 12.9 C 10.26 g/m*3 12.9 C 0 km/h
2882 08-09-2010 00:54:06 12.9 C 10.26 g/m*3 12.9 C 0 km/h
2883 08-09-2010 01:06:06 13 C 10.32 g/m*3 13 C 0 km/h
2884 08-09-2010 01:18:06 13 C 10.32 g/m*3 13 C 0 km/h
2885 08-09-2010 01:30:06 13 C 10.32 g/m*3 13 C 0 km/h
2886 08-09-2010 01:42:06 13 C 10.43 g/m*3 13 C 0 km/h
2887 08-09-2010 01:54:06 13 C 10.43 g/m*3 13 C 0 km/h
2888 08-09-2010 02:06:06 13.1 C 10.5 g/m*3 13.1 C 0 km/h
2889 08-09-2010 02:18:06 13.1 C 10.5 g/m*3 13.1 C 0 km/h
2890 08-09-2010 02:30:06 13.2 C 10.56 g/m*3 13.2 C 0 km/h
2891 08-09-2010 02:42:06 13.2 C 10.68 g/m*3 13.2 C 0 km/h
2892 08-09-2010 02:54:06 13.4 C 10.81 g/m*3 13.4 C 0 km/h
2893 08-09-2010 03:06:06 13.4 C 10.81 g/m*3 13.4 C 0 km/h
2894 08-09-2010 03:18:06 13.5 C 10.88 g/m*3 13.5 C 0 km/h
2895 08-09-2010 03:30:06 13.6 C 10.95 g/m*3 13.6 C 0 km/h
2896 08-09-2010 03:42:06 13.7 C 11.01 g/m*3 13.7 C 0 km/h
2897 08-09-2010 03:54:06 13.6 C 10.95 g/m*3 13.6 C 0 km/h
2898 08-09-2010 04:06:06 13.5 C 10.88 g/m*3 13.5 C 0 km/h
2899 08-09-2010 04:18:06 13.5 C 10.88 g/m*3 13.5 C 0 km/h
2900 08-09-2010 04:30:06 13.6 C 10.95 g/m*3 13.6 C 0 km/h
Sensor: Nr:Datum:Temp:Abs-Feuchte:Windchill:Wind:
Aussen-T/F 2901 08-09-2010 04:42:06 13.5 C 10.88 g/m*3 13.5 C 0 km/h
2902 08-09-2010 04:54:07 13.7 C 11.01 g/m*3 13.7 C 0 km/h
2903 08-09-2010 05:06:07 14.1 C 11.29 g/m*3 14.1 C 0 km/h
2904 08-09-2010 05:18:07 14 C 11.34 g/m*3 14 C 0 km/h
2905 08-09-2010 05:30:07 14.1 C 11.41 g/m*3 14.1 C 0 km/h
2906 08-09-2010 05:42:07 14.4 C 11.62 g/m*3 14.4 C 0 km/h
2907 08-09-2010 05:54:07 14.2 C 11.36 g/m*3 14.2 C 0 km/h
2908 08-09-2010 06:06:07 14.4 C 11.5 g/m*3 14.4 C 0 km/h
2909 08-09-2010 06:18:07 14.4 C 11.5 g/m*3 14.4 C 0 km/h
2910 08-09-2010 06:30:07 14.3 C 11.43 g/m*3 14.3 C 0 km/h
2911 08-09-2010 06:42:07 14.3 C 11.43 g/m*3 14.3 C 0 km/h
2912 08-09-2010 06:54:07 14.4 C 11.37 g/m*3 14.4 C 0 km/h
2913 08-09-2010 07:06:07 14.3 C 11.3 g/m*3 14.3 C 0 km/h
2914 08-09-2010 07:18:04 14.3 C 11.3 g/m*3 14.3 C 0 km/h
2915 08-09-2010 07:30:04 14.3 C 11.3 g/m*3 14.3 C 0 km/h
2916 08-09-2010 07:42:04 14.1 C 11.17 g/m*3 14.1 C 0 km/h
2917 08-09-2010 07:54:02 14.1 C 11.17 g/m*3 14.1 C 0 km/h
2918 08-09-2010 08:06:02 14.1 C 11.17 g/m*3 14.1 C 0 km/h
2919 08-09-2010 08:18:02 14.1 C 11.17 g/m*3 14.1 C 0 km/h
2920 08-09-2010 08:30:02 14.2 C 11.23 g/m*3 14.2 C 0 km/h
2921 08-09-2010 08:42:02 14.3 C 11.3 g/m*3 14.3 C 0 km/h
2922 08-09-2010 08:54:02 14.4 C 11.37 g/m*3 14.4 C 0 km/h
2923 08-09-2010 09:06:01 14.8 C 11.65 g/m*3 14.8 C 0 km/h
2924 08-09-2010 09:18:02 15 C 11.54 g/m*3 15 C 0 km/h
2925 08-09-2010 09:30:02 15.3 C 11.62 g/m*3 15.3 C 0 km/h
Sensor: Nr:Datum:Temp:Abs-Feuchte:Windchill:Wind:
Aussen-T/F 2926 08-09-2010 09:42:02 15.5 C 11.76 g/m*3 15.5 C 0 km/h
2927 08-09-2010 09:54:02 15.5 C 11.5 g/m*3 15.5 C 0 km/h
2928 08-09-2010 10:06:02 15.5 C 11.5 g/m*3 15.5 C 0 km/h
2929 08-09-2010 10:18:02 15.3 C 11.36 g/m*3 15.3 C 0 km/h
2930 08-09-2010 10:30:02 15.5 C 11.37 g/m*3 15.5 C 0 km/h
2931 08-09-2010 10:42:02 15.6 C 11.44 g/m*3 15.6 C 0 km/h
2932 08-09-2010 10:54:02 15.7 C 11.37 g/m*3 15.7 C 0 km/h
2933 08-09-2010 11:06:02 15.7 C 11.11 g/m*3 15.7 C 0 km/h
2934 08-09-2010 11:18:02 15.4 C 10.9 g/m*3 15.4 C 0 km/h
2935 08-09-2010 11:30:02 15.1 C 10.97 g/m*3 15.1 C 0 km/h
2936 08-09-2010 11:42:02 15 C 11.03 g/m*3 15 C 0 km/h
2937 08-09-2010 11:54:02 15 C 11.16 g/m*3 15 C 0 km/h
2938 08-09-2010 12:06:02 14.6 C 11.01 g/m*3 14.6 C 0 km/h
2939 08-09-2010 12:18:03 14.6 C 11.14 g/m*3 14.6 C 0 km/h
2940 08-09-2010 12:30:03 14.7 C 11.21 g/m*3 14.7 C 0 km/h
2941 08-09-2010 12:42:02 14.8 C 11.4 g/m*3 14.8 C 0 km/h
2942 08-09-2010 12:54:01 15 C 11.54 g/m*3 15 C 0 km/h
2943 08-09-2010 13:06:01 15.5 C 11.9 g/m*3 15.5 C 0 km/h
2944 08-09-2010 13:18:02 15.8 C 12.11 g/m*3 15.8 C 0 km/h
2945 08-09-2010 13:30:02 16.3 C 12.35 g/m*3 16.3 C 0 km/h
2946 08-09-2010 13:42:01 16.8 C 12.44 g/m*3 16.8 C 0 km/h
2947 08-09-2010 13:54:02 16.7 C 11.8 g/m*3 16.7 C 0 km/h
2948 08-09-2010 14:06:02 17.4 C 12 g/m*3 17.4 C 0 km/h
2949 08-09-2010 14:18:02 17.2 C 11.42 g/m*3 17.2 C 0 km/h
2950 08-09-2010 14:30:02 17 C 11.29 g/m*3 17 C 0 km/h
Sensor: Nr:Datum:Temp:Abs-Feuchte:Windchill:Wind:
Aussen-T/F 2951 08-09-2010 14:42:02 17.9 C 11.6 g/m*3 17.9 C 0 km/h
2952 08-09-2010 14:54:02 18.4 C 11.48 g/m*3 18.4 C 0 km/h
2953 08-09-2010 15:06:01 18.2 C 11.04 g/m*3 18.2 C 0 km/h
2954 08-09-2010 15:18:01 17.8 C 11.08 g/m*3 17.8 C 0 km/h
2955 08-09-2010 15:30:02 17.6 C 11.1 g/m*3 17.6 C 0 km/h
2956 08-09-2010 15:42:01 17.8 C 11.23 g/m*3 17.8 C 0 km/h
2957 08-09-2010 15:54:02 18.3 C 11.41 g/m*3 18.3 C 0 km/h
2958 08-09-2010 16:06:01 19 C 10.92 g/m*3 19 C 0 km/h
2959 08-09-2010 16:18:01 18.7 C 10.89 g/m*3 18.7 C 0 km/h
2960 08-09-2010 16:30:01 18.5 C 10.6 g/m*3 18.5 C 0 km/h
2961 08-09-2010 16:42:02 18.5 C 10.6 g/m*3 18.5 C 0 km/h
2962 08-09-2010 16:54:02 18 C 10.44 g/m*3 18 C 0 km/h
2963 08-09-2010 17:06:02 19.3 C 10.45 g/m*3 19.3 C 0 km/h
2964 08-09-2010 17:18:02 20.4 C 10.08 g/m*3 20.4 C 0 km/h
2965 08-09-2010 17:30:02 20.5 C 10.14 g/m*3 20.5 C 0 km/h
2966 08-09-2010 17:42:02 19.5 C 10.07 g/m*3 19.5 C 0 km/h
2967 08-09-2010 17:54:02 19.7 C 10.36 g/m*3 19.7 C 0 km/h
2968 08-09-2010 18:06:02 19.3 C 10.28 g/m*3 19.3 C 0 km/h
2969 08-09-2010 18:18:01 20.2 C 9.97 g/m*3 20.2 C 0 km/h
2970 08-09-2010 18:30:01 19.3 C 10.12 g/m*3 19.3 C 0 km/h
2971 08-09-2010 18:42:02 18.3 C 10.16 g/m*3 18.3 C 0 km/h
2972 08-09-2010 18:54:02 18.2 C 10.57 g/m*3 18.2 C 0 km/h
2973 08-09-2010 19:06:02 18.6 C 10.66 g/m*3 18.6 C 0 km/h
2974 08-09-2010 19:18:01 18.7 C 10.57 g/m*3 18.7 C 0 km/h
2975 08-09-2010 19:30:01 18.3 C 10.48 g/m*3 18.3 C 0 km/h
Sensor: Nr:Datum:Temp:Abs-Feuchte:Windchill:Wind:
Aussen-T/F 2976 08-09-2010 19:42:02 17.9 C 10.69 g/m*3 17.9 C 0 km/h
2977 08-09-2010 19:54:02 17.5 C 10.29 g/m*3 17.5 C 0 km/h
2978 08-09-2010 20:06:03 17.4 C 10.52 g/m*3 17.4 C 0 km/h
2979 08-09-2010 20:18:02 17 C 10.42 g/m*3 17 C 0 km/h
2980 08-09-2010 20:30:02 16.7 C 10.66 g/m*3 16.7 C 0 km/h
2981 08-09-2010 20:42:02 16.6 C 10.74 g/m*3 16.6 C 0 km/h
2982 08-09-2010 20:54:01 16.3 C 10.27 g/m*3 16.3 C 0 km/h
2983 08-09-2010 21:06:01 15.9 C 10.02 g/m*3 15.9 C 0 km/h
2984 08-09-2010 21:18:01 15.8 C 9.69 g/m*3 15.8 C 0 km/h
2985 08-09-2010 21:30:01 15.7 C 9.63 g/m*3 15.7 C 0 km/h
2986 08-09-2010 21:42:01 15.7 C 9.63 g/m*3 15.7 C 0 km/h
2987 08-09-2010 21:54:01 15.5 C 9.52 g/m*3 15.5 C 0 km/h
2988 08-09-2010 22:06:01 15.2 C 9.48 g/m*3 15.2 C 0 km/h
2989 08-09-2010 22:18:02 14.9 C 9.56 g/m*3 14.9 C 0 km/h
2990 08-09-2010 22:30:02 14.6 C 9.76 g/m*3 14.6 C 0 km/h
2991 08-09-2010 22:42:02 14.5 C 9.95 g/m*3 14.5 C 0 km/h
2992 08-09-2010 22:55:02 14.7 C 10.2 g/m*3 14.7 C 0 km/h
2993 08-09-2010 23:07:02 14.5 C 9.95 g/m*3 14.5 C 0 km/h
2994 08-09-2010 23:19:02 14.5 C 10.07 g/m*3 14.5 C 0 km/h
2995 08-09-2010 23:31:02 14.6 C 10.01 g/m*3 14.6 C 0 km/h
2996 08-09-2010 23:43:02 14.5 C 10.07 g/m*3 14.5 C 0 km/h
2997 08-09-2010 23:55:03 14.3 C 9.95 g/m*3 14.3 C 0 km/h
2998 09-09-2010 00:07:03 14.4 C 10.14 g/m*3 14.4 C 0 km/h
2999 09-09-2010 00:19:03 14.4 C 10.14 g/m*3 14.4 C 0 km/h
3000 09-09-2010 00:31:03 14.1 C 10.07 g/m*3 14.1 C 0 km/h
Sensor: Nr:Datum:Temp:Abs-Feuchte:Windchill:Wind:
Aussen-T/F 3001 09-09-2010 00:43:03 14.5 C 10.32 g/m*3 14.5 C 0 km/h
3002 09-09-2010 00:55:03 14.5 C 10.32 g/m*3 14.5 C 0 km/h
3003 09-09-2010 01:07:03 14.8 C 10.39 g/m*3 14.8 C 0 km/h
3004 09-09-2010 01:19:03 15 C 10 g/m*3 15 C 0 km/h
3005 09-09-2010 01:31:03 15.1 C 10.06 g/m*3 15.1 C 0 km/h
3006 09-09-2010 01:43:03 15.2 C 9.99 g/m*3 15.2 C 0 km/h
3007 09-09-2010 01:55:03 15.1 C 9.93 g/m*3 15.1 C 0 km/h
3008 09-09-2010 02:07:03 15.2 C 9.99 g/m*3 15.2 C 0 km/h
3009 09-09-2010 02:19:03 15.1 C 9.93 g/m*3 15.1 C 0 km/h
3010 09-09-2010 02:31:03 15.1 C 9.93 g/m*3 15.1 C 0 km/h
3011 09-09-2010 02:43:03 15.1 C 9.93 g/m*3 15.1 C 0 km/h
3012 09-09-2010 02:55:03 15.2 C 9.86 g/m*3 15.2 C 0 km/h
3013 09-09-2010 03:07:03 15.2 C 9.86 g/m*3 15.2 C 0 km/h
3014 09-09-2010 03:19:03 15.3 C 9.79 g/m*3 15.3 C 0 km/h
3015 09-09-2010 03:31:03 15.3 C 9.79 g/m*3 15.3 C 0 km/h
3016 09-09-2010 03:43:03 15.4 C 9.72 g/m*3 15.4 C 0 km/h
3017 09-09-2010 03:55:04 15.4 C 9.72 g/m*3 15.4 C 0 km/h
3018 09-09-2010 04:07:04 15.4 C 9.59 g/m*3 15.4 C 0 km/h
3019 09-09-2010 04:19:04 15.2 C 9.48 g/m*3 15.2 C 0 km/h
3020 09-09-2010 04:31:04 15.2 C 9.35 g/m*3 15.2 C 0 km/h
3021 09-09-2010 04:43:04 15.2 C 9.22 g/m*3 15.2 C 0 km/h
3022 09-09-2010 04:55:04 15.1 C 9.03 g/m*3 15.1 C 0 km/h
3023 09-09-2010 05:07:04 14.9 C 9.05 g/m*3 14.9 C 0 km/h
3024 09-09-2010 05:19:04 14.9 C 9.05 g/m*3 14.9 C 0 km/h
3025 09-09-2010 05:31:04 14.9 C 9.05 g/m*3 14.9 C 0 km/h
Sensor: Nr:Datum:Temp:Abs-Feuchte:Windchill:Wind:
Aussen-T/F 3026 09-09-2010 05:43:04 14.9 C 9.05 g/m*3 14.9 C 0 km/h
3027 09-09-2010 05:55:04 14.9 C 8.92 g/m*3 14.9 C 0 km/h
3028 09-09-2010 06:07:04 14.8 C 8.87 g/m*3 14.8 C 0 km/h
3029 09-09-2010 06:19:04 14.8 C 8.87 g/m*3 14.8 C 0 km/h
3030 09-09-2010 06:31:04 14.8 C 8.87 g/m*3 14.8 C 0 km/h
3031 09-09-2010 06:43:04 14.8 C 8.87 g/m*3 14.8 C 0 km/h
3032 09-09-2010 06:55:04 14.7 C 8.94 g/m*3 14.7 C 0 km/h
3033 09-09-2010 07:07:04 14.5 C 9.08 g/m*3 14.5 C 0 km/h
3034 09-09-2010 07:19:04 14.5 C 9.08 g/m*3 14.5 C 0 km/h
3035 09-09-2010 07:31:04 14.6 C 9.13 g/m*3 14.6 C 0 km/h
3036 09-09-2010 07:43:04 14.6 C 9.01 g/m*3 14.6 C 0 km/h
3037 09-09-2010 07:55:04 14.7 C 9.07 g/m*3 14.7 C 0 km/h
3038 09-09-2010 08:07:02 14.7 C 9.07 g/m*3 14.7 C 0 km/h
3039 09-09-2010 08:19:02 14.8 C 9.12 g/m*3 14.8 C 0 km/h
3040 09-09-2010 08:31:02 14.8 C 9.12 g/m*3 14.8 C 0 km/h
3041 09-09-2010 08:43:02 14.8 C 9.12 g/m*3 14.8 C 0 km/h
3042 09-09-2010 08:55:02 14.9 C 9.05 g/m*3 14.9 C 0 km/h
3043 09-09-2010 09:07:02 14.9 C 9.05 g/m*3 14.9 C 0 km/h
3044 09-09-2010 09:19:03 14.9 C 9.05 g/m*3 14.9 C 0 km/h
3045 09-09-2010 09:31:02 15.2 C 9.09 g/m*3 15.2 C 0 km/h
3046 09-09-2010 09:43:02 15.5 C 9.12 g/m*3 15.5 C 0 km/h
3047 09-09-2010 09:55:01 15.8 C 9.15 g/m*3 15.8 C 0 km/h
3048 09-09-2010 10:07:02 16 C 8.99 g/m*3 16 C 0 km/h
3049 09-09-2010 10:19:02 16.4 C 9.07 g/m*3 16.4 C 0 km/h
3050 09-09-2010 10:31:01 16.8 C 9.15 g/m*3 16.8 C 0 km/h
Sensor: Nr:Datum:Temp:Abs-Feuchte:Windchill:Wind:
Aussen-T/F 3051 09-09-2010 10:43:01 17.2 C 9.08 g/m*3 17.2 C 0 km/h
3052 09-09-2010 10:55:02 17.4 C 9.19 g/m*3 17.4 C 0 km/h
3053 09-09-2010 11:07:01 17.5 C 9.09 g/m*3 17.5 C 0 km/h
3054 09-09-2010 11:19:02 17.5 C 9.09 g/m*3 17.5 C 0 km/h
3055 09-09-2010 11:31:02 17.8 C 8.8 g/m*3 17.8 C 0 km/h
3056 09-09-2010 11:43:02 17.8 C 8.65 g/m*3 17.8 C 0 km/h
3057 09-09-2010 11:55:02 18.3 C 8.76 g/m*3 18.3 C 0 km/h
3058 09-09-2010 12:07:01 18.5 C 8.23 g/m*3 18.5 C 0 km/h
3059 09-09-2010 12:19:02 18.6 C 8.28 g/m*3 18.6 C 0 km/h
3060 09-09-2010 12:31:02 18.6 C 8.12 g/m*3 18.6 C 0 km/h
3061 09-09-2010 12:43:02 19 C 8.15 g/m*3 19 C 0 km/h
3062 09-09-2010 12:55:02 18.5 C 8.07 g/m*3 18.5 C 0 km/h
3063 09-09-2010 13:07:02 18.6 C 8.28 g/m*3 18.6 C 0 km/h
3064 09-09-2010 13:19:02 18.7 C 8.17 g/m*3 18.7 C 0 km/h
3065 09-09-2010 13:31:02 18.7 C 8.01 g/m*3 18.7 C 0 km/h
3066 09-09-2010 13:43:02 19 C 8.15 g/m*3 19 C 0 km/h
3067 09-09-2010 13:55:02 19 C 8.47 g/m*3 19 C 0 km/h
3068 09-09-2010 14:07:02 18.6 C 8.12 g/m*3 18.6 C 0 km/h
3069 09-09-2010 14:19:02 18.4 C 8.18 g/m*3 18.4 C 0 km/h
3070 09-09-2010 14:31:02 18.8 C 8.86 g/m*3 18.8 C 0 km/h
3071 09-09-2010 14:43:02 19.3 C 8.79 g/m*3 19.3 C 0 km/h
3072 09-09-2010 14:55:02 19.8 C 9.05 g/m*3 19.8 C 0 km/h
3073 09-09-2010 15:07:02 20.3 C 8.97 g/m*3 20.3 C 0 km/h
3074 09-09-2010 15:19:02 20.3 C 8.97 g/m*3 20.3 C 0 km/h
3075 09-09-2010 15:31:02 19.5 C 8.89 g/m*3 19.5 C 0 km/h
Sensor: Nr:Datum:Temp:Abs-Feuchte:Windchill:Wind:
Aussen-T/F 3076 09-09-2010 15:43:02 18.7 C 9.29 g/m*3 18.7 C 0 km/h
3077 09-09-2010 15:55:02 18.1 C 9.43 g/m*3 18.1 C 0 km/h
3078 09-09-2010 16:07:01 17.7 C 9.51 g/m*3 17.7 C 0 km/h
3079 09-09-2010 16:19:02 16.1 C 10.14 g/m*3 16.1 C 0 km/h
3080 09-09-2010 16:31:01 16.1 C 10.42 g/m*3 16.1 C 0 km/h
3081 09-09-2010 16:43:01 17.1 C 11.79 g/m*3 17.1 C 0 km/h
3082 09-09-2010 16:55:02 18.5 C 12.82 g/m*3 18.5 C 0 km/h
3083 09-09-2010 17:07:02 18.2 C 12.28 g/m*3 18.2 C 0 km/h
3084 09-09-2010 17:19:02 18 C 12.13 g/m*3 18 C 0 km/h
3085 09-09-2010 17:31:02 17.9 C 11.45 g/m*3 17.9 C 0 km/h
3086 09-09-2010 17:43:02 17.8 C 11.08 g/m*3 17.8 C 0 km/h
3087 09-09-2010 17:55:02 17.7 C 11.16 g/m*3 17.7 C 0 km/h
3088 09-09-2010 18:07:02 17.7 C 11.32 g/m*3 17.7 C 0 km/h
3089 09-09-2010 18:19:01 17.7 C 10.86 g/m*3 17.7 C 0 km/h
3090 09-09-2010 18:31:02 17.7 C 10.41 g/m*3 17.7 C 0 km/h
3091 09-09-2010 18:43:03 17.9 C 10.38 g/m*3 17.9 C 0 km/h
3092 09-09-2010 18:55:02 17.5 C 9.39 g/m*3 17.5 C 0 km/h
3093 09-09-2010 19:07:02 17.2 C 9.37 g/m*3 17.2 C 0 km/h
3094 09-09-2010 19:19:01 16.8 C 9.44 g/m*3 16.8 C 0 km/h
3095 09-09-2010 19:31:02 16.5 C 9.55 g/m*3 16.5 C 0 km/h
3096 09-09-2010 19:43:02 16.2 C 9.52 g/m*3 16.2 C 0 km/h
3097 09-09-2010 19:55:01 16 C 9.4 g/m*3 16 C 0 km/h
3098 09-09-2010 20:07:02 15.9 C 9.48 g/m*3 15.9 C 0 km/h
3099 09-09-2010 20:19:02 15.8 C 9.42 g/m*3 15.8 C 0 km/h
3100 09-09-2010 20:31:01 15.4 C 9.72 g/m*3 15.4 C 0 km/h
Sensor: Nr:Datum:Temp:Abs-Feuchte:Windchill:Wind:
Aussen-T/F 3101 09-09-2010 20:43:01 15 C 10 g/m*3 15 C 0 km/h
3102 09-09-2010 20:55:01 14.9 C 10.2 g/m*3 14.9 C 0 km/h
3103 09-09-2010 21:07:01 14.9 C 10.32 g/m*3 14.9 C 0 km/h
3104 09-09-2010 21:19:02 14.9 C 10.32 g/m*3 14.9 C 0 km/h
3105 09-09-2010 21:31:01 14.8 C 10.26 g/m*3 14.8 C 0 km/h
3106 09-09-2010 21:43:01 14.7 C 10.2 g/m*3 14.7 C 0 km/h
3107 09-09-2010 21:55:02 14.7 C 10.2 g/m*3 14.7 C 0 km/h
3108 09-09-2010 22:07:02 14.7 C 10.2 g/m*3 14.7 C 0 km/h
3109 09-09-2010 22:19:01 14.8 C 10.13 g/m*3 14.8 C 0 km/h
3110 09-09-2010 22:31:01 14.8 C 10.26 g/m*3 14.8 C 0 km/h
3111 09-09-2010 22:43:01 14.7 C 10.2 g/m*3 14.7 C 0 km/h
3112 09-09-2010 22:56:02 14.7 C 10.07 g/m*3 14.7 C 0 km/h
3113 09-09-2010 23:08:02 14.8 C 10.01 g/m*3 14.8 C 0 km/h
3114 09-09-2010 23:20:03 15 C 9.75 g/m*3 15 C 0 km/h
3115 09-09-2010 23:32:03 15 C 9.62 g/m*3 15 C 0 km/h
3116 09-09-2010 23:44:03 15.1 C 9.68 g/m*3 15.1 C 0 km/h
3117 09-09-2010 23:56:03 15 C 9.49 g/m*3 15 C 0 km/h
3118 10-09-2010 00:08:03 14.9 C 9.81 g/m*3 14.9 C 0 km/h
3119 10-09-2010 00:20:03 14.8 C 9.88 g/m*3 14.8 C 0 km/h
3120 10-09-2010 00:32:03 14.6 C 10.01 g/m*3 14.6 C 0 km/h
3121 10-09-2010 00:44:03 14.6 C 10.01 g/m*3 14.6 C 0 km/h
3122 10-09-2010 00:56:03 14.4 C 9.89 g/m*3 14.4 C 0 km/h
3123 10-09-2010 01:08:03 14.3 C 9.83 g/m*3 14.3 C 0 km/h
3124 10-09-2010 01:20:03 14.1 C 9.71 g/m*3 14.1 C 0 km/h
3125 10-09-2010 01:32:03 13.9 C 9.71 g/m*3 13.9 C 0 km/h
Sensor: Nr:Datum:Temp:Abs-Feuchte:Windchill:Wind:
Aussen-T/F 3126 10-09-2010 01:44:03 13.8 C 9.77 g/m*3 13.8 C 0 km/h
3127 10-09-2010 01:56:03 13.9 C 9.83 g/m*3 13.9 C 0 km/h
3128 10-09-2010 02:08:03 13.8 C 9.89 g/m*3 13.8 C 0 km/h
3129 10-09-2010 02:20:03 13.8 C 9.89 g/m*3 13.8 C 0 km/h
3130 10-09-2010 02:32:03 13.9 C 10.07 g/m*3 13.9 C 0 km/h
3131 10-09-2010 02:44:03 14 C 10.01 g/m*3 14 C 0 km/h
3132 10-09-2010 02:56:03 14 C 9.89 g/m*3 14 C 0 km/h
3133 10-09-2010 03:08:03 14 C 10.01 g/m*3 14 C 0 km/h
3134 10-09-2010 03:20:03 14 C 10.01 g/m*3 14 C 0 km/h
3135 10-09-2010 03:32:04 13.9 C 10.07 g/m*3 13.9 C 0 km/h
3136 10-09-2010 03:44:04 13.8 C 10.13 g/m*3 13.8 C 0 km/h
3137 10-09-2010 03:56:04 13.8 C 10.13 g/m*3 13.8 C 0 km/h
3138 10-09-2010 04:08:04 13.9 C 10.31 g/m*3 13.9 C 0 km/h
3139 10-09-2010 04:20:04 14 C 10.25 g/m*3 14 C 0 km/h
3140 10-09-2010 04:32:04 13.9 C 10.31 g/m*3 13.9 C 0 km/h
3141 10-09-2010 04:44:04 13.8 C 10.25 g/m*3 13.8 C 0 km/h
3142 10-09-2010 04:56:04 13.6 C 10.12 g/m*3 13.6 C 0 km/h
3143 10-09-2010 05:08:04 13.4 C 10 g/m*3 13.4 C 0 km/h
3144 10-09-2010 05:20:04 13.2 C 9.99 g/m*3 13.2 C 0 km/h
3145 10-09-2010 05:32:04 13.1 C 10.04 g/m*3 13.1 C 0 km/h
3146 10-09-2010 05:44:04 12.8 C 9.97 g/m*3 12.8 C 0 km/h
3147 10-09-2010 05:56:04 12.8 C 9.97 g/m*3 12.8 C 0 km/h
3148 10-09-2010 06:08:04 13.2 C 10.33 g/m*3 13.2 C 0 km/h
3149 10-09-2010 06:20:04 13 C 10.09 g/m*3 13 C 0 km/h
3150 10-09-2010 06:32:04 13.1 C 10.27 g/m*3 13.1 C 0 km/h
Sensor: Nr:Datum:Temp:Abs-Feuchte:Windchill:Wind:
Aussen-T/F 3151 10-09-2010 06:44:04 13.1 C 10.27 g/m*3 13.1 C 0 km/h
3152 10-09-2010 06:56:04 13.2 C 10.22 g/m*3 13.2 C 0 km/h
3153 10-09-2010 07:08:04 13.1 C 10.16 g/m*3 13.1 C 0 km/h
3154 10-09-2010 07:20:04 13.2 C 9.99 g/m*3 13.2 C 0 km/h
3155 10-09-2010 07:32:05 13.3 C 9.7 g/m*3 13.3 C 0 km/h
3156 10-09-2010 07:44:05 13.2 C 9.64 g/m*3 13.2 C 0 km/h
3157 10-09-2010 07:56:02 13.1 C 9.7 g/m*3 13.1 C 0 km/h
3158 10-09-2010 08:08:02 13.1 C 9.81 g/m*3 13.1 C 0 km/h
3159 10-09-2010 08:20:02 13.1 C 9.93 g/m*3 13.1 C 0 km/h
3160 10-09-2010 08:32:02 13.2 C 9.99 g/m*3 13.2 C 0 km/h
3161 10-09-2010 08:44:03 13.5 C 10.06 g/m*3 13.5 C 0 km/h
3162 10-09-2010 08:56:02 13.7 C 9.95 g/m*3 13.7 C 0 km/h
3163 10-09-2010 09:08:02 14 C 9.77 g/m*3 14 C 0 km/h
3164 10-09-2010 09:20:02 14.4 C 9.64 g/m*3 14.4 C 0 km/h
3165 10-09-2010 09:32:02 14.5 C 9.58 g/m*3 14.5 C 0 km/h
3166 10-09-2010 09:44:02 14.9 C 9.43 g/m*3 14.9 C 0 km/h
3167 10-09-2010 09:56:02 15.2 C 9.22 g/m*3 15.2 C 0 km/h
3168 10-09-2010 10:08:02 15.5 C 9.39 g/m*3 15.5 C 0 km/h
3169 10-09-2010 10:20:03 15.7 C 9.23 g/m*3 15.7 C 0 km/h
3170 10-09-2010 10:32:02 16.2 C 9.38 g/m*3 16.2 C 0 km/h
3171 10-09-2010 10:44:02 16.6 C 9.46 g/m*3 16.6 C 0 km/h
3172 10-09-2010 10:56:02 16.8 C 9.29 g/m*3 16.8 C 0 km/h
3173 10-09-2010 11:08:02 17.2 C 9.37 g/m*3 17.2 C 0 km/h
3174 10-09-2010 11:20:02 17.7 C 9.51 g/m*3 17.7 C 0 km/h
3175 10-09-2010 11:32:02 18.1 C 9.12 g/m*3 18.1 C 0 km/h
Sensor: Nr:Datum:Temp:Abs-Feuchte:Windchill:Wind:
Aussen-T/F 3176 10-09-2010 11:44:02 18.1 C 8.96 g/m*3 18.1 C 0 km/h
3177 10-09-2010 11:56:02 18.3 C 9.07 g/m*3 18.3 C 0 km/h
3178 10-09-2010 12:08:01 18.6 C 9.07 g/m*3 18.6 C 0 km/h
3179 10-09-2010 12:20:02 18.7 C 9.13 g/m*3 18.7 C 0 km/h
3180 10-09-2010 12:32:02 18.4 C 9.12 g/m*3 18.4 C 0 km/h
3181 10-09-2010 12:44:02 18.8 C 9.34 g/m*3 18.8 C 0 km/h
3182 10-09-2010 12:56:02 19.2 C 9.23 g/m*3 19.2 C 0 km/h
3183 10-09-2010 13:08:03 19.5 C 8.89 g/m*3 19.5 C 0 km/h
3184 10-09-2010 13:20:02 19.4 C 8.84 g/m*3 19.4 C 0 km/h
3185 10-09-2010 13:32:02 19 C 8.47 g/m*3 19 C 0 km/h
3186 10-09-2010 13:44:02 19 C 8.47 g/m*3 19 C 0 km/h
3187 10-09-2010 13:56:01 19 C 8.64 g/m*3 19 C 0 km/h
3188 10-09-2010 14:08:02 19.3 C 8.79 g/m*3 19.3 C 0 km/h
3189 10-09-2010 14:20:01 19.9 C 8.76 g/m*3 19.9 C 0 km/h
3190 10-09-2010 14:32:01 20.4 C 8.67 g/m*3 20.4 C 0 km/h
3191 10-09-2010 14:44:01 20.2 C 8.74 g/m*3 20.2 C 0 km/h
3192 10-09-2010 14:56:01 19.9 C 8.76 g/m*3 19.9 C 0 km/h
3193 10-09-2010 15:08:02 20 C 8.64 g/m*3 20 C 0 km/h
3194 10-09-2010 15:20:02 20.6 C 8.95 g/m*3 20.6 C 0 km/h
3195 10-09-2010 15:32:01 20.9 C 8.38 g/m*3 20.9 C 0 km/h
3196 10-09-2010 15:44:01 21.2 C 8.34 g/m*3 21.2 C 0 km/h
3197 10-09-2010 15:56:02 21.4 C 8.62 g/m*3 21.4 C 0 km/h
3198 10-09-2010 16:08:01 21.2 C 8.34 g/m*3 21.2 C 0 km/h
3199 10-09-2010 16:20:02 20.8 C 8.33 g/m*3 20.8 C 0 km/h
3200 10-09-2010 16:32:01 21.1 C 8.48 g/m*3 21.1 C 0 km/h
Sensor: Nr:Datum:Temp:Abs-Feuchte:Windchill:Wind:
Aussen-T/F 3201 10-09-2010 16:44:01 21.2 C 8.71 g/m*3 21.2 C 0 km/h
3202 10-09-2010 16:56:02 21.2 C 8.34 g/m*3 21.2 C 0 km/h
3203 10-09-2010 17:08:02 20.9 C 8.56 g/m*3 20.9 C 0 km/h
3204 10-09-2010 17:20:02 20.5 C 8.9 g/m*3 20.5 C 0 km/h
3205 10-09-2010 17:32:03 20.1 C 9.04 g/m*3 20.1 C 0 km/h
3206 10-09-2010 17:44:03 19.8 C 9.39 g/m*3 19.8 C 0 km/h
3207 10-09-2010 17:56:02 19.6 C 8.95 g/m*3 19.6 C 0 km/h
3208 10-09-2010 18:08:02 19.4 C 9.18 g/m*3 19.4 C 0 km/h
3209 10-09-2010 18:20:02 18.9 C 9.56 g/m*3 18.9 C 0 km/h
3210 10-09-2010 18:32:02 17.8 C 10.17 g/m*3 17.8 C 0 km/h
3211 10-09-2010 18:44:02 16.8 C 10.72 g/m*3 16.8 C 0 km/h
3212 10-09-2010 18:56:02 16.4 C 11.03 g/m*3 16.4 C 0 km/h
3213 10-09-2010 19:08:02 16.4 C 11.31 g/m*3 16.4 C 0 km/h
3214 10-09-2010 19:20:02 16.8 C 11.72 g/m*3 16.8 C 0 km/h
3215 10-09-2010 19:32:02 16.3 C 11.38 g/m*3 16.3 C 0 km/h
3216 10-09-2010 19:44:02 16 C 11.31 g/m*3 16 C 0 km/h
3217 10-09-2010 19:56:02 15.8 C 11.44 g/m*3 15.8 C 0 km/h
3218 10-09-2010 20:08:03 15.8 C 11.58 g/m*3 15.8 C 0 km/h
3219 10-09-2010 20:20:02 15.7 C 11.51 g/m*3 15.7 C 0 km/h
3220 10-09-2010 20:32:03 15.6 C 11.57 g/m*3 15.6 C 0 km/h
3221 10-09-2010 20:44:03 15.6 C 11.57 g/m*3 15.6 C 0 km/h
3222 10-09-2010 20:56:02 15.7 C 11.64 g/m*3 15.7 C 0 km/h
3223 10-09-2010 21:08:01 15.8 C 11.71 g/m*3 15.8 C 0 km/h
3224 10-09-2010 21:20:02 15.8 C 11.71 g/m*3